St. Margarethen - Festspielgelnde
Wetterdaten: Mittwoch, 11.01.2012
Datum Zeit Temp. A. Feuchte A. Regen Wind Richtung Richtung Windben
11.01.2012 00:00 3,2 C 75 % 0,0 l/m 5,5 km/h (1 Bft) N 349 11,3 km/h (2 Bft)
11.01.2012 00:01 3,2 C 75 % 0,0 l/m 8,4 km/h (2 Bft) N-NO 16 9,7 km/h (2 Bft)
11.01.2012 00:02 3,3 C 75 % 0,0 l/m 5,3 km/h (1 Bft) N 5 8,0 km/h (2 Bft)
11.01.2012 00:03 3,3 C 75 % 0,0 l/m 7,4 km/h (2 Bft) N 8 12,9 km/h (3 Bft)
11.01.2012 00:04 3,3 C 75 % 0,0 l/m 7,5 km/h (2 Bft) N 1 11,3 km/h (2 Bft)
11.01.2012 00:05 3,3 C 75 % 0,0 l/m 10,1 km/h (2 Bft) N-NW 334 17,7 km/h (3 Bft)
11.01.2012 00:06 3,3 C 75 % 0,0 l/m 7,3 km/h (2 Bft) N 354 9,7 km/h (2 Bft)
11.01.2012 00:07 3,4 C 75 % 0,0 l/m 7,6 km/h (2 Bft) NW 304 11,3 km/h (2 Bft)
11.01.2012 00:08 3,4 C 75 % 0,0 l/m 5,7 km/h (1 Bft) NW 316 9,7 km/h (2 Bft)
11.01.2012 00:09 3,4 C 75 % 0,0 l/m 5,2 km/h (1 Bft) N-NW 328 8,0 km/h (2 Bft)
11.01.2012 00:10 3,4 C 75 % 0,0 l/m 5,9 km/h (2 Bft) NW 308 9,7 km/h (2 Bft)
11.01.2012 00:11 3,4 C 75 % 0,0 l/m 9,4 km/h (2 Bft) NW 316 11,3 km/h (2 Bft)
11.01.2012 00:12 3,4 C 75 % 0,0 l/m 7,8 km/h (2 Bft) NW 321 9,7 km/h (2 Bft)
11.01.2012 00:13 3,4 C 75 % 0,0 l/m 7,2 km/h (2 Bft) N-NW 347 11,3 km/h (2 Bft)
11.01.2012 00:14 3,4 C 75 % 0,0 l/m 5,6 km/h (1 Bft) N-NW 342 6,4 km/h (2 Bft)
11.01.2012 00:15 3,4 C 75 % 0,0 l/m 9,4 km/h (2 Bft) W-NW 300 12,9 km/h (3 Bft)
11.01.2012 00:16 3,4 C 75 % 0,0 l/m 6,8 km/h (2 Bft) N-NW 339 14,5 km/h (3 Bft)
11.01.2012 00:17 3,4 C 75 % 0,0 l/m 6,4 km/h (2 Bft) N 5 9,7 km/h (2 Bft)
11.01.2012 00:18 3,4 C 75 % 0,0 l/m 6,6 km/h (2 Bft) N-NO 16 9,7 km/h (2 Bft)
11.01.2012 00:19 3,4 C 75 % 0,0 l/m 5,6 km/h (1 Bft) N-NW 345 8,0 km/h (2 Bft)
11.01.2012 00:20 3,4 C 75 % 0,0 l/m 4,1 km/h (1 Bft) NO 39 6,4 km/h (2 Bft)
11.01.2012 00:21 3,3 C 75 % 0,0 l/m 5,2 km/h (1 Bft) N 6 9,7 km/h (2 Bft)
11.01.2012 00:22 3,3 C 76 % 0,0 l/m 5,1 km/h (1 Bft) NO 43 8,0 km/h (2 Bft)
11.01.2012 00:23 3,3 C 76 % 0,0 l/m 6,0 km/h (2 Bft) N-NO 14 8,0 km/h (2 Bft)
11.01.2012 00:24 3,3 C 76 % 0,0 l/m 6,1 km/h (2 Bft) N-NW 345 8,0 km/h (2 Bft)
11.01.2012 00:25 3,3 C 76 % 0,0 l/m 5,0 km/h (1 Bft) NW 321 6,4 km/h (2 Bft)
11.01.2012 00:26 3,2 C 76 % 0,0 l/m 4,8 km/h (1 Bft) N-NW 345 8,0 km/h (2 Bft)
11.01.2012 00:27 3,2 C 76 % 0,0 l/m 5,6 km/h (1 Bft) NW 314 8,0 km/h (2 Bft)
11.01.2012 00:28 3,2 C 76 % 0,0 l/m 5,0 km/h (1 Bft) NW 308 6,4 km/h (2 Bft)
11.01.2012 00:29 3,2 C 76 % 0,0 l/m 5,4 km/h (1 Bft) NW 323 6,4 km/h (2 Bft)
11.01.2012 00:30 3,2 C 77 % 0,0 l/m 4,2 km/h (1 Bft) NW 319 4,8 km/h (1 Bft)
11.01.2012 00:31 3,2 C 77 % 0,0 l/m 6,4 km/h (2 Bft) W-NW 300 9,7 km/h (2 Bft)
11.01.2012 00:32 3,2 C 77 % 0,0 l/m 7,2 km/h (2 Bft) N-NW 333 9,7 km/h (2 Bft)
11.01.2012 00:33 3,2 C 77 % 0,0 l/m 5,1 km/h (1 Bft) NW 312 8,0 km/h (2 Bft)
11.01.2012 00:34 3,2 C 77 % 0,0 l/m 5,0 km/h (1 Bft) N-NO 15 8,0 km/h (2 Bft)
11.01.2012 00:35 3,2 C 77 % 0,0 l/m 11,8 km/h (2 Bft) NW 307 14,5 km/h (3 Bft)
11.01.2012 00:36 3,3 C 77 % 0,0 l/m 9,1 km/h (2 Bft) NW 322 16,1 km/h (3 Bft)
11.01.2012 00:37 3,3 C 77 % 0,0 l/m 9,1 km/h (2 Bft) W-NW 302 11,3 km/h (2 Bft)
11.01.2012 00:38 3,3 C 77 % 0,0 l/m 7,2 km/h (2 Bft) W-NW 297 11,3 km/h (2 Bft)
11.01.2012 00:39 3,3 C 77 % 0,0 l/m 9,7 km/h (2 Bft) N-NW 332 12,9 km/h (3 Bft)
11.01.2012 00:40 3,3 C 76 % 0,0 l/m 5,9 km/h (2 Bft) N-NW 330 9,7 km/h (2 Bft)
11.01.2012 00:41 3,3 C 76 % 0,0 l/m 7,7 km/h (2 Bft) NW 319 11,3 km/h (2 Bft)
11.01.2012 00:42 3,4 C 76 % 0,0 l/m 4,7 km/h (1 Bft) N-NO 26 8,0 km/h (2 Bft)
11.01.2012 00:43 3,3 C 76 % 0,0 l/m 7,4 km/h (2 Bft) N-NW 337 11,3 km/h (2 Bft)
11.01.2012 00:44 3,3 C 76 % 0,0 l/m 5,6 km/h (1 Bft) N 352 8,0 km/h (2 Bft)
11.01.2012 00:45 3,3 C 76 % 0,0 l/m 3,8 km/h (1 Bft) N-NW 337 6,4 km/h (2 Bft)
11.01.2012 00:46 3,3 C 76 % 0,0 l/m 3,9 km/h (1 Bft) W-NW 297 6,4 km/h (2 Bft)
11.01.2012 00:47 3,3 C 76 % 0,0 l/m 5,6 km/h (1 Bft) N 9 6,4 km/h (2 Bft)
11.01.2012 00:48 3,3 C 76 % 0,0 l/m 4,5 km/h (1 Bft) N 352 6,4 km/h (2 Bft)
11.01.2012 00:49 3,3 C 76 % 0,0 l/m 3,0 km/h (1 Bft) NO 38 3,2 km/h (1 Bft)
11.01.2012 00:50 3,3 C 76 % 0,0 l/m 5,4 km/h (1 Bft) N-NO 19 9,7 km/h (2 Bft)
11.01.2012 00:51 3,3 C 76 % 0,0 l/m 5,2 km/h (1 Bft) NO 45 8,0 km/h (2 Bft)
11.01.2012 00:52 3,3 C 77 % 0,0 l/m 2,7 km/h (1 Bft) N-NW 345 3,2 km/h (1 Bft)
11.01.2012 00:53 3,3 C 77 % 0,0 l/m 4,4 km/h (1 Bft) NO 43 6,4 km/h (2 Bft)
11.01.2012 00:54 3,3 C 77 % 0,0 l/m 5,0 km/h (1 Bft) N 9 6,4 km/h (2 Bft)
11.01.2012 00:55 3,3 C 77 % 0,0 l/m 4,8 km/h (1 Bft) NO 43 6,4 km/h (2 Bft)
11.01.2012 00:56 3,3 C 77 % 0,0 l/m 6,6 km/h (2 Bft) N 353 8,0 km/h (2 Bft)
11.01.2012 00:57 3,3 C 77 % 0,0 l/m 3,6 km/h (1 Bft) NO 39 6,4 km/h (2 Bft)
11.01.2012 00:58 3,3 C 77 % 0,0 l/m 4,7 km/h (1 Bft) N-NW 339 8,0 km/h (2 Bft)
11.01.2012 00:59 3,3 C 77 % 0,0 l/m 7,4 km/h (2 Bft) N 4 9,7 km/h (2 Bft)
11.01.2012 01:00 3,3 C 77 % 0,0 l/m 4,4 km/h (1 Bft) N-NO 18 6,4 km/h (2 Bft)
11.01.2012 01:01 3,4 C 77 % 0,0 l/m 7,2 km/h (2 Bft) N-NW 337 9,7 km/h (2 Bft)
11.01.2012 01:02 3,4 C 77 % 0,0 l/m 5,9 km/h (2 Bft) N-NW 330 9,7 km/h (2 Bft)
11.01.2012 01:03 3,4 C 77 % 0,0 l/m 5,3 km/h (1 Bft) NW 322 8,0 km/h (2 Bft)
11.01.2012 01:04 3,4 C 77 % 0,0 l/m 4,9 km/h (1 Bft) N 6 6,4 km/h (2 Bft)
11.01.2012 01:05 3,5 C 77 % 0,0 l/m 5,6 km/h (1 Bft) N-NO 25 8,0 km/h (2 Bft)
11.01.2012 01:06 3,5 C 77 % 0,0 l/m 5,6 km/h (1 Bft) N-NO 14 8,0 km/h (2 Bft)
11.01.2012 01:07 3,5 C 76 % 0,0 l/m 3,8 km/h (1 Bft) NO 37 6,4 km/h (2 Bft)
11.01.2012 01:08 3,5 C 76 % 0,0 l/m 5,1 km/h (1 Bft) N-NO 25 8,0 km/h (2 Bft)
11.01.2012 01:09 3,5 C 76 % 0,0 l/m 5,5 km/h (1 Bft) N 360 8,0 km/h (2 Bft)
11.01.2012 01:10 3,5 C 77 % 0,0 l/m 4,4 km/h (1 Bft) N-NO 23 6,4 km/h (2 Bft)
11.01.2012 01:11 3,5 C 77 % 0,0 l/m 3,7 km/h (1 Bft) N-NO 15 6,4 km/h (2 Bft)
11.01.2012 01:12 3,5 C 77 % 0,0 l/m 5,0 km/h (1 Bft) N-NO 30 6,4 km/h (2 Bft)
11.01.2012 01:13 3,5 C 77 % 0,0 l/m 5,8 km/h (2 Bft) N-NO 33 8,0 km/h (2 Bft)
11.01.2012 01:14 3,5 C 77 % 0,0 l/m 6,2 km/h (2 Bft) N-NO 18 8,0 km/h (2 Bft)
11.01.2012 01:15 3,5 C 77 % 0,0 l/m 7,5 km/h (2 Bft) N-NO 27 11,3 km/h (2 Bft)
11.01.2012 01:16 3,5 C 77 % 0,0 l/m 9,3 km/h (2 Bft) N-NO 19 9,7 km/h (2 Bft)
11.01.2012 01:17 3,5 C 77 % 0,0 l/m 4,2 km/h (1 Bft) N-NO 25 6,4 km/h (2 Bft)
11.01.2012 01:18 3,5 C 77 % 0,0 l/m 3,6 km/h (1 Bft) N-NO 23 6,4 km/h (2 Bft)
11.01.2012 01:19 3,5 C 77 % 0,0 l/m 3,7 km/h (1 Bft) NO 37 6,4 km/h (2 Bft)
11.01.2012 01:20 3,5 C 77 % 0,0 l/m 5,7 km/h (1 Bft) N-NW 346 8,0 km/h (2 Bft)
11.01.2012 01:21 3,4 C 77 % 0,0 l/m 5,4 km/h (1 Bft) N-NO 12 8,0 km/h (2 Bft)
11.01.2012 01:22 3,4 C 77 % 0,0 l/m 5,2 km/h (1 Bft) N-NO 30 6,4 km/h (2 Bft)
11.01.2012 01:23 3,4 C 77 % 0,0 l/m 7,4 km/h (2 Bft) N-NO 23 9,7 km/h (2 Bft)
11.01.2012 01:24 3,4 C 77 % 0,0 l/m 6,1 km/h (2 Bft) N 8 8,0 km/h (2 Bft)
11.01.2012 01:25 3,5 C 78 % 0,0 l/m 8,1 km/h (2 Bft) NO 51 9,7 km/h (2 Bft)
11.01.2012 01:26 3,5 C 78 % 0,0 l/m 8,0 km/h (2 Bft) N-NO 22 9,7 km/h (2 Bft)
11.01.2012 01:27 3,5 C 78 % 0,0 l/m 10,1 km/h (2 Bft) N-NO 23 11,3 km/h (2 Bft)
11.01.2012 01:28 3,6 C 78 % 0,0 l/m 7,5 km/h (2 Bft) N-NW 342 11,3 km/h (2 Bft)
11.01.2012 01:29 3,6 C 78 % 0,0 l/m 8,2 km/h (2 Bft) N-NO 29 11,3 km/h (2 Bft)
11.01.2012 01:30 3,6 C 77 % 0,0 l/m 7,8 km/h (2 Bft) NO 46 9,7 km/h (2 Bft)
11.01.2012 01:31 3,6 C 77 % 0,0 l/m 6,5 km/h (2 Bft) N-NO 18 11,3 km/h (2 Bft)
11.01.2012 01:32 3,6 C 78 % 0,0 l/m 8,2 km/h (2 Bft) N-NO 19 12,9 km/h (3 Bft)
11.01.2012 01:33 3,6 C 78 % 0,0 l/m 7,7 km/h (2 Bft) N-NO 32 9,7 km/h (2 Bft)
11.01.2012 01:34 3,6 C 78 % 0,0 l/m 6,9 km/h (2 Bft) N 357 9,7 km/h (2 Bft)
11.01.2012 01:35 3,6 C 78 % 0,0 l/m 9,9 km/h (2 Bft) N-NO 30 14,5 km/h (3 Bft)
11.01.2012 01:36 3,6 C 78 % 0,0 l/m 8,2 km/h (2 Bft) N-NW 340 12,9 km/h (3 Bft)
11.01.2012 01:37 3,7 C 78 % 0,0 l/m 8,3 km/h (2 Bft) NW 319 11,3 km/h (2 Bft)
11.01.2012 01:38 3,7 C 78 % 0,0 l/m 7,6 km/h (2 Bft) N-NW 333 11,3 km/h (2 Bft)
11.01.2012 01:39 3,7 C 78 % 0,0 l/m 8,9 km/h (2 Bft) N-NW 347 12,9 km/h (3 Bft)
11.01.2012 01:40 3,8 C 78 % 0,0 l/m 9,1 km/h (2 Bft) N-NO 25 12,9 km/h (3 Bft)
11.01.2012 01:41 3,8 C 78 % 0,0 l/m 10,0 km/h (2 Bft) N-NW 336 12,9 km/h (3 Bft)
11.01.2012 01:42 3,8 C 78 % 0,0 l/m 9,7 km/h (2 Bft) N-NO 26 17,7 km/h (3 Bft)
11.01.2012 01:43 3,8 C 78 % 0,0 l/m 9,9 km/h (2 Bft) N-NO 20 12,9 km/h (3 Bft)
11.01.2012 01:44 3,9 C 77 % 0,0 l/m 8,4 km/h (2 Bft) NW 314 11,3 km/h (2 Bft)
11.01.2012 01:45 3,9 C 77 % 0,0 l/m 10,5 km/h (2 Bft) N-NW 335 16,1 km/h (3 Bft)
11.01.2012 01:46 3,9 C 77 % 0,0 l/m 9,7 km/h (2 Bft) NO 42 16,1 km/h (3 Bft)
11.01.2012 01:47 3,9 C 77 % 0,0 l/m 9,0 km/h (2 Bft) NW 321 14,5 km/h (3 Bft)
11.01.2012 01:48 3,9 C 77 % 0,0 l/m 9,6 km/h (2 Bft) N 352 11,3 km/h (2 Bft)
11.01.2012 01:49 4,0 C 77 % 0,0 l/m 9,7 km/h (2 Bft) N-NW 328 14,5 km/h (3 Bft)
11.01.2012 01:50 4,0 C 77 % 0,0 l/m 8,8 km/h (2 Bft) NW 316 12,9 km/h (3 Bft)
11.01.2012 01:51 4,0 C 77 % 0,0 l/m 9,1 km/h (2 Bft) N 354 12,9 km/h (3 Bft)
11.01.2012 01:52 4,0 C 77 % 0,0 l/m 8,6 km/h (2 Bft) N 5 12,9 km/h (3 Bft)
11.01.2012 01:53 4,0 C 77 % 0,0 l/m 8,6 km/h (2 Bft) N-NW 328 12,9 km/h (3 Bft)
11.01.2012 01:54 4,0 C 77 % 0,0 l/m 10,7 km/h (2 Bft) NW 317 16,1 km/h (3 Bft)
11.01.2012 01:55 4,0 C 78 % 0,0 l/m 10,1 km/h (2 Bft) N-NW 342 12,9 km/h (3 Bft)
11.01.2012 01:56 4,0 C 78 % 0,0 l/m 9,0 km/h (2 Bft) N 356 12,9 km/h (3 Bft)
11.01.2012 01:57 4,0 C 78 % 0,0 l/m 8,1 km/h (2 Bft) N-NW 333 11,3 km/h (2 Bft)
11.01.2012 01:58 4,0 C 78 % 0,0 l/m 8,0 km/h (2 Bft) NW 321 9,7 km/h (2 Bft)
11.01.2012 01:59 4,0 C 78 % 0,0 l/m 8,6 km/h (2 Bft) NW 308 11,3 km/h (2 Bft)
11.01.2012 02:00 4,0 C 78 % 0,0 l/m 9,4 km/h (2 Bft) N-NW 328 14,5 km/h (3 Bft)
11.01.2012 02:01 4,0 C 78 % 0,0 l/m 8,8 km/h (2 Bft) W 278 14,5 km/h (3 Bft)
11.01.2012 02:02 4,0 C 78 % 0,0 l/m 8,0 km/h (2 Bft) NW 316 11,3 km/h (2 Bft)
11.01.2012 02:03 4,0 C 78 % 0,0 l/m 10,1 km/h (2 Bft) N-NW 342 14,5 km/h (3 Bft)
11.01.2012 02:04 4,1 C 78 % 0,0 l/m 11,2 km/h (2 Bft) NW 319 14,5 km/h (3 Bft)
11.01.2012 02:05 4,1 C 78 % 0,0 l/m 9,3 km/h (2 Bft) NW 313 14,5 km/h (3 Bft)
11.01.2012 02:06 4,1 C 78 % 0,0 l/m 9,4 km/h (2 Bft) NW 321 12,9 km/h (3 Bft)
11.01.2012 02:07 4,1 C 78 % 0,0 l/m 7,7 km/h (2 Bft) NW 312 9,7 km/h (2 Bft)
11.01.2012 02:08 4,1 C 78 % 0,0 l/m 10,1 km/h (2 Bft) N-NW 328 12,9 km/h (3 Bft)
11.01.2012 02:09 4,0 C 78 % 0,0 l/m 9,8 km/h (2 Bft) W-NW 293 12,9 km/h (3 Bft)
11.01.2012 02:10 4,0 C 78 % 0,0 l/m 8,2 km/h (2 Bft) NW 316 12,9 km/h (3 Bft)
11.01.2012 02:11 4,0 C 78 % 0,0 l/m 8,6 km/h (2 Bft) NW 325 11,3 km/h (2 Bft)
11.01.2012 02:12 4,0 C 78 % 0,0 l/m 8,0 km/h (2 Bft) N-NW 333 9,7 km/h (2 Bft)
11.01.2012 02:13 4,0 C 78 % 0,0 l/m 7,1 km/h (2 Bft) W-NW 293 8,0 km/h (2 Bft)
11.01.2012 02:14 4,0 C 78 % 0,0 l/m 7,6 km/h (2 Bft) W-NW 297 11,3 km/h (2 Bft)
11.01.2012 02:15 4,0 C 78 % 0,0 l/m 7,4 km/h (2 Bft) W-NW 289 9,7 km/h (2 Bft)
11.01.2012 02:16 4,0 C 78 % 0,0 l/m 7,3 km/h (2 Bft) NW 321 9,7 km/h (2 Bft)
11.01.2012 02:17 4,0 C 78 % 0,0 l/m 5,4 km/h (1 Bft) NW 317 8,0 km/h (2 Bft)
11.01.2012 02:18 3,9 C 78 % 0,0 l/m 7,5 km/h (2 Bft) N-NO 18 9,7 km/h (2 Bft)
11.01.2012 02:19 3,9 C 78 % 0,0 l/m 8,3 km/h (2 Bft) N-NW 331 11,3 km/h (2 Bft)
11.01.2012 02:20 3,9 C 78 % 0,0 l/m 6,1 km/h (2 Bft) N-NW 330 6,4 km/h (2 Bft)
11.01.2012 02:21 3,9 C 79 % 0,0 l/m 6,4 km/h (2 Bft) N-NW 333 9,7 km/h (2 Bft)
11.01.2012 02:22 3,8 C 79 % 0,0 l/m 7,1 km/h (2 Bft) NW 317 9,7 km/h (2 Bft)
11.01.2012 02:23 3,8 C 79 % 0,0 l/m 8,4 km/h (2 Bft) N-NW 331 11,3 km/h (2 Bft)
11.01.2012 02:24 3,8 C 79 % 0,0 l/m 7,7 km/h (2 Bft) N-NW 341 11,3 km/h (2 Bft)
11.01.2012 02:25 3,8 C 79 % 0,0 l/m 6,9 km/h (2 Bft) N 352 8,0 km/h (2 Bft)
11.01.2012 02:26 3,8 C 79 % 0,0 l/m 7,8 km/h (2 Bft) NW 322 11,3 km/h (2 Bft)
11.01.2012 02:27 3,8 C 79 % 0,0 l/m 9,1 km/h (2 Bft) NW 319 11,3 km/h (2 Bft)
11.01.2012 02:28 3,8 C 79 % 0,0 l/m 6,3 km/h (2 Bft) N 353 8,0 km/h (2 Bft)
11.01.2012 02:29 3,8 C 79 % 0,0 l/m 9,6 km/h (2 Bft) NW 305 14,5 km/h (3 Bft)
11.01.2012 02:30 3,9 C 79 % 0,0 l/m 6,8 km/h (2 Bft) N-NW 328 9,7 km/h (2 Bft)
11.01.2012 02:31 3,9 C 79 % 0,0 l/m 9,1 km/h (2 Bft) NW 325 11,3 km/h (2 Bft)
11.01.2012 02:32 3,9 C 79 % 0,0 l/m 9,1 km/h (2 Bft) N-NW 336 12,9 km/h (3 Bft)
11.01.2012 02:33 3,9 C 79 % 0,0 l/m 8,9 km/h (2 Bft) NW 306 11,3 km/h (2 Bft)
11.01.2012 02:34 3,9 C 79 % 0,0 l/m 10,9 km/h (2 Bft) N-NW 337 12,9 km/h (3 Bft)
11.01.2012 02:35 3,9 C 79 % 0,0 l/m 7,8 km/h (2 Bft) NW 325 9,7 km/h (2 Bft)
11.01.2012 02:36 3,9 C 79 % 0,0 l/m 10,5 km/h (2 Bft) N-NW 340 14,5 km/h (3 Bft)
11.01.2012 02:37 3,9 C 79 % 0,0 l/m 9,8 km/h (2 Bft) W-NW 301 12,9 km/h (3 Bft)
11.01.2012 02:38 3,9 C 79 % 0,0 l/m 9,6 km/h (2 Bft) N 8 12,9 km/h (3 Bft)
11.01.2012 02:39 3,9 C 79 % 0,0 l/m 9,3 km/h (2 Bft) N-NW 340 14,5 km/h (3 Bft)
11.01.2012 02:40 3,9 C 79 % 0,0 l/m 10,3 km/h (2 Bft) NW 323 12,9 km/h (3 Bft)
11.01.2012 02:41 3,9 C 79 % 0,0 l/m 10,3 km/h (2 Bft) N-NW 330 12,9 km/h (3 Bft)
11.01.2012 02:42 3,9 C 79 % 0,0 l/m 10,8 km/h (2 Bft) NW 321 14,5 km/h (3 Bft)
11.01.2012 02:43 3,9 C 79 % 0,0 l/m 10,5 km/h (2 Bft) NW 309 14,5 km/h (3 Bft)
11.01.2012 02:44 3,8 C 79 % 0,0 l/m 9,6 km/h (2 Bft) N-NW 333 14,5 km/h (3 Bft)
11.01.2012 02:45 3,8 C 79 % 0,0 l/m 9,7 km/h (2 Bft) NW 315 16,1 km/h (3 Bft)
11.01.2012 02:46 3,8 C 79 % 0,0 l/m 8,8 km/h (2 Bft) N-NW 347 12,9 km/h (3 Bft)
11.01.2012 02:47 3,8 C 79 % 0,0 l/m 7,6 km/h (2 Bft) NW 308 12,9 km/h (3 Bft)
11.01.2012 02:48 3,8 C 79 % 0,0 l/m 7,8 km/h (2 Bft) N-NW 335 14,5 km/h (3 Bft)
11.01.2012 02:49 3,8 C 79 % 0,0 l/m 8,1 km/h (2 Bft) W-NW 289 11,3 km/h (2 Bft)
11.01.2012 02:50 3,8 C 80 % 0,0 l/m 10,9 km/h (2 Bft) W-NW 300 16,1 km/h (3 Bft)
11.01.2012 02:51 3,8 C 80 % 0,0 l/m 7,1 km/h (2 Bft) W-NW 300 16,1 km/h (3 Bft)
11.01.2012 02:52 3,7 C 80 % 0,0 l/m 8,0 km/h (2 Bft) W-NW 295 11,3 km/h (2 Bft)
11.01.2012 02:53 3,7 C 80 % 0,0 l/m 8,0 km/h (2 Bft) NW 326 12,9 km/h (3 Bft)
11.01.2012 02:54 3,7 C 80 % 0,0 l/m 7,8 km/h (2 Bft) W 277 11,3 km/h (2 Bft)
11.01.2012 02:55 3,7 C 80 % 0,0 l/m 9,0 km/h (2 Bft) W-NW 288 12,9 km/h (3 Bft)
11.01.2012 02:56 3,6 C 80 % 0,0 l/m 7,6 km/h (2 Bft) W-NW 300 12,9 km/h (3 Bft)
11.01.2012 02:57 3,6 C 80 % 0,0 l/m 6,5 km/h (2 Bft) W-NW 296 9,7 km/h (2 Bft)
11.01.2012 02:58 3,6 C 81 % 0,0 l/m 7,0 km/h (2 Bft) NW 308 14,5 km/h (3 Bft)
11.01.2012 02:59 3,6 C 81 % 0,0 l/m 7,0 km/h (2 Bft) W-NW 297 11,3 km/h (2 Bft)
11.01.2012 03:00 3,6 C 81 % 0,0 l/m 10,8 km/h (2 Bft) NW 307 14,5 km/h (3 Bft)
11.01.2012 03:01 3,6 C 81 % 0,0 l/m 10,2 km/h (2 Bft) W-NW 291 12,9 km/h (3 Bft)
11.01.2012 03:02 3,6 C 81 % 0,0 l/m 8,6 km/h (2 Bft) NW 312 12,9 km/h (3 Bft)
11.01.2012 03:03 3,6 C 81 % 0,0 l/m 6,0 km/h (2 Bft) NW 319 8,0 km/h (2 Bft)
11.01.2012 03:04 3,6 C 81 % 0,0 l/m 6,2 km/h (2 Bft) NW 319 9,7 km/h (2 Bft)
11.01.2012 03:05 3,6 C 81 % 0,0 l/m 5,4 km/h (1 Bft) NW 313 11,3 km/h (2 Bft)
11.01.2012 03:06 3,6 C 81 % 0,0 l/m 8,7 km/h (2 Bft) NW 321 14,5 km/h (3 Bft)
11.01.2012 03:07 3,6 C 81 % 0,0 l/m 5,7 km/h (1 Bft) W-NW 293 11,3 km/h (2 Bft)
11.01.2012 03:08 3,6 C 81 % 0,0 l/m 8,3 km/h (2 Bft) N-NW 336 14,5 km/h (3 Bft)
11.01.2012 03:09 3,7 C 81 % 0,0 l/m 8,6 km/h (2 Bft) N-NW 329 12,9 km/h (3 Bft)
11.01.2012 03:10 3,7 C 81 % 0,0 l/m 10,3 km/h (2 Bft) NW 323 14,5 km/h (3 Bft)
11.01.2012 03:11 3,7 C 81 % 0,0 l/m 10,5 km/h (2 Bft) NW 321 16,1 km/h (3 Bft)
11.01.2012 03:12 3,8 C 81 % 0,0 l/m 9,2 km/h (2 Bft) N-NW 337 16,1 km/h (3 Bft)
11.01.2012 03:13 3,8 C 81 % 0,0 l/m 10,4 km/h (2 Bft) W-NW 295 14,5 km/h (3 Bft)
11.01.2012 03:14 3,8 C 81 % 0,0 l/m 9,1 km/h (2 Bft) W-NW 290 14,5 km/h (3 Bft)
11.01.2012 03:15 3,8 C 81 % 0,0 l/m 8,7 km/h (2 Bft) NW 323 17,7 km/h (3 Bft)
11.01.2012 03:16 3,8 C 81 % 0,0 l/m 11,7 km/h (2 Bft) N-NW 330 16,1 km/h (3 Bft)
11.01.2012 03:17 3,9 C 81 % 0,0 l/m 7,7 km/h (2 Bft) W-SW 257 11,3 km/h (2 Bft)
11.01.2012 03:18 3,9 C 81 % 0,0 l/m 7,8 km/h (2 Bft) W-NW 297 11,3 km/h (2 Bft)
11.01.2012 03:19 3,9 C 81 % 0,0 l/m 7,9 km/h (2 Bft) NW 321 11,3 km/h (2 Bft)
11.01.2012 03:20 3,9 C 81 % 0,0 l/m 6,8 km/h (2 Bft) NW 304 12,9 km/h (3 Bft)
11.01.2012 03:21 3,9 C 81 % 0,0 l/m 9,2 km/h (2 Bft) W-NW 297 12,9 km/h (3 Bft)
11.01.2012 03:22 3,9 C 81 % 0,0 l/m 9,7 km/h (2 Bft) W-NW 295 14,5 km/h (3 Bft)
11.01.2012 03:23 3,9 C 81 % 0,0 l/m 9,2 km/h (2 Bft) W-NW 298 17,7 km/h (3 Bft)
11.01.2012 03:24 4,0 C 81 % 0,0 l/m 7,6 km/h (2 Bft) N 354 9,7 km/h (2 Bft)
11.01.2012 03:25 4,0 C 81 % 0,0 l/m 8,4 km/h (2 Bft) W-NW 301 11,3 km/h (2 Bft)
11.01.2012 03:26 4,0 C 81 % 0,0 l/m 8,9 km/h (2 Bft) NW 315 12,9 km/h (3 Bft)
11.01.2012 03:27 4,0 C 81 % 0,0 l/m 9,5 km/h (2 Bft) NW 312 14,5 km/h (3 Bft)
11.01.2012 03:28 4,0 C 81 % 0,0 l/m 7,3 km/h (2 Bft) W-NW 289 11,3 km/h (2 Bft)
11.01.2012 03:29 3,9 C 81 % 0,0 l/m 8,2 km/h (2 Bft) W-NW 302 12,9 km/h (3 Bft)
11.01.2012 03:30 4,0 C 81 % 0,0 l/m 9,7 km/h (2 Bft) N 360 14,5 km/h (3 Bft)
11.01.2012 03:31 4,0 C 81 % 0,0 l/m 6,0 km/h (2 Bft) W-NW 293 11,3 km/h (2 Bft)
11.01.2012 03:32 4,0 C 81 % 0,0 l/m 8,9 km/h (2 Bft) W-NW 297 11,3 km/h (2 Bft)
11.01.2012 03:33 4,0 C 81 % 0,0 l/m 8,1 km/h (2 Bft) NW 319 11,3 km/h (2 Bft)
11.01.2012 03:34 3,9 C 81 % 0,0 l/m 6,1 km/h (2 Bft) NW 304 11,3 km/h (2 Bft)
11.01.2012 03:35 3,9 C 81 % 0,0 l/m 9,3 km/h (2 Bft) W-NW 294 12,9 km/h (3 Bft)
11.01.2012 03:36 3,9 C 81 % 0,0 l/m 6,4 km/h (2 Bft) W-NW 295 9,7 km/h (2 Bft)
11.01.2012 03:37 3,9 C 81 % 0,0 l/m 6,9 km/h (2 Bft) NW 316 9,7 km/h (2 Bft)
11.01.2012 03:38 3,9 C 81 % 0,0 l/m 5,7 km/h (1 Bft) W-NW 301 9,7 km/h (2 Bft)
11.01.2012 03:39 3,9 C 81 % 0,0 l/m 5,8 km/h (2 Bft) NW 307 11,3 km/h (2 Bft)
11.01.2012 03:40 3,9 C 80 % 0,0 l/m 5,8 km/h (2 Bft) NW 323 11,3 km/h (2 Bft)
11.01.2012 03:41 4,0 C 80 % 0,0 l/m 6,0 km/h (2 Bft) N-NO 19 6,4 km/h (2 Bft)
11.01.2012 03:42 3,9 C 80 % 0,0 l/m 8,3 km/h (2 Bft) NW 316 14,5 km/h (3 Bft)
11.01.2012 03:43 4,0 C 80 % 0,0 l/m 6,6 km/h (2 Bft) NW 307 14,5 km/h (3 Bft)
11.01.2012 03:44 4,0 C 80 % 0,0 l/m 5,6 km/h (1 Bft) NW 314 9,7 km/h (2 Bft)
11.01.2012 03:45 4,0 C 80 % 0,0 l/m 6,5 km/h (2 Bft) W-NW 297 8,0 km/h (2 Bft)
11.01.2012 03:46 4,1 C 80 % 0,0 l/m 5,9 km/h (2 Bft) NW 312 9,7 km/h (2 Bft)
11.01.2012 03:47 4,1 C 80 % 0,0 l/m 5,8 km/h (2 Bft) W-NW 293 8,0 km/h (2 Bft)
11.01.2012 03:48 4,1 C 80 % 0,0 l/m 5,2 km/h (1 Bft) N-NW 345 8,0 km/h (2 Bft)
11.01.2012 03:49 4,1 C 80 % 0,0 l/m 5,9 km/h (2 Bft) NW 321 8,0 km/h (2 Bft)
11.01.2012 03:50 4,1 C 80 % 0,0 l/m 6,8 km/h (2 Bft) W-NW 298 11,3 km/h (2 Bft)
11.01.2012 03:51 4,1 C 80 % 0,0 l/m 5,1 km/h (1 Bft) N-NW 332 8,0 km/h (2 Bft)
11.01.2012 03:52 4,1 C 80 % 0,0 l/m 5,9 km/h (2 Bft) N-NW 330 11,3 km/h (2 Bft)
11.01.2012 03:53 4,1 C 80 % 0,0 l/m 6,0 km/h (2 Bft) W-NW 302 11,3 km/h (2 Bft)
11.01.2012 03:54 4,1 C 80 % 0,0 l/m 7,3 km/h (2 Bft) NW 306 9,7 km/h (2 Bft)
11.01.2012 03:55 4,1 C 80 % 0,0 l/m 7,2 km/h (2 Bft) NW 309 9,7 km/h (2 Bft)
11.01.2012 03:56 4,1 C 80 % 0,0 l/m 6,7 km/h (2 Bft) NW 312 9,7 km/h (2 Bft)
11.01.2012 03:57 4,2 C 80 % 0,0 l/m 8,5 km/h (2 Bft) NW 321 14,5 km/h (3 Bft)
11.01.2012 03:58 4,2 C 80 % 0,0 l/m 6,6 km/h (2 Bft) NW 308 12,9 km/h (3 Bft)
11.01.2012 03:59 4,2 C 80 % 0,0 l/m 10,1 km/h (2 Bft) NW 321 14,5 km/h (3 Bft)
11.01.2012 04:00 4,2 C 80 % 0,0 l/m 6,6 km/h (2 Bft) NW 316 9,7 km/h (2 Bft)
11.01.2012 04:01 4,2 C 80 % 0,0 l/m 8,6 km/h (2 Bft) NW 325 12,9 km/h (3 Bft)
11.01.2012 04:02 4,2 C 80 % 0,0 l/m 6,6 km/h (2 Bft) NW 322 12,9 km/h (3 Bft)
11.01.2012 04:03 4,2 C 80 % 0,0 l/m 4,5 km/h (1 Bft) W-NW 293 8,0 km/h (2 Bft)
11.01.2012 04:04 4,2 C 80 % 0,0 l/m 7,3 km/h (2 Bft) NW 313 11,3 km/h (2 Bft)
11.01.2012 04:05 4,2 C 80 % 0,0 l/m 8,3 km/h (2 Bft) NW 316 9,7 km/h (2 Bft)
11.01.2012 04:06 4,3 C 80 % 0,0 l/m 8,4 km/h (2 Bft) NW 308 11,3 km/h (2 Bft)
11.01.2012 04:07 4,3 C 80 % 0,0 l/m 9,0 km/h (2 Bft) N-NW 327 12,9 km/h (3 Bft)
11.01.2012 04:08 4,3 C 80 % 0,0 l/m 4,1 km/h (1 Bft) W 281 9,7 km/h (2 Bft)
11.01.2012 04:09 4,3 C 80 % 0,0 l/m 7,7 km/h (2 Bft) NW 316 12,9 km/h (3 Bft)
11.01.2012 04:10 4,3 C 80 % 0,0 l/m 7,2 km/h (2 Bft) N-NW 343 9,7 km/h (2 Bft)
11.01.2012 04:11 4,3 C 80 % 0,0 l/m 6,5 km/h (2 Bft) NW 325 9,7 km/h (2 Bft)
11.01.2012 04:12 4,3 C 80 % 0,0 l/m 5,1 km/h (1 Bft) N-NW 330 8,0 km/h (2 Bft)
11.01.2012 04:13 4,3 C 80 % 0,0 l/m 5,3 km/h (1 Bft) NW 321 8,0 km/h (2 Bft)
11.01.2012 04:14 4,3 C 80 % 0,0 l/m 6,4 km/h (2 Bft) NO 37 9,7 km/h (2 Bft)
11.01.2012 04:15 4,3 C 80 % 0,0 l/m 6,1 km/h (2 Bft) N-NW 333 9,7 km/h (2 Bft)
11.01.2012 04:16 4,3 C 80 % 0,0 l/m 6,1 km/h (2 Bft) NW 308 9,7 km/h (2 Bft)
11.01.2012 04:17 4,3 C 80 % 0,0 l/m 5,2 km/h (1 Bft) NW 326 9,7 km/h (2 Bft)
11.01.2012 04:18 4,3 C 80 % 0,0 l/m 6,4 km/h (2 Bft) W-NW 298 8,0 km/h (2 Bft)
11.01.2012 04:19 4,3 C 80 % 0,0 l/m 4,4 km/h (1 Bft) N-NW 338 8,0 km/h (2 Bft)
11.01.2012 04:20 4,3 C 80 % 0,0 l/m 5,5 km/h (1 Bft) NW 321 8,0 km/h (2 Bft)
11.01.2012 04:21 4,3 C 80 % 0,0 l/m 4,1 km/h (1 Bft) N 4 8,0 km/h (2 Bft)
11.01.2012 04:22 4,2 C 80 % 0,0 l/m 5,5 km/h (1 Bft) NW 306 8,0 km/h (2 Bft)
11.01.2012 04:23 4,2 C 80 % 0,0 l/m 6,0 km/h (2 Bft) N-NW 333 9,7 km/h (2 Bft)
11.01.2012 04:24 4,2 C 80 % 0,0 l/m 3,1 km/h (1 Bft) NW 307 4,8 km/h (1 Bft)
11.01.2012 04:25 4,2 C 80 % 0,0 l/m 5,8 km/h (2 Bft) N-NW 343 8,0 km/h (2 Bft)
11.01.2012 04:26 4,2 C 80 % 0,0 l/m 4,3 km/h (1 Bft) NW 316 8,0 km/h (2 Bft)
11.01.2012 04:27 4,2 C 80 % 0,0 l/m 4,3 km/h (1 Bft) N-NW 335 6,4 km/h (2 Bft)
11.01.2012 04:28 4,2 C 80 % 0,0 l/m 5,3 km/h (1 Bft) N-NO 18 9,7 km/h (2 Bft)
11.01.2012 04:29 4,2 C 80 % 0,0 l/m 5,0 km/h (1 Bft) W-NW 297 9,7 km/h (2 Bft)
11.01.2012 04:30 4,3 C 80 % 0,0 l/m 5,4 km/h (1 Bft) NW 325 8,0 km/h (2 Bft)
11.01.2012 04:31 4,3 C 80 % 0,0 l/m 4,7 km/h (1 Bft) N-NW 329 8,0 km/h (2 Bft)
11.01.2012 04:32 4,3 C 80 % 0,0 l/m 6,4 km/h (2 Bft) NW 323 11,3 km/h (2 Bft)
11.01.2012 04:33 4,3 C 80 % 0,0 l/m 6,2 km/h (2 Bft) N-NW 329 9,7 km/h (2 Bft)
11.01.2012 04:34 4,3 C 80 % 0,0 l/m 6,6 km/h (2 Bft) NW 316 9,7 km/h (2 Bft)
11.01.2012 04:35 4,3 C 80 % 0,0 l/m 7,0 km/h (2 Bft) N-NW 337 9,7 km/h (2 Bft)
11.01.2012 04:36 4,3 C 80 % 0,0 l/m 6,2 km/h (2 Bft) N 349 9,7 km/h (2 Bft)
11.01.2012 04:37 4,3 C 80 % 0,0 l/m 6,6 km/h (2 Bft) N-NW 337 9,7 km/h (2 Bft)
11.01.2012 04:38 4,4 C 80 % 0,0 l/m 5,4 km/h (1 Bft) N 5 8,0 km/h (2 Bft)
11.01.2012 04:39 4,4 C 80 % 0,0 l/m 7,0 km/h (2 Bft) N-NW 336 11,3 km/h (2 Bft)
11.01.2012 04:40 4,4 C 80 % 0,0 l/m 7,2 km/h (2 Bft) N 356 9,7 km/h (2 Bft)
11.01.2012 04:41 4,4 C 80 % 0,0 l/m 6,8 km/h (2 Bft) N-NW 347 9,7 km/h (2 Bft)
11.01.2012 04:42 4,4 C 80 % 0,0 l/m 7,2 km/h (2 Bft) N-NW 332 11,3 km/h (2 Bft)
11.01.2012 04:43 4,4 C 80 % 0,0 l/m 6,7 km/h (2 Bft) N-NO 18 9,7 km/h (2 Bft)
11.01.2012 04:44 4,4 C 80 % 0,0 l/m 5,2 km/h (1 Bft) NW 321 9,7 km/h (2 Bft)
11.01.2012 04:45 4,4 C 80 % 0,0 l/m 6,5 km/h (2 Bft) N 349 8,0 km/h (2 Bft)
11.01.2012 04:46 4,4 C 80 % 0,0 l/m 6,6 km/h (2 Bft) NW 322 8,0 km/h (2 Bft)
11.01.2012 04:47 4,4 C 80 % 0,0 l/m 5,7 km/h (1 Bft) N-NW 330 8,0 km/h (2 Bft)
11.01.2012 04:48 4,4 C 80 % 0,0 l/m 6,2 km/h (2 Bft) W-NW 295 9,7 km/h (2 Bft)
11.01.2012 04:49 4,4 C 80 % 0,0 l/m 5,4 km/h (1 Bft) N-NW 341 9,7 km/h (2 Bft)
11.01.2012 04:50 4,5 C 80 % 0,0 l/m 6,2 km/h (2 Bft) N 353 8,0 km/h (2 Bft)
11.01.2012 04:51 4,5 C 80 % 0,0 l/m 5,2 km/h (1 Bft) NW 316 9,7 km/h (2 Bft)
11.01.2012 04:52 4,5 C 80 % 0,0 l/m 5,9 km/h (2 Bft) N-NW 334 9,7 km/h (2 Bft)
11.01.2012 04:53 4,5 C 80 % 0,0 l/m 5,6 km/h (1 Bft) NW 319 9,7 km/h (2 Bft)
11.01.2012 04:54 4,5 C 80 % 0,0 l/m 5,1 km/h (1 Bft) N-NW 328 9,7 km/h (2 Bft)
11.01.2012 04:55 4,5 C 80 % 0,0 l/m 6,1 km/h (2 Bft) NW 323 8,0 km/h (2 Bft)
11.01.2012 04:56 4,5 C 80 % 0,0 l/m 6,0 km/h (2 Bft) N-NW 328 9,7 km/h (2 Bft)
11.01.2012 04:57 4,5 C 80 % 0,0 l/m 6,2 km/h (2 Bft) N-NW 339 9,7 km/h (2 Bft)
11.01.2012 04:58 4,5 C 80 % 0,0 l/m 5,5 km/h (1 Bft) N-NW 330 8,0 km/h (2 Bft)
11.01.2012 04:59 4,5 C 80 % 0,0 l/m 5,8 km/h (2 Bft) NW 307 8,0 km/h (2 Bft)
11.01.2012 05:00 4,5 C 80 % 0,0 l/m 4,9 km/h (1 Bft) N-NW 342 8,0 km/h (2 Bft)
11.01.2012 05:01 4,5 C 80 % 0,0 l/m 4,9 km/h (1 Bft) NW 326 8,0 km/h (2 Bft)
11.01.2012 05:02 4,5 C 80 % 0,0 l/m 4,8 km/h (1 Bft) N-NW 334 6,4 km/h (2 Bft)
11.01.2012 05:03 4,5 C 80 % 0,0 l/m 5,5 km/h (1 Bft) NW 325 6,4 km/h (2 Bft)
11.01.2012 05:04 4,5 C 80 % 0,0 l/m 5,5 km/h (1 Bft) NW 325 9,7 km/h (2 Bft)
11.01.2012 05:05 4,5 C 80 % 0,0 l/m 3,9 km/h (1 Bft) NW 323 6,4 km/h (2 Bft)
11.01.2012 05:06 4,5 C 80 % 0,0 l/m 4,2 km/h (1 Bft) W-NW 301 6,4 km/h (2 Bft)
11.01.2012 05:07 4,6 C 80 % 0,0 l/m 4,7 km/h (1 Bft) N-NW 329 6,4 km/h (2 Bft)
11.01.2012 05:08 4,6 C 79 % 0,0 l/m 3,6 km/h (1 Bft) W-NW 300 4,8 km/h (1 Bft)
11.01.2012 05:09 4,6 C 79 % 0,0 l/m 3,8 km/h (1 Bft) N-NO 13 6,4 km/h (2 Bft)
11.01.2012 05:10 4,6 C 79 % 0,0 l/m 3,3 km/h (1 Bft) N-NW 338 4,8 km/h (1 Bft)
11.01.2012 05:11 4,6 C 79 % 0,0 l/m 4,9 km/h (1 Bft) N-NW 330 8,0 km/h (2 Bft)
11.01.2012 05:12 4,6 C 79 % 0,0 l/m 3,7 km/h (1 Bft) NW 319 4,8 km/h (1 Bft)
11.01.2012 05:13 4,6 C 79 % 0,0 l/m 5,2 km/h (1 Bft) NW 316 8,0 km/h (2 Bft)
11.01.2012 05:14 4,7 C 79 % 0,0 l/m 5,2 km/h (1 Bft) NW 316 6,4 km/h (2 Bft)
11.01.2012 05:15 4,7 C 79 % 0,0 l/m 5,4 km/h (1 Bft) N-NW 330 6,4 km/h (2 Bft)
11.01.2012 05:16 4,7 C 79 % 0,0 l/m 5,2 km/h (1 Bft) N-NW 342 6,4 km/h (2 Bft)
11.01.2012 05:17 4,7 C 79 % 0,0 l/m 6,1 km/h (2 Bft) N 356 8,0 km/h (2 Bft)
11.01.2012 05:18 4,7 C 78 % 0,0 l/m 3,7 km/h (1 Bft) NW 306 4,8 km/h (1 Bft)
11.01.2012 05:19 4,8 C 78 % 0,0 l/m 4,6 km/h (1 Bft) NW 307 6,4 km/h (2 Bft)
11.01.2012 05:20 4,8 C 78 % 0,0 l/m 4,6 km/h (1 Bft) N-NW 335 6,4 km/h (2 Bft)
11.01.2012 05:21 4,8 C 78 % 0,0 l/m 3,8 km/h (1 Bft) N 5 6,4 km/h (2 Bft)
11.01.2012 05:22 4,8 C 78 % 0,0 l/m 5,6 km/h (1 Bft) N-NW 341 8,0 km/h (2 Bft)
11.01.2012 05:23 4,8 C 78 % 0,0 l/m 5,4 km/h (1 Bft) NW 316 6,4 km/h (2 Bft)
11.01.2012 05:24 4,8 C 78 % 0,0 l/m 4,1 km/h (1 Bft) N 8 6,4 km/h (2 Bft)
11.01.2012 05:25 4,8 C 78 % 0,0 l/m 3,7 km/h (1 Bft) N-NO 32 6,4 km/h (2 Bft)
11.01.2012 05:26 4,9 C 78 % 0,0 l/m 4,2 km/h (1 Bft) N-NW 330 6,4 km/h (2 Bft)
11.01.2012 05:27 4,8 C 78 % 0,0 l/m 4,3 km/h (1 Bft) NW 319 6,4 km/h (2 Bft)
11.01.2012 05:28 4,8 C 78 % 0,0 l/m 3,7 km/h (1 Bft) N-NW 328 6,4 km/h (2 Bft)
11.01.2012 05:29 4,8 C 78 % 0,0 l/m 2,5 km/h (1 Bft) N 6 3,2 km/h (1 Bft)
11.01.2012 05:30 4,9 C 78 % 0,0 l/m 2,6 km/h (1 Bft) N 358 3,2 km/h (1 Bft)
11.01.2012 05:31 4,9 C 78 % 0,0 l/m 4,2 km/h (1 Bft) N 4 6,4 km/h (2 Bft)
11.01.2012 05:32 4,8 C 78 % 0,0 l/m 5,4 km/h (1 Bft) N-NO 25 6,4 km/h (2 Bft)
11.01.2012 05:33 4,9 C 78 % 0,0 l/m 5,7 km/h (1 Bft) N-NO 29 8,0 km/h (2 Bft)
11.01.2012 05:34 4,9 C 78 % 0,0 l/m 6,0 km/h (2 Bft) N-NO 30 8,0 km/h (2 Bft)
11.01.2012 05:35 4,8 C 78 % 0,0 l/m 6,0 km/h (2 Bft) N 1 8,0 km/h (2 Bft)
11.01.2012 05:36 4,8 C 78 % 0,0 l/m 4,8 km/h (1 Bft) N-NO 13 6,4 km/h (2 Bft)
11.01.2012 05:37 4,8 C 78 % 0,0 l/m 3,9 km/h (1 Bft) N 8 6,4 km/h (2 Bft)
11.01.2012 05:38 4,8 C 78 % 0,0 l/m 4,4 km/h (1 Bft) N-NW 329 6,4 km/h (2 Bft)
11.01.2012 05:39 4,8 C 78 % 0,0 l/m 3,8 km/h (1 Bft) N-NW 330 4,8 km/h (1 Bft)
11.01.2012 05:40 4,8 C 78 % 0,0 l/m 3,5 km/h (1 Bft) N-NW 333 4,8 km/h (1 Bft)
11.01.2012 05:41 4,8 C 78 % 0,0 l/m 5,4 km/h (1 Bft) N-NW 328 8,0 km/h (2 Bft)
11.01.2012 05:42 4,9 C 77 % 0,0 l/m 4,1 km/h (1 Bft) N-NW 334 6,4 km/h (2 Bft)
11.01.2012 05:43 4,9 C 77 % 0,0 l/m 3,8 km/h (1 Bft) NW 313 6,4 km/h (2 Bft)
11.01.2012 05:44 4,9 C 77 % 0,0 l/m 2,6 km/h (1 Bft) N-NW 335 4,8 km/h (1 Bft)
11.01.2012 05:45 4,9 C 77 % 0,0 l/m 5,4 km/h (1 Bft) NW 326 6,4 km/h (2 Bft)
11.01.2012 05:46 4,9 C 77 % 0,0 l/m 6,3 km/h (2 Bft) NW 321 8,0 km/h (2 Bft)
11.01.2012 05:47 4,9 C 77 % 0,0 l/m 5,2 km/h (1 Bft) N-NW 328 6,4 km/h (2 Bft)
11.01.2012 05:48 4,9 C 77 % 0,0 l/m 5,3 km/h (1 Bft) NW 319 8,0 km/h (2 Bft)
11.01.2012 05:49 4,9 C 77 % 0,0 l/m 6,0 km/h (2 Bft) NW 310 8,0 km/h (2 Bft)
11.01.2012 05:50 4,9 C 77 % 0,0 l/m 5,6 km/h (1 Bft) N 353 9,7 km/h (2 Bft)
11.01.2012 05:51 4,9 C 77 % 0,0 l/m 4,1 km/h (1 Bft) NW 312 6,4 km/h (2 Bft)
11.01.2012 05:52 4,9 C 77 % 0,0 l/m 3,5 km/h (1 Bft) NW 322 4,8 km/h (1 Bft)
11.01.2012 05:53 4,9 C 77 % 0,0 l/m 7,7 km/h (2 Bft) NW 308 11,3 km/h (2 Bft)
11.01.2012 05:54 4,9 C 77 % 0,0 l/m 5,2 km/h (1 Bft) W-NW 302 8,0 km/h (2 Bft)
11.01.2012 05:55 4,9 C 77 % 0,0 l/m 3,9 km/h (1 Bft) NW 319 6,4 km/h (2 Bft)
11.01.2012 05:56 5,0 C 77 % 0,0 l/m 5,3 km/h (1 Bft) NW 307 9,7 km/h (2 Bft)
11.01.2012 05:57 5,0 C 77 % 0,0 l/m 5,2 km/h (1 Bft) N 349 9,7 km/h (2 Bft)
11.01.2012 05:58 5,0 C 77 % 0,0 l/m 6,8 km/h (2 Bft) N-NW 332 11,3 km/h (2 Bft)
11.01.2012 05:59 5,0 C 77 % 0,0 l/m 8,1 km/h (2 Bft) NW 304 11,3 km/h (2 Bft)
11.01.2012 06:00 5,0 C 77 % 0,0 l/m 4,4 km/h (1 Bft) W-NW 293 8,0 km/h (2 Bft)
11.01.2012 06:01 5,1 C 77 % 0,0 l/m 9,0 km/h (2 Bft) W-NW 283 11,3 km/h (2 Bft)
11.01.2012 06:02 5,1 C 77 % 0,0 l/m 8,0 km/h (2 Bft) NW 316 14,5 km/h (3 Bft)
11.01.2012 06:03 5,1 C 77 % 0,0 l/m 7,1 km/h (2 Bft) W-NW 295 9,7 km/h (2 Bft)
11.01.2012 06:04 5,1 C 76 % 0,0 l/m 7,6 km/h (2 Bft) W-NW 302 9,7 km/h (2 Bft)
11.01.2012 06:05 5,2 C 76 % 0,0 l/m 6,7 km/h (2 Bft) W-NW 293 11,3 km/h (2 Bft)
11.01.2012 06:06 5,2 C 76 % 0,0 l/m 8,7 km/h (2 Bft) W-NW 301 11,3 km/h (2 Bft)
11.01.2012 06:07 5,2 C 76 % 0,0 l/m 7,4 km/h (2 Bft) N-NW 331 11,3 km/h (2 Bft)
11.01.2012 06:08 5,2 C 76 % 0,0 l/m 9,3 km/h (2 Bft) W-NW 301 14,5 km/h (3 Bft)
11.01.2012 06:09 5,2 C 76 % 0,0 l/m 7,5 km/h (2 Bft) W-NW 287 11,3 km/h (2 Bft)
11.01.2012 06:10 5,2 C 76 % 0,0 l/m 6,9 km/h (2 Bft) NW 312 11,3 km/h (2 Bft)
11.01.2012 06:11 5,2 C 76 % 0,0 l/m 6,7 km/h (2 Bft) N-NW 333 9,7 km/h (2 Bft)
11.01.2012 06:12 5,3 C 76 % 0,0 l/m 7,0 km/h (2 Bft) W-NW 285 11,3 km/h (2 Bft)
11.01.2012 06:13 5,3 C 76 % 0,0 l/m 5,3 km/h (1 Bft) W-NW 300 9,7 km/h (2 Bft)
11.01.2012 06:14 5,2 C 76 % 0,0 l/m 5,6 km/h (1 Bft) W-NW 291 9,7 km/h (2 Bft)
11.01.2012 06:15 5,2 C 76 % 0,0 l/m 6,6 km/h (2 Bft) W-NW 288 9,7 km/h (2 Bft)
11.01.2012 06:16 5,2 C 76 % 0,0 l/m 6,8 km/h (2 Bft) NW 319 9,7 km/h (2 Bft)
11.01.2012 06:17 5,2 C 76 % 0,0 l/m 6,7 km/h (2 Bft) NW 316 9,7 km/h (2 Bft)
11.01.2012 06:18 5,2 C 76 % 0,0 l/m 6,4 km/h (2 Bft) W-NW 290 11,3 km/h (2 Bft)
11.01.2012 06:19 5,2 C 76 % 0,0 l/m 6,4 km/h (2 Bft) NW 312 11,3 km/h (2 Bft)
11.01.2012 06:20 5,2 C 76 % 0,0 l/m 6,5 km/h (2 Bft) NW 312 9,7 km/h (2 Bft)
11.01.2012 06:21 5,2 C 76 % 0,0 l/m 6,1 km/h (2 Bft) NW 305 8,0 km/h (2 Bft)
11.01.2012 06:22 5,2 C 76 % 0,0 l/m 7,2 km/h (2 Bft) NW 321 9,7 km/h (2 Bft)
11.01.2012 06:23 5,2 C 76 % 0,0 l/m 7,4 km/h (2 Bft) NW 316 12,9 km/h (3 Bft)
11.01.2012 06:24 5,2 C 77 % 0,0 l/m 6,0 km/h (2 Bft) W 266 11,3 km/h (2 Bft)
11.01.2012 06:25 5,2 C 77 % 0,0 l/m 3,4 km/h (1 Bft) NW 308 4,8 km/h (1 Bft)
11.01.2012 06:26 5,2 C 77 % 0,0 l/m 6,3 km/h (2 Bft) NW 308 9,7 km/h (2 Bft)
11.01.2012 06:27 5,2 C 77 % 0,0 l/m 6,6 km/h (2 Bft) W-NW 282 11,3 km/h (2 Bft)
11.01.2012 06:28 5,2 C 77 % 0,0 l/m 8,6 km/h (2 Bft) W-NW 301 11,3 km/h (2 Bft)
11.01.2012 06:29 5,2 C 76 % 0,0 l/m 7,8 km/h (2 Bft) N 354 12,9 km/h (3 Bft)
11.01.2012 06:30 5,3 C 76 % 0,0 l/m 6,9 km/h (2 Bft) W-NW 300 9,7 km/h (2 Bft)
11.01.2012 06:31 5,3 C 76 % 0,0 l/m 8,0 km/h (2 Bft) N-NW 333 12,9 km/h (3 Bft)
11.01.2012 06:32 5,3 C 76 % 0,0 l/m 8,4 km/h (2 Bft) W-NW 301 12,9 km/h (3 Bft)
11.01.2012 06:33 5,3 C 76 % 0,0 l/m 4,7 km/h (1 Bft) N 351 6,4 km/h (2 Bft)
11.01.2012 06:34 5,4 C 76 % 0,0 l/m 5,0 km/h (1 Bft) NW 305 8,0 km/h (2 Bft)
11.01.2012 06:35 5,4 C 76 % 0,0 l/m 7,3 km/h (2 Bft) W-NW 300 11,3 km/h (2 Bft)
11.01.2012 06:36 5,3 C 76 % 0,0 l/m 6,0 km/h (2 Bft) W-NW 284 9,7 km/h (2 Bft)
11.01.2012 06:37 5,4 C 76 % 0,0 l/m 8,7 km/h (2 Bft) W-NW 296 11,3 km/h (2 Bft)
11.01.2012 06:38 5,4 C 76 % 0,0 l/m 2,7 km/h (1 Bft) W-NW 288 4,8 km/h (1 Bft)
11.01.2012 06:39 5,4 C 76 % 0,0 l/m 4,4 km/h (1 Bft) W-NW 290 6,4 km/h (2 Bft)
11.01.2012 06:40 5,4 C 76 % 0,0 l/m 4,4 km/h (1 Bft) W 278 8,0 km/h (2 Bft)
11.01.2012 06:41 5,4 C 76 % 0,0 l/m 5,4 km/h (1 Bft) NW 305 8,0 km/h (2 Bft)
11.01.2012 06:42 5,4 C 76 % 0,0 l/m 4,8 km/h (1 Bft) NW 315 6,4 km/h (2 Bft)
11.01.2012 06:43 5,4 C 76 % 0,0 l/m 4,4 km/h (1 Bft) NW 312 6,4 km/h (2 Bft)
11.01.2012 06:44 5,4 C 76 % 0,0 l/m 3,6 km/h (1 Bft) N-NW 333 4,8 km/h (1 Bft)
11.01.2012 06:45 5,4 C 76 % 0,0 l/m 4,0 km/h (1 Bft) NW 308 6,4 km/h (2 Bft)
11.01.2012 06:46 5,4 C 76 % 0,0 l/m 3,9 km/h (1 Bft) NW 307 6,4 km/h (2 Bft)
11.01.2012 06:47 5,3 C 76 % 0,0 l/m 5,1 km/h (1 Bft) NW 305 8,0 km/h (2 Bft)
11.01.2012 06:48 5,4 C 76 % 0,0 l/m 5,0 km/h (1 Bft) W-NW 297 8,0 km/h (2 Bft)
11.01.2012 06:49 5,4 C 76 % 0,0 l/m 5,6 km/h (1 Bft) W-NW 295 8,0 km/h (2 Bft)
11.01.2012 06:50 5,4 C 76 % 0,0 l/m 3,8 km/h (1 Bft) NW 305 6,4 km/h (2 Bft)
11.01.2012 06:51 5,4 C 76 % 0,0 l/m 3,2 km/h (1 Bft) W-NW 298 8,0 km/h (2 Bft)
11.01.2012 06:52 5,4 C 76 % 0,0 l/m 6,1 km/h (2 Bft) NW 307 11,3 km/h (2 Bft)
11.01.2012 06:53 5,4 C 76 % 0,0 l/m 5,6 km/h (1 Bft) NW 326 6,4 km/h (2 Bft)
11.01.2012 06:54 5,4 C 76 % 0,0 l/m 5,1 km/h (1 Bft) W-NW 297 8,0 km/h (2 Bft)
11.01.2012 06:55 5,4 C 76 % 0,0 l/m 2,6 km/h (1 Bft) N-NW 341 3,2 km/h (1 Bft)
11.01.2012 06:56 5,4 C 76 % 0,0 l/m 2,6 km/h (1 Bft) N-NW 347 3,2 km/h (1 Bft)
11.01.2012 06:57 5,4 C 76 % 0,0 l/m 3,9 km/h (1 Bft) W-NW 300 6,4 km/h (2 Bft)
11.01.2012 06:58 5,4 C 76 % 0,0 l/m 4,8 km/h (1 Bft) W-NW 295 6,4 km/h (2 Bft)
11.01.2012 06:59 5,4 C 76 % 0,0 l/m 5,8 km/h (2 Bft) NW 307 8,0 km/h (2 Bft)
11.01.2012 07:00 5,4 C 76 % 0,0 l/m 4,7 km/h (1 Bft) W-NW 291 6,4 km/h (2 Bft)
11.01.2012 07:01 5,4 C 76 % 0,0 l/m 6,7 km/h (2 Bft) W-NW 293 9,7 km/h (2 Bft)
11.01.2012 07:02 5,4 C 76 % 0,0 l/m 5,2 km/h (1 Bft) NW 305 6,4 km/h (2 Bft)
11.01.2012 07:03 5,4 C 76 % 0,0 l/m 4,5 km/h (1 Bft) NW 307 6,4 km/h (2 Bft)
11.01.2012 07:04 5,4 C 76 % 0,0 l/m 7,4 km/h (2 Bft) W-NW 297 9,7 km/h (2 Bft)
11.01.2012 07:05 5,5 C 76 % 0,0 l/m 4,1 km/h (1 Bft) W-NW 295 9,7 km/h (2 Bft)
11.01.2012 07:06 5,5 C 76 % 0,0 l/m 5,6 km/h (1 Bft) W-SW 256 9,7 km/h (2 Bft)
11.01.2012 07:07 5,5 C 76 % 0,0 l/m 3,6 km/h (1 Bft) NW 323 8,0 km/h (2 Bft)
11.01.2012 07:08 5,5 C 76 % 0,0 l/m 2,9 km/h (1 Bft) W-SW 243 4,8 km/h (1 Bft)
11.01.2012 07:09 5,5 C 76 % 0,0 l/m 4,8 km/h (1 Bft) N-NW 342 8,0 km/h (2 Bft)
11.01.2012 07:10 5,6 C 75 % 0,0 l/m 6,4 km/h (2 Bft) W-NW 288 11,3 km/h (2 Bft)
11.01.2012 07:11 5,6 C 75 % 0,0 l/m 5,6 km/h (1 Bft) NW 304 8,0 km/h (2 Bft)
11.01.2012 07:12 5,6 C 75 % 0,0 l/m 6,7 km/h (2 Bft) W-NW 295 11,3 km/h (2 Bft)
11.01.2012 07:13 5,6 C 75 % 0,0 l/m 4,6 km/h (1 Bft) NW 307 9,7 km/h (2 Bft)
11.01.2012 07:14 5,6 C 75 % 0,0 l/m 4,8 km/h (1 Bft) NW 311 8,0 km/h (2 Bft)
11.01.2012 07:15 5,6 C 75 % 0,0 l/m 5,7 km/h (1 Bft) W-NW 284 8,0 km/h (2 Bft)
11.01.2012 07:16 5,6 C 75 % 0,0 l/m 4,0 km/h (1 Bft) N 1 4,8 km/h (1 Bft)
11.01.2012 07:17 5,6 C 75 % 0,0 l/m 4,3 km/h (1 Bft) W-SW 249 4,8 km/h (1 Bft)
11.01.2012 07:18 5,6 C 75 % 0,0 l/m 3,8 km/h (1 Bft) W-NW 295 6,4 km/h (2 Bft)
11.01.2012 07:19 5,6 C 75 % 0,0 l/m 4,4 km/h (1 Bft) N-NW 327 6,4 km/h (2 Bft)
11.01.2012 07:20 5,6 C 75 % 0,0 l/m 5,0 km/h (1 Bft) NW 315 8,0 km/h (2 Bft)
11.01.2012 07:21 5,6 C 75 % 0,0 l/m 5,3 km/h (1 Bft) W 280 6,4 km/h (2 Bft)
11.01.2012 07:22 5,6 C 75 % 0,0 l/m 6,2 km/h (2 Bft) W-NW 298 8,0 km/h (2 Bft)
11.01.2012 07:23 5,6 C 75 % 0,0 l/m 3,1 km/h (1 Bft) NW 322 4,8 km/h (1 Bft)
11.01.2012 07:24 5,7 C 75 % 0,0 l/m 6,0 km/h (2 Bft) NW 309 9,7 km/h (2 Bft)
11.01.2012 07:25 5,7 C 75 % 0,0 l/m 7,4 km/h (2 Bft) NW 321 11,3 km/h (2 Bft)
11.01.2012 07:26 5,7 C 75 % 0,0 l/m 5,6 km/h (1 Bft) NW 305 9,7 km/h (2 Bft)
11.01.2012 07:27 5,7 C 75 % 0,0 l/m 7,2 km/h (2 Bft) NW 307 9,7 km/h (2 Bft)
11.01.2012 07:28 5,7 C 75 % 0,0 l/m 6,2 km/h (2 Bft) W-NW 297 8,0 km/h (2 Bft)
11.01.2012 07:29 5,7 C 75 % 0,0 l/m 5,4 km/h (1 Bft) W 280 6,4 km/h (2 Bft)
11.01.2012 07:30 5,7 C 75 % 0,0 l/m 5,9 km/h (2 Bft) NW 309 9,7 km/h (2 Bft)
11.01.2012 07:31 5,7 C 75 % 0,0 l/m 7,4 km/h (2 Bft) NW 311 11,3 km/h (2 Bft)
11.01.2012 07:32 5,7 C 75 % 0,0 l/m 5,8 km/h (2 Bft) NW 312 8,0 km/h (2 Bft)
11.01.2012 07:33 5,7 C 75 % 0,0 l/m 8,0 km/h (2 Bft) NW 323 9,7 km/h (2 Bft)
11.01.2012 07:34 5,7 C 75 % 0,0 l/m 5,6 km/h (1 Bft) W-NW 300 8,0 km/h (2 Bft)
11.01.2012 07:35 5,7 C 75 % 0,0 l/m 5,1 km/h (1 Bft) N-NW 333 8,0 km/h (2 Bft)
11.01.2012 07:36 5,7 C 75 % 0,0 l/m 5,5 km/h (1 Bft) N-NW 330 8,0 km/h (2 Bft)
11.01.2012 07:37 5,7 C 75 % 0,0 l/m 6,9 km/h (2 Bft) W-NW 297 9,7 km/h (2 Bft)
11.01.2012 07:38 5,7 C 75 % 0,0 l/m 5,5 km/h (1 Bft) W-NW 295 6,4 km/h (2 Bft)
11.01.2012 07:39 5,7 C 74 % 0,0 l/m 5,4 km/h (1 Bft) W 278 9,7 km/h (2 Bft)
11.01.2012 07:40 5,7 C 74 % 0,0 l/m 8,1 km/h (2 Bft) W-NW 285 12,9 km/h (3 Bft)
11.01.2012 07:41 5,8 C 74 % 0,0 l/m 3,4 km/h (1 Bft) NW 318 9,7 km/h (2 Bft)
11.01.2012 07:42 5,8 C 74 % 0,0 l/m 3,8 km/h (1 Bft) N-NW 333 4,8 km/h (1 Bft)
11.01.2012 07:43 5,8 C 74 % 0,0 l/m 6,1 km/h (2 Bft) NW 306 8,0 km/h (2 Bft)
11.01.2012 07:44 5,8 C 74 % 0,0 l/m 6,0 km/h (2 Bft) NW 314 8,0 km/h (2 Bft)
11.01.2012 07:45 5,8 C 74 % 0,0 l/m 7,4 km/h (2 Bft) NW 317 11,3 km/h (2 Bft)
11.01.2012 07:46 5,8 C 74 % 0,0 l/m 6,0 km/h (2 Bft) NW 318 8,0 km/h (2 Bft)
11.01.2012 07:47 5,8 C 74 % 0,0 l/m 7,0 km/h (2 Bft) NW 308 12,9 km/h (3 Bft)
11.01.2012 07:48 5,8 C 74 % 0,0 l/m 4,7 km/h (1 Bft) W-NW 288 8,0 km/h (2 Bft)
11.01.2012 07:49 5,8 C 74 % 0,0 l/m 3,9 km/h (1 Bft) W 280 8,0 km/h (2 Bft)
11.01.2012 07:50 5,8 C 74 % 0,0 l/m 5,2 km/h (1 Bft) W-NW 295 8,0 km/h (2 Bft)
11.01.2012 07:51 5,8 C 74 % 0,0 l/m 4,3 km/h (1 Bft) W-SW 245 8,0 km/h (2 Bft)
11.01.2012 07:52 5,8 C 74 % 0,0 l/m 6,1 km/h (2 Bft) NW 308 8,0 km/h (2 Bft)
11.01.2012 07:53 5,8 C 74 % 0,0 l/m 5,9 km/h (2 Bft) NW 323 8,0 km/h (2 Bft)
11.01.2012 07:54 5,8 C 74 % 0,0 l/m 6,1 km/h (2 Bft) N-NW 337 9,7 km/h (2 Bft)
11.01.2012 07:55 5,8 C 75 % 0,0 l/m 6,5 km/h (2 Bft) W-NW 294 11,3 km/h (2 Bft)
11.01.2012 07:56 5,8 C 75 % 0,0 l/m 5,9 km/h (2 Bft) NW 313 11,3 km/h (2 Bft)
11.01.2012 07:57 5,8 C 75 % 0,0 l/m 5,4 km/h (1 Bft) W-NW 298 8,0 km/h (2 Bft)
11.01.2012 07:58 5,8 C 75 % 0,0 l/m 6,6 km/h (2 Bft) W-NW 293 9,7 km/h (2 Bft)
11.01.2012 07:59 5,8 C 75 % 0,0 l/m 6,0 km/h (2 Bft) NW 318 9,7 km/h (2 Bft)
11.01.2012 08:00 5,8 C 75 % 0,0 l/m 5,4 km/h (1 Bft) NW 308 6,4 km/h (2 Bft)
11.01.2012 08:01 5,8 C 75 % 0,0 l/m 7,8 km/h (2 Bft) NW 309 9,7 km/h (2 Bft)
11.01.2012 08:02 5,8 C 75 % 0,0 l/m 6,8 km/h (2 Bft) W-NW 300 9,7 km/h (2 Bft)
11.01.2012 08:03 5,8 C 75 % 0,0 l/m 6,6 km/h (2 Bft) NW 309 8,0 km/h (2 Bft)
11.01.2012 08:04 5,8 C 75 % 0,0 l/m 9,0 km/h (2 Bft) W 263 12,9 km/h (3 Bft)
11.01.2012 08:05 5,8 C 75 % 0,0 l/m 7,1 km/h (2 Bft) W-NW 288 9,7 km/h (2 Bft)
11.01.2012 08:06 5,8 C 75 % 0,0 l/m 6,5 km/h (2 Bft) W-NW 295 8,0 km/h (2 Bft)
11.01.2012 08:07 5,8 C 75 % 0,0 l/m 6,8 km/h (2 Bft) W-NW 291 9,7 km/h (2 Bft)
11.01.2012 08:08 5,8 C 75 % 0,0 l/m 5,6 km/h (1 Bft) N-NW 332 9,7 km/h (2 Bft)
11.01.2012 08:09 5,8 C 75 % 0,0 l/m 6,9 km/h (2 Bft) W-NW 284 9,7 km/h (2 Bft)
11.01.2012 08:10 5,8 C 75 % 0,0 l/m 5,9 km/h (2 Bft) N-NW 338 9,7 km/h (2 Bft)
11.01.2012 08:11 5,8 C 75 % 0,0 l/m 4,0 km/h (1 Bft) NW 310 6,4 km/h (2 Bft)
11.01.2012 08:12 5,8 C 75 % 0,0 l/m 4,5 km/h (1 Bft) N-NW 340 8,0 km/h (2 Bft)
11.01.2012 08:13 5,8 C 75 % 0,0 l/m 3,5 km/h (1 Bft) NW 316 6,4 km/h (2 Bft)
11.01.2012 08:14 5,8 C 75 % 0,0 l/m 5,8 km/h (2 Bft) N-NO 33 9,7 km/h (2 Bft)
11.01.2012 08:15 5,8 C 75 % 0,0 l/m 4,8 km/h (1 Bft) W-NW 293 6,4 km/h (2 Bft)
11.01.2012 08:16 5,8 C 75 % 0,0 l/m 5,0 km/h (1 Bft) W-NW 301 9,7 km/h (2 Bft)
11.01.2012 08:17 5,8 C 75 % 0,0 l/m 4,7 km/h (1 Bft) NW 322 8,0 km/h (2 Bft)
11.01.2012 08:18 5,8 C 75 % 0,0 l/m 5,6 km/h (1 Bft) W-NW 302 8,0 km/h (2 Bft)
11.01.2012 08:19 5,8 C 75 % 0,0 l/m 4,3 km/h (1 Bft) NW 308 6,4 km/h (2 Bft)
11.01.2012 08:20 5,8 C 75 % 0,0 l/m 4,9 km/h (1 Bft) W-NW 296 6,4 km/h (2 Bft)
11.01.2012 08:21 5,8 C 75 % 0,0 l/m 5,7 km/h (1 Bft) W-NW 297 9,7 km/h (2 Bft)
11.01.2012 08:22 5,8 C 75 % 0,0 l/m 4,7 km/h (1 Bft) W-NW 296 6,4 km/h (2 Bft)
11.01.2012 08:23 5,8 C 75 % 0,0 l/m 6,7 km/h (2 Bft) W-NW 297 11,3 km/h (2 Bft)
11.01.2012 08:24 5,8 C 75 % 0,0 l/m 4,3 km/h (1 Bft) W-NW 293 9,7 km/h (2 Bft)
11.01.2012 08:25 5,8 C 75 % 0,0 l/m 4,7 km/h (1 Bft) N 359 6,4 km/h (2 Bft)
11.01.2012 08:26 5,8 C 75 % 0,0 l/m 3,6 km/h (1 Bft) NW 306 6,4 km/h (2 Bft)
11.01.2012 08:27 5,8 C 75 % 0,0 l/m 3,7 km/h (1 Bft) NW 305 6,4 km/h (2 Bft)
11.01.2012 08:28 5,8 C 76 % 0,0 l/m 3,9 km/h (1 Bft) NW 319 6,4 km/h (2 Bft)
11.01.2012 08:29 5,8 C 76 % 0,0 l/m 5,7 km/h (1 Bft) W-NW 302 8,0 km/h (2 Bft)
11.01.2012 08:30 5,8 C 76 % 0,0 l/m 4,0 km/h (1 Bft) NW 307 6,4 km/h (2 Bft)
11.01.2012 08:31 5,8 C 76 % 0,0 l/m 3,9 km/h (1 Bft) NW 315 4,8 km/h (1 Bft)
11.01.2012 08:32 5,8 C 76 % 0,0 l/m 4,0 km/h (1 Bft) NW 306 6,4 km/h (2 Bft)
11.01.2012 08:33 5,8 C 76 % 0,0 l/m 4,6 km/h (1 Bft) NW 311 6,4 km/h (2 Bft)
11.01.2012 08:34 5,8 C 76 % 0,0 l/m 3,9 km/h (1 Bft) NW 321 6,4 km/h (2 Bft)
11.01.2012 08:35 5,8 C 76 % 0,0 l/m 3,3 km/h (1 Bft) N-NW 345 4,8 km/h (1 Bft)
11.01.2012 08:36 5,8 C 76 % 0,0 l/m 4,3 km/h (1 Bft) N-NO 22 6,4 km/h (2 Bft)
11.01.2012 08:37 5,8 C 75 % 0,0 l/m 3,8 km/h (1 Bft) N-NW 336 4,8 km/h (1 Bft)
11.01.2012 08:38 5,8 C 75 % 0,0 l/m 3,6 km/h (1 Bft) N 350 4,8 km/h (1 Bft)
11.01.2012 08:39 5,8 C 75 % 0,0 l/m 3,2 km/h (1 Bft) N 357 6,4 km/h (2 Bft)
11.01.2012 08:40 5,8 C 75 % 0,0 l/m 5,1 km/h (1 Bft) N-NW 345 6,4 km/h (2 Bft)
11.01.2012 08:41 5,8 C 75 % 0,0 l/m 5,3 km/h (1 Bft) N-NW 337 6,4 km/h (2 Bft)
11.01.2012 08:42 5,9 C 75 % 0,0 l/m 4,8 km/h (1 Bft) N-NW 333 6,4 km/h (2 Bft)
11.01.2012 08:43 5,9 C 75 % 0,0 l/m 2,0 km/h (1 Bft) N 359 3,2 km/h (1 Bft)
11.01.2012 08:44 5,9 C 75 % 0,0 l/m 4,8 km/h (1 Bft) N 359 6,4 km/h (2 Bft)
11.01.2012 08:45 5,9 C 75 % 0,0 l/m 5,8 km/h (2 Bft) N-NO 15 8,0 km/h (2 Bft)
11.01.2012 08:46 5,9 C 75 % 0,0 l/m 3,9 km/h (1 Bft) N-NO 19 4,8 km/h (1 Bft)
11.01.2012 08:47 5,9 C 75 % 0,0 l/m 4,3 km/h (1 Bft) NW 316 4,8 km/h (1 Bft)
11.01.2012 08:48 5,9 C 75 % 0,0 l/m 4,8 km/h (1 Bft) NO 37 8,0 km/h (2 Bft)
11.01.2012 08:49 5,9 C 75 % 0,0 l/m 2,8 km/h (1 Bft) N-NO 13 4,8 km/h (1 Bft)
11.01.2012 08:50 5,9 C 75 % 0,0 l/m 4,4 km/h (1 Bft) N 360 6,4 km/h (2 Bft)
11.01.2012 08:51 5,9 C 75 % 0,0 l/m 4,4 km/h (1 Bft) N-NO 32 6,4 km/h (2 Bft)
11.01.2012 08:52 5,9 C 75 % 0,0 l/m 4,9 km/h (1 Bft) N-NO 30 6,4 km/h (2 Bft)
11.01.2012 08:53 5,9 C 75 % 0,0 l/m 3,0 km/h (1 Bft) N-NO 27 4,8 km/h (1 Bft)
11.01.2012 08:54 5,9 C 75 % 0,0 l/m 3,5 km/h (1 Bft) N-NO 17 4,8 km/h (1 Bft)
11.01.2012 08:55 5,9 C 75 % 0,0 l/m 3,5 km/h (1 Bft) N-NW 332 4,8 km/h (1 Bft)
11.01.2012 08:56 5,9 C 75 % 0,0 l/m 2,9 km/h (1 Bft) W-NW 302 4,8 km/h (1 Bft)
11.01.2012 08:57 5,9 C 75 % 0,0 l/m 3,3 km/h (1 Bft) NW 323 4,8 km/h (1 Bft)
11.01.2012 08:58 5,9 C 75 % 0,0 l/m 3,6 km/h (1 Bft) NW 325 4,8 km/h (1 Bft)
11.01.2012 08:59 5,9 C 75 % 0,0 l/m 3,1 km/h (1 Bft) N 6 4,8 km/h (1 Bft)
11.01.2012 09:00 5,9 C 75 % 0,0 l/m 3,8 km/h (1 Bft) N 6 4,8 km/h (1 Bft)
11.01.2012 09:01 5,9 C 75 % 0,0 l/m 3,8 km/h (1 Bft) N-NW 334 4,8 km/h (1 Bft)
11.01.2012 09:02 5,9 C 75 % 0,0 l/m 3,7 km/h (1 Bft) N-NO 17 6,4 km/h (2 Bft)
11.01.2012 09:03 5,9 C 75 % 0,0 l/m 5,4 km/h (1 Bft) N-NW 336 8,0 km/h (2 Bft)
11.01.2012 09:04 5,9 C 75 % 0,0 l/m 4,1 km/h (1 Bft) N-NO 18 6,4 km/h (2 Bft)
11.01.2012 09:05 6,0 C 75 % 0,0 l/m 3,5 km/h (1 Bft) N 8 6,4 km/h (2 Bft)
11.01.2012 09:06 6,0 C 75 % 0,0 l/m 4,3 km/h (1 Bft) N-NW 336 4,8 km/h (1 Bft)
11.01.2012 09:07 6,0 C 75 % 0,0 l/m 4,1 km/h (1 Bft) NW 321 6,4 km/h (2 Bft)
11.01.2012 09:08 6,0 C 75 % 0,0 l/m 4,5 km/h (1 Bft) NW 326 6,4 km/h (2 Bft)
11.01.2012 09:09 6,1 C 75 % 0,0 l/m 5,0 km/h (1 Bft) N 356 8,0 km/h (2 Bft)
11.01.2012 09:10 6,1 C 75 % 0,0 l/m 5,1 km/h (1 Bft) NW 326 8,0 km/h (2 Bft)
11.01.2012 09:11 6,1 C 74 % 0,0 l/m 5,8 km/h (2 Bft) N-NO 13 8,0 km/h (2 Bft)
11.01.2012 09:12 6,1 C 74 % 0,0 l/m 4,7 km/h (1 Bft) N-NW 340 6,4 km/h (2 Bft)
11.01.2012 09:13 6,1 C 74 % 0,0 l/m 6,9 km/h (2 Bft) N-NW 330 9,7 km/h (2 Bft)
11.01.2012 09:14 6,2 C 74 % 0,0 l/m 6,4 km/h (2 Bft) N-NW 345 9,7 km/h (2 Bft)
11.01.2012 09:15 6,2 C 74 % 0,0 l/m 6,1 km/h (2 Bft) NW 316 9,7 km/h (2 Bft)
11.01.2012 09:16 6,2 C 74 % 0,0 l/m 7,8 km/h (2 Bft) N-NW 340 14,5 km/h (3 Bft)
11.01.2012 09:17 6,2 C 74 % 0,0 l/m 6,3 km/h (2 Bft) W-NW 298 8,0 km/h (2 Bft)
11.01.2012 09:18 6,3 C 73 % 0,0 l/m 5,4 km/h (1 Bft) W-NW 284 8,0 km/h (2 Bft)
11.01.2012 09:19 6,3 C 73 % 0,0 l/m 3,8 km/h (1 Bft) W-NW 299 6,4 km/h (2 Bft)
11.01.2012 09:20 6,3 C 73 % 0,0 l/m 5,2 km/h (1 Bft) NW 317 6,4 km/h (2 Bft)
11.01.2012 09:21 6,3 C 73 % 0,0 l/m 4,7 km/h (1 Bft) N-NW 335 6,4 km/h (2 Bft)
11.01.2012 09:22 6,3 C 73 % 0,0 l/m 4,4 km/h (1 Bft) NW 314 6,4 km/h (2 Bft)
11.01.2012 09:23 6,3 C 74 % 0,0 l/m 3,3 km/h (1 Bft) NW 307 8,0 km/h (2 Bft)
11.01.2012 09:24 6,3 C 73 % 0,0 l/m 7,6 km/h (2 Bft) NW 305 9,7 km/h (2 Bft)
11.01.2012 09:25 6,3 C 73 % 0,0 l/m 6,3 km/h (2 Bft) W-NW 288 9,7 km/h (2 Bft)
11.01.2012 09:26 6,4 C 73 % 0,0 l/m 8,7 km/h (2 Bft) NW 321 17,7 km/h (3 Bft)
11.01.2012 09:27 6,4 C 73 % 0,0 l/m 4,1 km/h (1 Bft) NW 318 6,4 km/h (2 Bft)
11.01.2012 09:28 6,4 C 73 % 0,0 l/m 4,1 km/h (1 Bft) N 354 8,0 km/h (2 Bft)
11.01.2012 09:29 6,5 C 73 % 0,0 l/m 3,9 km/h (1 Bft) N-NW 340 4,8 km/h (1 Bft)
11.01.2012 09:30 6,4 C 73 % 0,0 l/m 4,8 km/h (1 Bft) NW 312 6,4 km/h (2 Bft)
11.01.2012 09:31 6,4 C 73 % 0,0 l/m 6,5 km/h (2 Bft) N-NO 18 11,3 km/h (2 Bft)
11.01.2012 09:32 6,4 C 73 % 0,0 l/m 7,7 km/h (2 Bft) N-NW 328 12,9 km/h (3 Bft)
11.01.2012 09:33 6,4 C 73 % 0,0 l/m 9,1 km/h (2 Bft) N-NW 342 12,9 km/h (3 Bft)
11.01.2012 09:34 6,4 C 73 % 0,0 l/m 9,8 km/h (2 Bft) NW 315 12,9 km/h (3 Bft)
11.01.2012 09:35 6,5 C 73 % 0,0 l/m 5,8 km/h (2 Bft) N-NW 332 8,0 km/h (2 Bft)
11.01.2012 09:36 6,5 C 73 % 0,0 l/m 9,2 km/h (2 Bft) NW 321 12,9 km/h (3 Bft)
11.01.2012 09:37 6,5 C 73 % 0,0 l/m 8,5 km/h (2 Bft) N-NW 330 12,9 km/h (3 Bft)
11.01.2012 09:38 6,5 C 73 % 0,0 l/m 13,2 km/h (3 Bft) N-NW 338 17,7 km/h (3 Bft)
11.01.2012 09:39 6,6 C 72 % 0,0 l/m 11,5 km/h (2 Bft) NW 321 17,7 km/h (3 Bft)
11.01.2012 09:40 6,6 C 72 % 0,0 l/m 10,8 km/h (2 Bft) N-NW 331 19,3 km/h (3 Bft)
11.01.2012 09:41 6,6 C 72 % 0,0 l/m 10,0 km/h (2 Bft) NW 322 12,9 km/h (3 Bft)
11.01.2012 09:42 6,6 C 73 % 0,0 l/m 9,5 km/h (2 Bft) NW 308 12,9 km/h (3 Bft)
11.01.2012 09:43 6,6 C 73 % 0,0 l/m 9,2 km/h (2 Bft) NW 325 12,9 km/h (3 Bft)
11.01.2012 09:44 6,6 C 73 % 0,0 l/m 8,7 km/h (2 Bft) W-NW 290 11,3 km/h (2 Bft)
11.01.2012 09:45 6,6 C 73 % 0,0 l/m 10,0 km/h (2 Bft) NW 322 16,1 km/h (3 Bft)
11.01.2012 09:46 6,6 C 72 % 0,0 l/m 10,8 km/h (2 Bft) NW 322 16,1 km/h (3 Bft)
11.01.2012 09:47 6,6 C 72 % 0,0 l/m 8,6 km/h (2 Bft) N-NW 330 11,3 km/h (2 Bft)
11.01.2012 09:48 6,6 C 71 % 0,0 l/m 15,5 km/h (3 Bft) NW 315 19,3 km/h (3 Bft)
11.01.2012 09:49 6,7 C 72 % 0,0 l/m 12,4 km/h (3 Bft) NW 323 16,1 km/h (3 Bft)
11.01.2012 09:50 6,7 C 72 % 0,0 l/m 10,8 km/h (2 Bft) NW 319 17,7 km/h (3 Bft)
11.01.2012 09:51 6,7 C 72 % 0,0 l/m 10,4 km/h (2 Bft) NW 311 12,9 km/h (3 Bft)
11.01.2012 09:52 6,7 C 72 % 0,0 l/m 10,3 km/h (2 Bft) NW 323 12,9 km/h (3 Bft)
11.01.2012 09:53 6,7 C 72 % 0,0 l/m 8,0 km/h (2 Bft) N-NW 341 11,3 km/h (2 Bft)
11.01.2012 09:54 6,7 C 72 % 0,0 l/m 11,6 km/h (2 Bft) N-NW 328 12,9 km/h (3 Bft)
11.01.2012 09:55 6,7 C 72 % 0,0 l/m 8,4 km/h (2 Bft) W-NW 297 9,7 km/h (2 Bft)
11.01.2012 09:56 6,7 C 72 % 0,0 l/m 10,4 km/h (2 Bft) NW 309 14,5 km/h (3 Bft)
11.01.2012 09:57 6,7 C 72 % 0,0 l/m 7,5 km/h (2 Bft) NW 315 11,3 km/h (2 Bft)
11.01.2012 09:58 6,7 C 73 % 0,0 l/m 9,3 km/h (2 Bft) NW 321 14,5 km/h (3 Bft)
11.01.2012 09:59 6,7 C 72 % 0,0 l/m 10,3 km/h (2 Bft) N-NW 327 12,9 km/h (3 Bft)
11.01.2012 10:00 6,7 C 73 % 0,0 l/m 7,2 km/h (2 Bft) NW 305 11,3 km/h (2 Bft)
11.01.2012 10:01 6,7 C 73 % 0,0 l/m 7,5 km/h (2 Bft) NW 308 12,9 km/h (3 Bft)
11.01.2012 10:02 6,7 C 72 % 0,0 l/m 8,6 km/h (2 Bft) NW 321 14,5 km/h (3 Bft)
11.01.2012 10:03 6,7 C 72 % 0,0 l/m 13,0 km/h (3 Bft) NW 319 16,1 km/h (3 Bft)
11.01.2012 10:04 6,7 C 72 % 0,0 l/m 6,8 km/h (2 Bft) N-NO 12 11,3 km/h (2 Bft)
11.01.2012 10:05 6,7 C 72 % 0,0 l/m 9,3 km/h (2 Bft) NW 309 12,9 km/h (3 Bft)
11.01.2012 10:06 6,7 C 72 % 0,0 l/m 8,7 km/h (2 Bft) N-NW 347 12,9 km/h (3 Bft)
11.01.2012 10:07 6,7 C 72 % 0,0 l/m 8,0 km/h (2 Bft) W-NW 296 12,9 km/h (3 Bft)
11.01.2012 10:08 6,8 C 72 % 0,0 l/m 6,4 km/h (2 Bft) W-NW 297 8,0 km/h (2 Bft)
11.01.2012 10:09 6,8 C 72 % 0,0 l/m 7,1 km/h (2 Bft) N 4 9,7 km/h (2 Bft)
11.01.2012 10:10 6,8 C 72 % 0,0 l/m 5,0 km/h (1 Bft) W 276 8,0 km/h (2 Bft)
11.01.2012 10:11 6,8 C 73 % 0,0 l/m 5,8 km/h (2 Bft) NW 305 9,7 km/h (2 Bft)
11.01.2012 10:12 6,8 C 73 % 0,0 l/m 9,4 km/h (2 Bft) W-NW 301 16,1 km/h (3 Bft)
11.01.2012 10:13 6,8 C 72 % 0,0 l/m 10,0 km/h (2 Bft) NW 312 14,5 km/h (3 Bft)
11.01.2012 10:14 6,8 C 71 % 0,0 l/m 11,9 km/h (2 Bft) NW 321 17,7 km/h (3 Bft)
11.01.2012 10:15 6,8 C 72 % 0,0 l/m 5,5 km/h (1 Bft) N-NW 332 9,7 km/h (2 Bft)
11.01.2012 10:16 6,8 C 72 % 0,0 l/m 7,7 km/h (2 Bft) NW 319 11,3 km/h (2 Bft)
11.01.2012 10:17 6,8 C 72 % 0,0 l/m 8,0 km/h (2 Bft) NW 326 11,3 km/h (2 Bft)
11.01.2012 10:18 6,8 C 72 % 0,0 l/m 7,5 km/h (2 Bft) NW 321 9,7 km/h (2 Bft)
11.01.2012 10:19 6,8 C 72 % 0,0 l/m 6,7 km/h (2 Bft) N-NW 331 12,9 km/h (3 Bft)
11.01.2012 10:20 6,8 C 72 % 0,0 l/m 7,3 km/h (2 Bft) N 9 12,9 km/h (3 Bft)
11.01.2012 10:21 6,8 C 72 % 0,0 l/m 9,3 km/h (2 Bft) N 349 12,9 km/h (3 Bft)
11.01.2012 10:22 6,8 C 72 % 0,0 l/m 7,2 km/h (2 Bft) N-NW 328 12,9 km/h (3 Bft)
11.01.2012 10:23 6,9 C 72 % 0,0 l/m 7,9 km/h (2 Bft) N-NW 330 11,3 km/h (2 Bft)
11.01.2012 10:24 6,9 C 72 % 0,0 l/m 8,9 km/h (2 Bft) W-NW 287 12,9 km/h (3 Bft)
11.01.2012 10:25 6,9 C 72 % 0,0 l/m 7,6 km/h (2 Bft) N-NW 330 11,3 km/h (2 Bft)
11.01.2012 10:26 6,9 C 71 % 0,0 l/m 9,4 km/h (2 Bft) N-NW 339 12,9 km/h (3 Bft)
11.01.2012 10:27 7,0 C 72 % 0,0 l/m 11,2 km/h (2 Bft) W-NW 302 14,5 km/h (3 Bft)
11.01.2012 10:28 7,1 C 72 % 0,0 l/m 8,6 km/h (2 Bft) NW 321 11,3 km/h (2 Bft)
11.01.2012 10:29 7,1 C 72 % 0,0 l/m 9,7 km/h (2 Bft) N 5 14,5 km/h (3 Bft)
11.01.2012 10:30 7,1 C 71 % 0,0 l/m 10,6 km/h (2 Bft) N-NW 347 16,1 km/h (3 Bft)
11.01.2012 10:31 7,2 C 71 % 0,0 l/m 11,7 km/h (2 Bft) NW 325 16,1 km/h (3 Bft)
11.01.2012 10:32 7,2 C 71 % 0,0 l/m 13,7 km/h (3 Bft) N 353 16,1 km/h (3 Bft)
11.01.2012 10:33 7,2 C 71 % 0,0 l/m 9,1 km/h (2 Bft) NW 319 14,5 km/h (3 Bft)
11.01.2012 10:34 7,2 C 71 % 0,0 l/m 8,9 km/h (2 Bft) N-NO 16 14,5 km/h (3 Bft)
11.01.2012 10:35 7,3 C 71 % 0,0 l/m 5,8 km/h (2 Bft) N 8 14,5 km/h (3 Bft)
11.01.2012 10:36 7,3 C 71 % 0,0 l/m 9,2 km/h (2 Bft) N-NW 345 14,5 km/h (3 Bft)
11.01.2012 10:37 7,3 C 71 % 0,0 l/m 11,4 km/h (2 Bft) W-NW 293 19,3 km/h (3 Bft)
11.01.2012 10:38 7,3 C 70 % 0,0 l/m 8,0 km/h (2 Bft) W-NW 291 12,9 km/h (3 Bft)
11.01.2012 10:39 7,3 C 71 % 0,0 l/m 7,3 km/h (2 Bft) NW 318 9,7 km/h (2 Bft)
11.01.2012 10:40 7,4 C 70 % 0,0 l/m 10,9 km/h (2 Bft) NW 312 19,3 km/h (3 Bft)
11.01.2012 10:41 7,4 C 70 % 0,0 l/m 14,9 km/h (3 Bft) NW 313 17,7 km/h (3 Bft)
11.01.2012 10:42 7,4 C 69 % 0,0 l/m 15,4 km/h (3 Bft) N 355 20,9 km/h (4 Bft)
11.01.2012 10:43 7,4 C 70 % 0,0 l/m 7,9 km/h (2 Bft) N-NO 33 9,7 km/h (2 Bft)
11.01.2012 10:44 7,4 C 70 % 0,0 l/m 8,9 km/h (2 Bft) N-NO 30 14,5 km/h (3 Bft)
11.01.2012 10:45 7,4 C 70 % 0,0 l/m 9,0 km/h (2 Bft) W-NW 297 12,9 km/h (3 Bft)
11.01.2012 10:46 7,5 C 70 % 0,0 l/m 10,9 km/h (2 Bft) N-NW 329 16,1 km/h (3 Bft)
11.01.2012 10:47 7,4 C 69 % 0,0 l/m 13,9 km/h (3 Bft) W-NW 300 17,7 km/h (3 Bft)
11.01.2012 10:48 7,4 C 69 % 0,0 l/m 12,2 km/h (2 Bft) NW 314 16,1 km/h (3 Bft)
11.01.2012 10:49 7,4 C 69 % 0,0 l/m 7,1 km/h (2 Bft) N-NW 347 11,3 km/h (2 Bft)
11.01.2012 10:50 7,5 C 70 % 0,0 l/m 11,0 km/h (2 Bft) NW 321 19,3 km/h (3 Bft)
11.01.2012 10:51 7,5 C 69 % 0,0 l/m 13,2 km/h (3 Bft) NO 37 17,7 km/h (3 Bft)
11.01.2012 10:52 7,5 C 69 % 0,0 l/m 8,9 km/h (2 Bft) N-NW 341 12,9 km/h (3 Bft)
11.01.2012 10:53 7,6 C 70 % 0,0 l/m 6,4 km/h (2 Bft) W-NW 301 9,7 km/h (2 Bft)
11.01.2012 10:54 7,6 C 69 % 0,0 l/m 4,6 km/h (1 Bft) N-NO 32 8,0 km/h (2 Bft)
11.01.2012 10:55 7,6 C 69 % 0,0 l/m 3,6 km/h (1 Bft) N 349 6,4 km/h (2 Bft)
11.01.2012 10:56 7,7 C 69 % 0,0 l/m 3,8 km/h (1 Bft) N-NW 340 6,4 km/h (2 Bft)
11.01.2012 10:57 7,7 C 69 % 0,0 l/m 2,5 km/h (1 Bft) W-NW 301 9,7 km/h (2 Bft)
11.01.2012 10:58 7,7 C 68 % 0,0 l/m 7,6 km/h (2 Bft) W-NW 300 12,9 km/h (3 Bft)
11.01.2012 10:59 7,7 C 69 % 0,0 l/m 7,6 km/h (2 Bft) N-NO 23 11,3 km/h (2 Bft)
11.01.2012 11:00 7,7 C 69 % 0,0 l/m 6,5 km/h (2 Bft) NW 312 12,9 km/h (3 Bft)
11.01.2012 11:01 7,7 C 68 % 0,0 l/m 9,1 km/h (2 Bft) W 269 12,9 km/h (3 Bft)
11.01.2012 11:02 7,8 C 68 % 0,0 l/m 6,5 km/h (2 Bft) W-NW 288 9,7 km/h (2 Bft)
11.01.2012 11:03 7,8 C 68 % 0,0 l/m 5,3 km/h (1 Bft) N 8 8,0 km/h (2 Bft)
11.01.2012 11:04 7,8 C 68 % 0,0 l/m 7,3 km/h (2 Bft) NW 318 11,3 km/h (2 Bft)
11.01.2012 11:05 7,9 C 69 % 0,0 l/m 5,5 km/h (1 Bft) W-NW 297 9,7 km/h (2 Bft)
11.01.2012 11:06 7,9 C 69 % 0,0 l/m 4,4 km/h (1 Bft) W-NW 297 8,0 km/h (2 Bft)
11.01.2012 11:07 7,9 C 68 % 0,0 l/m 5,0 km/h (1 Bft) N-NW 346 8,0 km/h (2 Bft)
11.01.2012 11:08 8,0 C 68 % 0,0 l/m 5,4 km/h (1 Bft) N-NO 16 8,0 km/h (2 Bft)
11.01.2012 11:09 8,0 C 69 % 0,0 l/m 3,1 km/h (1 Bft) W-SW 252 4,8 km/h (1 Bft)
11.01.2012 11:10 8,1 C 68 % 0,0 l/m 10,5 km/h (2 Bft) W-NW 298 12,9 km/h (3 Bft)
11.01.2012 11:11 8,1 C 68 % 0,0 l/m 3,4 km/h (1 Bft) W-NW 294 6,4 km/h (2 Bft)
11.01.2012 11:12 8,1 C 68 % 0,0 l/m 4,4 km/h (1 Bft) N-NW 347 8,0 km/h (2 Bft)
11.01.2012 11:13 8,2 C 68 % 0,0 l/m 7,0 km/h (2 Bft) W 278 11,3 km/h (2 Bft)
11.01.2012 11:14 8,2 C 67 % 0,0 l/m 7,4 km/h (2 Bft) NW 325 11,3 km/h (2 Bft)
11.01.2012 11:15 8,2 C 67 % 0,0 l/m 10,3 km/h (2 Bft) W 271 16,1 km/h (3 Bft)
11.01.2012 11:16 8,2 C 67 % 0,0 l/m 9,5 km/h (2 Bft) W-SW 248 17,7 km/h (3 Bft)
11.01.2012 11:17 8,3 C 66 % 0,0 l/m 18,3 km/h (3 Bft) W-NW 297 27,4 km/h (4 Bft)
11.01.2012 11:18 8,3 C 65 % 0,0 l/m 13,6 km/h (3 Bft) O-SO 116 17,7 km/h (3 Bft)
11.01.2012 11:19 8,4 C 66 % 0,0 l/m 8,6 km/h (2 Bft) W-NW 303 11,3 km/h (2 Bft)
11.01.2012 11:20 8,4 C 66 % 0,0 l/m 9,6 km/h (2 Bft) NW 311 17,7 km/h (3 Bft)
11.01.2012 11:21 8,6 C 67 % 0,0 l/m 9,0 km/h (2 Bft) W-NW 282 16,1 km/h (3 Bft)
11.01.2012 11:22 8,6 C 66 % 0,0 l/m 10,4 km/h (2 Bft) W 274 14,5 km/h (3 Bft)
11.01.2012 11:23 8,7 C 66 % 0,0 l/m 5,7 km/h (1 Bft) N-NW 341 8,0 km/h (2 Bft)
11.01.2012 11:24 8,7 C 66 % 0,0 l/m 4,4 km/h (1 Bft) N-NW 335 6,4 km/h (2 Bft)
11.01.2012 11:25 8,8 C 65 % 0,0 l/m 15,1 km/h (3 Bft) N-NW 337 20,9 km/h (4 Bft)
11.01.2012 11:26 8,9 C 65 % 0,0 l/m 10,8 km/h (2 Bft) NW 321 14,5 km/h (3 Bft)
11.01.2012 11:27 8,9 C 64 % 0,0 l/m 6,3 km/h (2 Bft) N-NW 341 9,7 km/h (2 Bft)
11.01.2012 11:28 9,0 C 64 % 0,0 l/m 11,5 km/h (2 Bft) W-NW 300 19,3 km/h (3 Bft)
11.01.2012 11:29 8,9 C 63 % 0,0 l/m 15,7 km/h (3 Bft) NW 322 22,5 km/h (4 Bft)
11.01.2012 11:30 8,9 C 62 % 0,0 l/m 17,2 km/h (3 Bft) W 278 20,9 km/h (4 Bft)
11.01.2012 11:31 8,9 C 63 % 0,0 l/m 8,4 km/h (2 Bft) W-NW 302 14,5 km/h (3 Bft)
11.01.2012 11:32 8,8 C 63 % 0,0 l/m 12,9 km/h (3 Bft) NW 309 22,5 km/h (4 Bft)
11.01.2012 11:33 8,8 C 63 % 0,0 l/m 15,1 km/h (3 Bft) NW 312 22,5 km/h (4 Bft)
11.01.2012 11:34 8,8 C 63 % 0,0 l/m 14,6 km/h (3 Bft) W-NW 295 20,9 km/h (4 Bft)
11.01.2012 11:35 8,7 C 63 % 0,0 l/m 10,9 km/h (2 Bft) N-NW 329 19,3 km/h (3 Bft)
11.01.2012 11:36 8,7 C 64 % 0,0 l/m 12,9 km/h (3 Bft) NW 325 20,9 km/h (4 Bft)
11.01.2012 11:37 8,6 C 64 % 0,0 l/m 20,3 km/h (4 Bft) W-NW 302 29,0 km/h (5 Bft)
11.01.2012 11:38 8,6 C 64 % 0,0 l/m 13,1 km/h (3 Bft) NW 308 20,9 km/h (4 Bft)
11.01.2012 11:39 8,5 C 64 % 0,0 l/m 11,1 km/h (2 Bft) W 280 16,1 km/h (3 Bft)
11.01.2012 11:40 8,4 C 64 % 0,0 l/m 3,8 km/h (1 Bft) NO 34 6,4 km/h (2 Bft)
11.01.2012 11:41 8,4 C 64 % 0,0 l/m 9,9 km/h (2 Bft) W 269 16,1 km/h (3 Bft)
11.01.2012 11:42 8,4 C 64 % 0,0 l/m 11,3 km/h (2 Bft) N-NW 333 16,1 km/h (3 Bft)
11.01.2012 11:43 8,4 C 64 % 0,0 l/m 10,1 km/h (2 Bft) NW 314 16,1 km/h (3 Bft)
11.01.2012 11:44 8,4 C 65 % 0,0 l/m 13,8 km/h (3 Bft) W-NW 283 27,4 km/h (4 Bft)
11.01.2012 11:45 8,4 C 64 % 0,0 l/m 10,0 km/h (2 Bft) NW 308 17,7 km/h (3 Bft)
11.01.2012 11:46 8,4 C 64 % 0,0 l/m 9,8 km/h (2 Bft) W-NW 285 14,5 km/h (3 Bft)
11.01.2012 11:47 8,4 C 64 % 0,0 l/m 11,3 km/h (2 Bft) NW 308 25,7 km/h (4 Bft)
11.01.2012 11:48 8,4 C 64 % 0,0 l/m 14,1 km/h (3 Bft) N-NW 343 25,7 km/h (4 Bft)
11.01.2012 11:49 8,4 C 64 % 0,0 l/m 10,4 km/h (2 Bft) W 271 19,3 km/h (3 Bft)
11.01.2012 11:50 8,4 C 63 % 0,0 l/m 18,6 km/h (3 Bft) NW 307 27,4 km/h (4 Bft)
11.01.2012 11:51 8,4 C 64 % 0,0 l/m 14,9 km/h (3 Bft) N-NW 329 20,9 km/h (4 Bft)
11.01.2012 11:52 8,4 C 63 % 0,0 l/m 15,1 km/h (3 Bft) N-NW 328 25,7 km/h (4 Bft)
11.01.2012 11:53 8,4 C 64 % 0,0 l/m 8,5 km/h (2 Bft) NW 319 14,5 km/h (3 Bft)
11.01.2012 11:54 8,4 C 63 % 0,0 l/m 10,3 km/h (2 Bft) N-NW 345 17,7 km/h (3 Bft)
11.01.2012 11:55 8,4 C 63 % 0,0 l/m 14,2 km/h (3 Bft) W-NW 298 20,9 km/h (4 Bft)
11.01.2012 11:56 8,4 C 63 % 0,0 l/m 18,5 km/h (3 Bft) NW 308 24,1 km/h (4 Bft)
11.01.2012 11:57 8,4 C 63 % 0,0 l/m 10,9 km/h (2 Bft) W-NW 293 19,3 km/h (3 Bft)
11.01.2012 11:58 8,4 C 63 % 0,0 l/m 10,4 km/h (2 Bft) W-NW 289 19,3 km/h (3 Bft)
11.01.2012 11:59 8,5 C 63 % 0,0 l/m 7,7 km/h (2 Bft) NW 307 16,1 km/h (3 Bft)
11.01.2012 12:00 8,5 C 62 % 0,0 l/m 12,8 km/h (3 Bft) NW 305 22,5 km/h (4 Bft)
11.01.2012 12:01 8,5 C 63 % 0,0 l/m 7,1 km/h (2 Bft) W-SW 248 9,7 km/h (2 Bft)
11.01.2012 12:02 8,6 C 63 % 0,0 l/m 6,6 km/h (2 Bft) N-NW 338 9,7 km/h (2 Bft)
11.01.2012 12:03 8,6 C 63 % 0,0 l/m 7,7 km/h (2 Bft) N 351 12,9 km/h (3 Bft)
11.01.2012 12:04 8,6 C 63 % 0,0 l/m 6,9 km/h (2 Bft) W 281 9,7 km/h (2 Bft)
11.01.2012 12:05 8,6 C 64 % 0,0 l/m 6,3 km/h (2 Bft) W-NW 301 17,7 km/h (3 Bft)
11.01.2012 12:06 8,6 C 63 % 0,0 l/m 10,1 km/h (2 Bft) W 269 14,5 km/h (3 Bft)
11.01.2012 12:07 8,6 C 62 % 0,0 l/m 11,8 km/h (2 Bft) W-NW 299 19,3 km/h (3 Bft)
11.01.2012 12:08 8,6 C 63 % 0,0 l/m 9,9 km/h (2 Bft) NW 305 20,9 km/h (4 Bft)
11.01.2012 12:09 8,5 C 63 % 0,0 l/m 10,7 km/h (2 Bft) NW 323 14,5 km/h (3 Bft)
11.01.2012 12:10 8,5 C 64 % 0,0 l/m 4,4 km/h (1 Bft) W-NW 284 8,0 km/h (2 Bft)
11.01.2012 12:11 8,6 C 63 % 0,0 l/m 9,7 km/h (2 Bft) N-NW 343 14,5 km/h (3 Bft)
11.01.2012 12:12 8,5 C 63 % 0,0 l/m 4,0 km/h (1 Bft) O-SO 110 8,0 km/h (2 Bft)
11.01.2012 12:13 8,6 C 64 % 0,0 l/m 5,7 km/h (1 Bft) W 264 9,7 km/h (2 Bft)
11.01.2012 12:14 8,6 C 63 % 0,0 l/m 10,8 km/h (2 Bft) W 281 17,7 km/h (3 Bft)
11.01.2012 12:15 8,6 C 63 % 0,0 l/m 10,5 km/h (2 Bft) W-NW 301 14,5 km/h (3 Bft)
11.01.2012 12:16 8,6 C 64 % 0,0 l/m 10,1 km/h (2 Bft) N-NO 29 14,5 km/h (3 Bft)
11.01.2012 12:17 8,6 C 64 % 0,0 l/m 3,6 km/h (1 Bft) N-NW 340 6,4 km/h (2 Bft)
11.01.2012 12:18 8,6 C 64 % 0,0 l/m 4,1 km/h (1 Bft) N-NW 332 17,7 km/h (3 Bft)
11.01.2012 12:19 8,6 C 63 % 0,0 l/m 7,9 km/h (2 Bft) S-SW 204 14,5 km/h (3 Bft)
11.01.2012 12:20 8,6 C 63 % 0,0 l/m 5,1 km/h (1 Bft) N-NW 339 9,7 km/h (2 Bft)
11.01.2012 12:21 8,6 C 63 % 0,0 l/m 6,1 km/h (2 Bft) N-NW 331 11,3 km/h (2 Bft)
11.01.2012 12:22 8,6 C 62 % 0,0 l/m 11,0 km/h (2 Bft) NW 304 17,7 km/h (3 Bft)
11.01.2012 12:23 8,6 C 63 % 0,0 l/m 8,8 km/h (2 Bft) W-NW 293 24,1 km/h (4 Bft)
11.01.2012 12:24 8,6 C 63 % 0,0 l/m 7,0 km/h (2 Bft) NW 315 11,3 km/h (2 Bft)
11.01.2012 12:25 8,7 C 63 % 0,0 l/m 6,3 km/h (2 Bft) W-NW 293 9,7 km/h (2 Bft)
11.01.2012 12:26 8,7 C 63 % 0,0 l/m 3,9 km/h (1 Bft) W-NW 295 9,7 km/h (2 Bft)
11.01.2012 12:27 8,7 C 63 % 0,0 l/m 9,4 km/h (2 Bft) N-NW 331 12,9 km/h (3 Bft)
11.01.2012 12:28 8,7 C 63 % 0,0 l/m 10,7 km/h (2 Bft) NW 313 16,1 km/h (3 Bft)
11.01.2012 12:29 8,8 C 63 % 0,0 l/m 11,3 km/h (2 Bft) W-NW 290 16,1 km/h (3 Bft)
11.01.2012 12:30 8,8 C 62 % 0,0 l/m 10,0 km/h (2 Bft) W-NW 297 16,1 km/h (3 Bft)
11.01.2012 12:31 8,8 C 63 % 0,0 l/m 10,0 km/h (2 Bft) W-NW 295 12,9 km/h (3 Bft)
11.01.2012 12:32 8,8 C 62 % 0,0 l/m 8,2 km/h (2 Bft) N-NO 30 12,9 km/h (3 Bft)
11.01.2012 12:33 8,8 C 62 % 0,0 l/m 8,3 km/h (2 Bft) NW 325 12,9 km/h (3 Bft)
11.01.2012 12:34 8,8 C 62 % 0,0 l/m 6,1 km/h (2 Bft) W-NW 297 11,3 km/h (2 Bft)
11.01.2012 12:35 8,8 C 63 % 0,0 l/m 7,4 km/h (2 Bft) NW 314 16,1 km/h (3 Bft)
11.01.2012 12:36 8,8 C 62 % 0,0 l/m 6,9 km/h (2 Bft) N-NW 336 11,3 km/h (2 Bft)
11.01.2012 12:37 8,7 C 62 % 0,0 l/m 12,5 km/h (3 Bft) NW 311 20,9 km/h (4 Bft)
11.01.2012 12:38 8,7 C 62 % 0,0 l/m 12,1 km/h (2 Bft) W-NW 288 16,1 km/h (3 Bft)
11.01.2012 12:39 8,7 C 63 % 0,0 l/m 9,9 km/h (2 Bft) W-NW 301 16,1 km/h (3 Bft)
11.01.2012 12:40 8,7 C 62 % 0,0 l/m 9,2 km/h (2 Bft) W 280 14,5 km/h (3 Bft)
11.01.2012 12:41 8,7 C 61 % 0,0 l/m 11,0 km/h (2 Bft) N 1 16,1 km/h (3 Bft)
11.01.2012 12:42 8,7 C 62 % 0,0 l/m 7,7 km/h (2 Bft) W 278 14,5 km/h (3 Bft)
11.01.2012 12:43 8,7 C 63 % 0,0 l/m 17,8 km/h (3 Bft) W-NW 294 22,5 km/h (4 Bft)
11.01.2012 12:44 8,6 C 62 % 0,0 l/m 8,3 km/h (2 Bft) O-NO 58 14,5 km/h (3 Bft)
11.01.2012 12:45 8,6 C 62 % 0,0 l/m 4,6 km/h (1 Bft) N 349 9,7 km/h (2 Bft)
11.01.2012 12:46 8,6 C 63 % 0,0 l/m 3,1 km/h (1 Bft) W-NW 299 4,8 km/h (1 Bft)
11.01.2012 12:47 8,6 C 63 % 0,0 l/m 4,3 km/h (1 Bft) SW 228 9,7 km/h (2 Bft)
11.01.2012 12:48 8,6 C 63 % 0,0 l/m 6,2 km/h (2 Bft) NW 321 12,9 km/h (3 Bft)
11.01.2012 12:49 8,6 C 62 % 0,0 l/m 13,5 km/h (3 Bft) W-NW 298 17,7 km/h (3 Bft)
11.01.2012 12:50 8,5 C 62 % 0,0 l/m 11,6 km/h (2 Bft) NW 304 17,7 km/h (3 Bft)
11.01.2012 12:51 8,5 C 63 % 0,0 l/m 10,0 km/h (2 Bft) W-NW 284 17,7 km/h (3 Bft)
11.01.2012 12:52 8,4 C 62 % 0,0 l/m 14,7 km/h (3 Bft) W-NW 294 17,7 km/h (3 Bft)
11.01.2012 12:53 8,4 C 63 % 0,0 l/m 6,0 km/h (2 Bft) S-SO 155 12,9 km/h (3 Bft)
11.01.2012 12:54 8,4 C 63 % 0,0 l/m 7,1 km/h (2 Bft) W-NW 297 11,3 km/h (2 Bft)
11.01.2012 12:55 8,4 C 63 % 0,0 l/m 5,8 km/h (2 Bft) N-NW 329 9,7 km/h (2 Bft)
11.01.2012 12:56 8,4 C 63 % 0,0 l/m 3,4 km/h (1 Bft) W-NW 282 11,3 km/h (2 Bft)
11.01.2012 12:57 8,5 C 64 % 0,0 l/m 10,1 km/h (2 Bft) N-NW 331 14,5 km/h (3 Bft)
11.01.2012 12:58 8,4 C 63 % 0,0 l/m 10,0 km/h (2 Bft) NW 311 16,1 km/h (3 Bft)
11.01.2012 12:59 8,4 C 63 % 0,0 l/m 12,8 km/h (3 Bft) NW 316 22,5 km/h (4 Bft)
11.01.2012 13:00 8,4 C 63 % 0,0 l/m 14,4 km/h (3 Bft) N-NW 335 19,3 km/h (3 Bft)
11.01.2012 13:01 8,4 C 63 % 0,0 l/m 17,5 km/h (3 Bft) W-NW 288 20,9 km/h (4 Bft)
11.01.2012 13:02 8,4 C 63 % 0,0 l/m 9,8 km/h (2 Bft) N-NW 333 17,7 km/h (3 Bft)
11.01.2012 13:03 8,4 C 64 % 0,0 l/m 5,4 km/h (1 Bft) N 354 8,0 km/h (2 Bft)
11.01.2012 13:04 8,4 C 64 % 0,0 l/m 10,0 km/h (2 Bft) N 1 14,5 km/h (3 Bft)
11.01.2012 13:05 8,4 C 64 % 0,0 l/m 5,6 km/h (1 Bft) NW 323 8,0 km/h (2 Bft)
11.01.2012 13:06 8,4 C 64 % 0,0 l/m 1,4 km/h (1 Bft) W-NW 288 3,2 km/h (1 Bft)
11.01.2012 13:07 8,5 C 65 % 0,0 l/m 1,5 km/h (1 Bft) W-NW 289 6,4 km/h (2 Bft)
11.01.2012 13:08 8,5 C 64 % 0,0 l/m 6,6 km/h (2 Bft) W-NW 287 8,0 km/h (2 Bft)
11.01.2012 13:09 8,5 C 64 % 0,0 l/m 3,6 km/h (1 Bft) NW 317 6,4 km/h (2 Bft)
11.01.2012 13:10 8,6 C 64 % 0,0 l/m 6,4 km/h (2 Bft) N 8 12,9 km/h (3 Bft)
11.01.2012 13:11 8,5 C 64 % 0,0 l/m 7,2 km/h (2 Bft) W 273 11,3 km/h (2 Bft)
11.01.2012 13:12 8,6 C 64 % 0,0 l/m 11,3 km/h (2 Bft) NW 306 22,5 km/h (4 Bft)
11.01.2012 13:13 8,5 C 64 % 0,0 l/m 10,0 km/h (2 Bft) N-NW 348 17,7 km/h (3 Bft)
11.01.2012 13:14 8,5 C 63 % 0,0 l/m 12,2 km/h (2 Bft) N-NO 23 20,9 km/h (4 Bft)
11.01.2012 13:15 8,5 C 62 % 0,0 l/m 20,4 km/h (4 Bft) NW 308 25,7 km/h (4 Bft)
11.01.2012 13:16 8,4 C 63 % 0,0 l/m 13,1 km/h (3 Bft) SW 235 20,9 km/h (4 Bft)
11.01.2012 13:17 8,4 C 63 % 0,0 l/m 13,5 km/h (3 Bft) O-NO 57 20,9 km/h (4 Bft)
11.01.2012 13:18 8,5 C 63 % 0,0 l/m 14,5 km/h (3 Bft) W-NW 293 24,1 km/h (4 Bft)
11.01.2012 13:19 8,6 C 64 % 0,0 l/m 11,2 km/h (2 Bft) NW 315 17,7 km/h (3 Bft)
11.01.2012 13:20 8,6 C 64 % 0,0 l/m 11,7 km/h (2 Bft) W-NW 282 16,1 km/h (3 Bft)
11.01.2012 13:21 8,7 C 64 % 0,0 l/m 11,4 km/h (2 Bft) W-NW 288 20,9 km/h (4 Bft)
11.01.2012 13:22 8,7 C 63 % 0,0 l/m 9,6 km/h (2 Bft) W 262 17,7 km/h (3 Bft)
11.01.2012 13:23 8,7 C 63 % 0,0 l/m 11,2 km/h (2 Bft) NW 304 22,5 km/h (4 Bft)
11.01.2012 13:24 8,7 C 63 % 0,0 l/m 12,8 km/h (3 Bft) NW 321 20,9 km/h (4 Bft)
11.01.2012 13:25 8,7 C 62 % 0,0 l/m 9,3 km/h (2 Bft) SW 218 16,1 km/h (3 Bft)
11.01.2012 13:26 8,7 C 63 % 0,0 l/m 5,6 km/h (1 Bft) W-NW 291 16,1 km/h (3 Bft)
11.01.2012 13:27 8,7 C 62 % 0,0 l/m 10,0 km/h (2 Bft) NW 305 19,3 km/h (3 Bft)
11.01.2012 13:28 8,7 C 63 % 0,0 l/m 8,6 km/h (2 Bft) NW 325 19,3 km/h (3 Bft)
11.01.2012 13:29 8,8 C 63 % 0,0 l/m 10,0 km/h (2 Bft) NW 317 16,1 km/h (3 Bft)
11.01.2012 13:30 8,8 C 63 % 0,0 l/m 9,6 km/h (2 Bft) NW 310 19,3 km/h (3 Bft)
11.01.2012 13:31 8,8 C 63 % 0,0 l/m 9,8 km/h (2 Bft) W-NW 298 16,1 km/h (3 Bft)
11.01.2012 13:32 8,8 C 63 % 0,0 l/m 14,4 km/h (3 Bft) NW 314 22,5 km/h (4 Bft)
11.01.2012 13:33 8,7 C 63 % 0,0 l/m 12,8 km/h (3 Bft) N-NO 20 19,3 km/h (3 Bft)
11.01.2012 13:34 8,7 C 63 % 0,0 l/m 18,8 km/h (3 Bft) W 260 25,7 km/h (4 Bft)
11.01.2012 13:35 8,7 C 63 % 0,0 l/m 11,9 km/h (2 Bft) N-NW 343 19,3 km/h (3 Bft)
11.01.2012 13:36 8,6 C 64 % 0,0 l/m 12,6 km/h (3 Bft) N 1 17,7 km/h (3 Bft)
11.01.2012 13:37 8,6 C 64 % 0,0 l/m 16,0 km/h (3 Bft) W 262 27,4 km/h (4 Bft)
11.01.2012 13:38 8,6 C 64 % 0,0 l/m 14,7 km/h (3 Bft) W-NW 286 24,1 km/h (4 Bft)
11.01.2012 13:39 8,5 C 63 % 0,0 l/m 11,5 km/h (2 Bft) W 281 17,7 km/h (3 Bft)
11.01.2012 13:40 8,5 C 64 % 0,0 l/m 13,1 km/h (3 Bft) NO 36 19,3 km/h (3 Bft)
11.01.2012 13:41 8,4 C 64 % 0,0 l/m 8,4 km/h (2 Bft) NW 325 19,3 km/h (3 Bft)
11.01.2012 13:42 8,4 C 64 % 0,0 l/m 17,1 km/h (3 Bft) W-NW 297 29,0 km/h (5 Bft)
11.01.2012 13:43 8,4 C 64 % 0,0 l/m 10,8 km/h (2 Bft) N-NW 330 17,7 km/h (3 Bft)
11.01.2012 13:44 8,4 C 64 % 0,0 l/m 20,5 km/h (4 Bft) NW 321 35,4 km/h (5 Bft)
11.01.2012 13:45 8,3 C 63 % 0,0 l/m 21,5 km/h (4 Bft) NW 319 32,2 km/h (5 Bft)
11.01.2012 13:46 8,3 C 63 % 0,0 l/m 18,6 km/h (3 Bft) NW 316 30,6 km/h (5 Bft)
11.01.2012 13:47 8,3 C 64 % 0,0 l/m 16,3 km/h (3 Bft) W-NW 301 24,1 km/h (4 Bft)
11.01.2012 13:48 8,3 C 64 % 0,0 l/m 15,0 km/h (3 Bft) N-NW 332 24,1 km/h (4 Bft)
11.01.2012 13:49 8,3 C 65 % 0,0 l/m 14,7 km/h (3 Bft) NW 322 30,6 km/h (5 Bft)
11.01.2012 13:50 8,3 C 64 % 0,0 l/m 21,3 km/h (4 Bft) N-NW 330 27,4 km/h (4 Bft)
11.01.2012 13:51 8,2 C 65 % 0,0 l/m 12,3 km/h (3 Bft) W-NW 293 20,9 km/h (4 Bft)
11.01.2012 13:52 8,2 C 65 % 0,0 l/m 15,6 km/h (3 Bft) NW 326 22,5 km/h (4 Bft)
11.01.2012 13:53 8,2 C 65 % 0,0 l/m 17,6 km/h (3 Bft) NW 326 29,0 km/h (5 Bft)
11.01.2012 13:54 8,2 C 65 % 0,0 l/m 13,9 km/h (3 Bft) NW 321 20,9 km/h (4 Bft)
11.01.2012 13:55 8,2 C 66 % 0,0 l/m 14,7 km/h (3 Bft) NO 40 22,5 km/h (4 Bft)
11.01.2012 13:56 8,2 C 66 % 0,0 l/m 10,4 km/h (2 Bft) W-NW 294 14,5 km/h (3 Bft)
11.01.2012 13:57 8,2 C 66 % 0,0 l/m 12,9 km/h (3 Bft) NW 311 22,5 km/h (4 Bft)
11.01.2012 13:58 8,2 C 66 % 0,0 l/m 14,4 km/h (3 Bft) N 357 20,9 km/h (4 Bft)
11.01.2012 13:59 8,2 C 66 % 0,0 l/m 13,3 km/h (3 Bft) W 280 20,9 km/h (4 Bft)
11.01.2012 14:00 8,2 C 66 % 0,0 l/m 13,9 km/h (3 Bft) S-SW 208 25,7 km/h (4 Bft)
11.01.2012 14:01 8,2 C 65 % 0,0 l/m 19,0 km/h (3 Bft) W-NW 284 30,6 km/h (5 Bft)
11.01.2012 14:02 8,3 C 64 % 0,0 l/m 16,4 km/h (3 Bft) N-NW 336 24,1 km/h (4 Bft)
11.01.2012 14:03 8,3 C 65 % 0,0 l/m 18,3 km/h (3 Bft) N-NW 343 22,5 km/h (4 Bft)
11.01.2012 14:04 8,3 C 65 % 0,0 l/m 9,9 km/h (2 Bft) W-NW 295 20,9 km/h (4 Bft)
11.01.2012 14:05 8,4 C 66 % 0,0 l/m 15,0 km/h (3 Bft) NW 308 22,5 km/h (4 Bft)
11.01.2012 14:06 8,4 C 65 % 0,0 l/m 14,9 km/h (3 Bft) NO 46 29,0 km/h (5 Bft)
11.01.2012 14:07 8,4 C 65 % 0,0 l/m 11,3 km/h (2 Bft) N-NO 15 20,9 km/h (4 Bft)
11.01.2012 14:08 8,4 C 66 % 0,0 l/m 11,8 km/h (2 Bft) N 356 19,3 km/h (3 Bft)
11.01.2012 14:09 8,4 C 65 % 0,0 l/m 16,1 km/h (3 Bft) NW 307 24,1 km/h (4 Bft)
11.01.2012 14:10 8,4 C 65 % 0,0 l/m 18,2 km/h (3 Bft) NW 312 22,5 km/h (4 Bft)
11.01.2012 14:11 8,4 C 64 % 0,0 l/m 23,4 km/h (4 Bft) N-NW 334 33,8 km/h (5 Bft)
11.01.2012 14:12 8,4 C 64 % 0,0 l/m 22,9 km/h (4 Bft) W-NW 294 40,2 km/h (6 Bft)
11.01.2012 14:13 8,3 C 64 % 0,0 l/m 12,6 km/h (3 Bft) N-NW 332 24,1 km/h (4 Bft)
11.01.2012 14:14 8,3 C 65 % 0,0 l/m 16,0 km/h (3 Bft) NW 306 27,4 km/h (4 Bft)
11.01.2012 14:15 8,3 C 65 % 0,0 l/m 14,3 km/h (3 Bft) W-NW 282 19,3 km/h (3 Bft)
11.01.2012 14:16 8,2 C 65 % 0,0 l/m 18,7 km/h (3 Bft) NW 312 35,4 km/h (5 Bft)
11.01.2012 14:17 8,2 C 65 % 0,0 l/m 16,7 km/h (3 Bft) N-NW 333 27,4 km/h (4 Bft)
11.01.2012 14:18 8,3 C 65 % 0,0 l/m 18,2 km/h (3 Bft) N-NW 337 37,0 km/h (5 Bft)
11.01.2012 14:19 8,3 C 65 % 0,0 l/m 20,0 km/h (4 Bft) W-NW 295 27,4 km/h (4 Bft)
11.01.2012 14:20 8,3 C 65 % 0,0 l/m 15,7 km/h (3 Bft) W-NW 294 19,3 km/h (3 Bft)
11.01.2012 14:21 8,3 C 65 % 0,0 l/m 27,6 km/h (4 Bft) W-SW 250 41,8 km/h (6 Bft)
11.01.2012 14:22 8,3 C 64 % 0,0 l/m 27,4 km/h (4 Bft) NW 312 40,2 km/h (6 Bft)
11.01.2012 14:23 8,3 C 64 % 0,0 l/m 23,5 km/h (4 Bft) W-NW 300 33,8 km/h (5 Bft)
11.01.2012 14:24 8,3 C 65 % 0,0 l/m 21,6 km/h (4 Bft) W-NW 288 32,2 km/h (5 Bft)
11.01.2012 14:25 8,2 C 64 % 0,0 l/m 22,0 km/h (4 Bft) W-NW 290 33,8 km/h (5 Bft)
11.01.2012 14:26 8,2 C 64 % 0,0 l/m 23,7 km/h (4 Bft) N-NW 343 33,8 km/h (5 Bft)
11.01.2012 14:27 8,2 C 65 % 0,0 l/m 18,9 km/h (3 Bft) W-SW 243 32,2 km/h (5 Bft)
11.01.2012 14:28 8,2 C 65 % 0,0 l/m 14,3 km/h (3 Bft) NW 316 29,0 km/h (5 Bft)
11.01.2012 14:29 8,3 C 64 % 0,0 l/m 24,3 km/h (4 Bft) W-NW 300 33,8 km/h (5 Bft)
11.01.2012 14:30 8,3 C 64 % 0,0 l/m 22,2 km/h (4 Bft) NW 308 45,1 km/h (6 Bft)
11.01.2012 14:31 8,3 C 64 % 0,0 l/m 29,4 km/h (5 Bft) N-NW 334 48,3 km/h (6 Bft)
11.01.2012 14:32 8,3 C 63 % 0,0 l/m 28,4 km/h (4 Bft) W 280 38,6 km/h (5 Bft)
11.01.2012 14:33 8,3 C 63 % 0,0 l/m 29,0 km/h (5 Bft) W-NW 299 38,6 km/h (5 Bft)
11.01.2012 14:34 8,3 C 63 % 0,0 l/m 34,3 km/h (5 Bft) W-SW 248 45,1 km/h (6 Bft)
11.01.2012 14:35 8,3 C 63 % 0,0 l/m 28,2 km/h (4 Bft) W-NW 285 49,9 km/h (6 Bft)
11.01.2012 14:36 8,3 C 64 % 0,0 l/m 16,8 km/h (3 Bft) W-NW 287 22,5 km/h (4 Bft)
11.01.2012 14:37 8,3 C 63 % 0,0 l/m 23,7 km/h (4 Bft) W-NW 298 41,8 km/h (6 Bft)
11.01.2012 14:38 8,3 C 63 % 0,0 l/m 25,9 km/h (4 Bft) NW 325 38,6 km/h (5 Bft)
11.01.2012 14:39 8,3 C 63 % 0,0 l/m 20,3 km/h (4 Bft) W-NW 284 40,2 km/h (6 Bft)
11.01.2012 14:40 8,3 C 63 % 0,0 l/m 20,7 km/h (4 Bft) W-NW 285 33,8 km/h (5 Bft)
11.01.2012 14:41 8,3 C 63 % 0,0 l/m 18,2 km/h (3 Bft) NW 319 32,2 km/h (5 Bft)
11.01.2012 14:42 8,3 C 63 % 0,0 l/m 13,9 km/h (3 Bft) NW 319 22,5 km/h (4 Bft)
11.01.2012 14:43 8,3 C 63 % 0,0 l/m 19,0 km/h (3 Bft) N-NW 343 30,6 km/h (5 Bft)
11.01.2012 14:44 8,3 C 64 % 0,0 l/m 21,9 km/h (4 Bft) W-NW 283 38,6 km/h (5 Bft)
11.01.2012 14:45 8,2 C 63 % 0,0 l/m 21,2 km/h (4 Bft) W-NW 293 29,0 km/h (5 Bft)
11.01.2012 14:46 8,2 C 63 % 0,0 l/m 19,4 km/h (3 Bft) NW 306 32,2 km/h (5 Bft)
11.01.2012 14:47 8,2 C 63 % 0,0 l/m 22,7 km/h (4 Bft) W-NW 294 40,2 km/h (6 Bft)
11.01.2012 14:48 8,2 C 64 % 0,0 l/m 20,3 km/h (4 Bft) N-NW 329 30,6 km/h (5 Bft)
11.01.2012 14:49 8,2 C 64 % 0,0 l/m 22,2 km/h (4 Bft) N-NW 333 33,8 km/h (5 Bft)
11.01.2012 14:50 8,2 C 64 % 0,0 l/m 20,4 km/h (4 Bft) W-NW 300 32,2 km/h (5 Bft)
11.01.2012 14:51 8,2 C 64 % 0,0 l/m 15,1 km/h (3 Bft) NW 312 20,9 km/h (4 Bft)
11.01.2012 14:52 8,2 C 63 % 0,0 l/m 24,7 km/h (4 Bft) W-NW 293 41,8 km/h (6 Bft)
11.01.2012 14:53 8,2 C 64 % 0,0 l/m 15,2 km/h (3 Bft) W-NW 290 25,7 km/h (4 Bft)
11.01.2012 14:54 8,1 C 64 % 0,0 l/m 24,8 km/h (4 Bft) N-NW 347 38,6 km/h (5 Bft)
11.01.2012 14:55 8,1 C 64 % 0,0 l/m 25,8 km/h (4 Bft) NW 304 38,6 km/h (5 Bft)
11.01.2012 14:56 8,1 C 63 % 0,0 l/m 24,8 km/h (4 Bft) W-NW 302 40,2 km/h (6 Bft)
11.01.2012 14:57 8,1 C 63 % 0,0 l/m 27,3 km/h (4 Bft) W-NW 288 45,1 km/h (6 Bft)
11.01.2012 14:58 8,1 C 64 % 0,0 l/m 23,2 km/h (4 Bft) NW 305 32,2 km/h (5 Bft)
11.01.2012 14:59 8,1 C 64 % 0,0 l/m 24,7 km/h (4 Bft) W-NW 284 41,8 km/h (6 Bft)
11.01.2012 15:00 8,1 C 64 % 0,0 l/m 18,7 km/h (3 Bft) NW 317 35,4 km/h (5 Bft)
11.01.2012 15:01 8,1 C 64 % 0,0 l/m 23,1 km/h (4 Bft) W-SW 256 38,6 km/h (5 Bft)
11.01.2012 15:02 8,1 C 63 % 0,0 l/m 23,9 km/h (4 Bft) W-NW 291 35,4 km/h (5 Bft)
11.01.2012 15:03 8,0 C 63 % 0,0 l/m 17,6 km/h (3 Bft) NW 308 35,4 km/h (5 Bft)
11.01.2012 15:04 8,0 C 64 % 0,0 l/m 27,9 km/h (4 Bft) NW 321 38,6 km/h (5 Bft)
11.01.2012 15:05 7,9 C 64 % 0,0 l/m 26,8 km/h (4 Bft) NW 307 43,5 km/h (6 Bft)
11.01.2012 15:06 7,9 C 63 % 0,0 l/m 27,4 km/h (4 Bft) W-NW 283 38,6 km/h (5 Bft)
11.01.2012 15:07 7,9 C 63 % 0,0 l/m 28,2 km/h (4 Bft) N-NW 330 40,2 km/h (6 Bft)
11.01.2012 15:08 8,0 C 63 % 0,0 l/m 28,2 km/h (4 Bft) NW 323 54,7 km/h (7 Bft)
11.01.2012 15:09 8,0 C 63 % 0,0 l/m 24,6 km/h (4 Bft) W-NW 300 54,7 km/h (7 Bft)
11.01.2012 15:10 8,0 C 63 % 0,0 l/m 23,7 km/h (4 Bft) NW 314 30,6 km/h (5 Bft)
11.01.2012 15:11 8,0 C 63 % 0,0 l/m 25,2 km/h (4 Bft) W-NW 298 37,0 km/h (5 Bft)
11.01.2012 15:12 8,0 C 63 % 0,0 l/m 25,7 km/h (4 Bft) W 269 40,2 km/h (6 Bft)
11.01.2012 15:13 8,0 C 63 % 0,0 l/m 33,3 km/h (5 Bft) W-NW 295 46,7 km/h (6 Bft)
11.01.2012 15:14 8,0 C 63 % 0,0 l/m 17,9 km/h (3 Bft) N 6 30,6 km/h (5 Bft)
11.01.2012 15:15 8,0 C 63 % 0,0 l/m 27,3 km/h (4 Bft) W-NW 289 41,8 km/h (6 Bft)
11.01.2012 15:16 8,0 C 63 % 0,0 l/m 29,6 km/h (5 Bft) W-NW 298 38,6 km/h (5 Bft)
11.01.2012 15:17 8,0 C 64 % 0,0 l/m 25,6 km/h (4 Bft) W-SW 256 35,4 km/h (5 Bft)
11.01.2012 15:18 7,9 C 64 % 0,0 l/m 30,9 km/h (5 Bft) SW 217 40,2 km/h (6 Bft)
11.01.2012 15:19 7,9 C 64 % 0,0 l/m 15,2 km/h (3 Bft) NW 307 35,4 km/h (5 Bft)
11.01.2012 15:20 7,9 C 64 % 0,0 l/m 22,8 km/h (4 Bft) NW 308 37,0 km/h (5 Bft)
11.01.2012 15:21 7,9 C 63 % 0,0 l/m 20,7 km/h (4 Bft) NW 311 35,4 km/h (5 Bft)
11.01.2012 15:22 7,9 C 63 % 0,0 l/m 22,3 km/h (4 Bft) O 82 37,0 km/h (5 Bft)
11.01.2012 15:23 7,9 C 64 % 0,0 l/m 13,7 km/h (3 Bft) N 349 22,5 km/h (4 Bft)
11.01.2012 15:24 7,9 C 64 % 0,0 l/m 24,4 km/h (4 Bft) W-NW 293 38,6 km/h (5 Bft)
11.01.2012 15:25 7,8 C 63 % 0,0 l/m 25,5 km/h (4 Bft) NW 322 41,8 km/h (6 Bft)
11.01.2012 15:26 7,8 C 63 % 0,0 l/m 19,1 km/h (3 Bft) W-NW 297 38,6 km/h (5 Bft)
11.01.2012 15:27 7,8 C 64 % 0,0 l/m 32,0 km/h (5 Bft) W-NW 298 45,1 km/h (6 Bft)
11.01.2012 15:28 7,8 C 63 % 0,0 l/m 23,4 km/h (4 Bft) W-NW 289 32,2 km/h (5 Bft)
11.01.2012 15:29 7,8 C 64 % 0,0 l/m 15,3 km/h (3 Bft) W-SW 242 24,1 km/h (4 Bft)
11.01.2012 15:30 7,8 C 64 % 0,0 l/m 20,2 km/h (4 Bft) NW 308 30,6 km/h (5 Bft)
11.01.2012 15:31 7,8 C 64 % 0,0 l/m 19,9 km/h (4 Bft) W-NW 297 27,4 km/h (4 Bft)
11.01.2012 15:32 7,8 C 63 % 0,0 l/m 26,4 km/h (4 Bft) N-NW 336 43,5 km/h (6 Bft)
11.01.2012 15:33 7,8 C 63 % 0,0 l/m 23,9 km/h (4 Bft) NW 304 37,0 km/h (5 Bft)
11.01.2012 15:34 7,8 C 63 % 0,0 l/m 16,0 km/h (3 Bft) W-NW 289 24,1 km/h (4 Bft)
11.01.2012 15:35 7,8 C 63 % 0,0 l/m 25,8 km/h (4 Bft) W-NW 302 45,1 km/h (6 Bft)
11.01.2012 15:36 7,8 C 63 % 0,0 l/m 25,8 km/h (4 Bft) W-NW 297 35,4 km/h (5 Bft)
11.01.2012 15:37 7,8 C 63 % 0,0 l/m 16,8 km/h (3 Bft) W 273 22,5 km/h (4 Bft)
11.01.2012 15:38 7,7 C 64 % 0,0 l/m 16,3 km/h (3 Bft) W-NW 297 24,1 km/h (4 Bft)
11.01.2012 15:39 7,7 C 64 % 0,0 l/m 17,3 km/h (3 Bft) NW 315 24,1 km/h (4 Bft)
11.01.2012 15:40 7,7 C 64 % 0,0 l/m 20,0 km/h (4 Bft) NW 321 29,0 km/h (5 Bft)
11.01.2012 15:41 7,7 C 64 % 0,0 l/m 23,2 km/h (4 Bft) N-NW 340 30,6 km/h (5 Bft)
11.01.2012 15:42 7,7 C 64 % 0,0 l/m 19,5 km/h (3 Bft) O-NO 59 33,8 km/h (5 Bft)
11.01.2012 15:43 7,7 C 63 % 0,0 l/m 21,2 km/h (4 Bft) W-NW 288 37,0 km/h (5 Bft)
11.01.2012 15:44 7,8 C 64 % 0,0 l/m 15,5 km/h (3 Bft) N-NW 336 25,7 km/h (4 Bft)
11.01.2012 15:45 7,7 C 64 % 0,0 l/m 21,9 km/h (4 Bft) W-NW 301 30,6 km/h (5 Bft)
11.01.2012 15:46 7,7 C 64 % 0,0 l/m 19,8 km/h (3 Bft) N 9 30,6 km/h (5 Bft)
11.01.2012 15:47 7,7 C 64 % 0,0 l/m 18,0 km/h (3 Bft) W-NW 283 25,7 km/h (4 Bft)
11.01.2012 15:48 7,7 C 64 % 0,0 l/m 11,8 km/h (2 Bft) NW 319 24,1 km/h (4 Bft)
11.01.2012 15:49 7,7 C 64 % 0,0 l/m 23,5 km/h (4 Bft) NW 309 33,8 km/h (5 Bft)
11.01.2012 15:50 7,7 C 64 % 0,0 l/m 19,8 km/h (3 Bft) W-NW 290 35,4 km/h (5 Bft)
11.01.2012 15:51 7,7 C 64 % 0,0 l/m 18,7 km/h (3 Bft) NW 306 32,2 km/h (5 Bft)
11.01.2012 15:52 7,7 C 64 % 0,0 l/m 15,4 km/h (3 Bft) NW 319 29,0 km/h (5 Bft)
11.01.2012 15:53 7,7 C 64 % 0,0 l/m 24,0 km/h (4 Bft) W-NW 298 43,5 km/h (6 Bft)
11.01.2012 15:54 7,7 C 63 % 0,0 l/m 24,1 km/h (4 Bft) W-NW 298 41,8 km/h (6 Bft)
11.01.2012 15:55 7,7 C 63 % 0,0 l/m 25,6 km/h (4 Bft) W 281 37,0 km/h (5 Bft)
11.01.2012 15:56 7,7 C 63 % 0,0 l/m 25,3 km/h (4 Bft) NW 317 38,6 km/h (5 Bft)
11.01.2012 15:57 7,8 C 63 % 0,0 l/m 20,3 km/h (4 Bft) W-NW 300 46,7 km/h (6 Bft)
11.01.2012 15:58 7,8 C 63 % 0,0 l/m 25,7 km/h (4 Bft) S-SW 212 45,1 km/h (6 Bft)
11.01.2012 15:59 7,8 C 63 % 0,0 l/m 26,5 km/h (4 Bft) W 280 41,8 km/h (6 Bft)
11.01.2012 16:00 7,8 C 63 % 0,0 l/m 23,3 km/h (4 Bft) N-NW 339 33,8 km/h (5 Bft)
11.01.2012 16:01 7,7 C 63 % 0,0 l/m 26,8 km/h (4 Bft) W 277 41,8 km/h (6 Bft)
11.01.2012 16:02 7,7 C 64 % 0,0 l/m 23,8 km/h (4 Bft) NO 38 38,6 km/h (5 Bft)
11.01.2012 16:03 7,7 C 63 % 0,0 l/m 23,6 km/h (4 Bft) W-SW 250 40,2 km/h (6 Bft)
11.01.2012 16:04 7,8 C 63 % 0,0 l/m 23,9 km/h (4 Bft) NW 325 37,0 km/h (5 Bft)
11.01.2012 16:05 7,8 C 63 % 0,0 l/m 21,2 km/h (4 Bft) W-NW 295 32,2 km/h (5 Bft)
11.01.2012 16:06 7,7 C 63 % 0,0 l/m 15,3 km/h (3 Bft) W 274 25,7 km/h (4 Bft)
11.01.2012 16:07 7,7 C 63 % 0,0 l/m 27,4 km/h (4 Bft) NW 321 40,2 km/h (6 Bft)
11.01.2012 16:08 7,7 C 64 % 0,0 l/m 20,8 km/h (4 Bft) W 269 33,8 km/h (5 Bft)
11.01.2012 16:09 7,7 C 64 % 0,0 l/m 21,5 km/h (4 Bft) N-NO 20 40,2 km/h (6 Bft)
11.01.2012 16:10 7,7 C 64 % 0,0 l/m 21,9 km/h (4 Bft) NW 319 29,0 km/h (5 Bft)
11.01.2012 16:11 7,7 C 64 % 0,0 l/m 22,0 km/h (4 Bft) N 358 29,0 km/h (5 Bft)
11.01.2012 16:12 7,7 C 64 % 0,0 l/m 13,0 km/h (3 Bft) W 278 25,7 km/h (4 Bft)
11.01.2012 16:13 7,7 C 64 % 0,0 l/m 24,0 km/h (4 Bft) W-NW 299 40,2 km/h (6 Bft)
11.01.2012 16:14 7,6 C 64 % 0,0 l/m 18,3 km/h (3 Bft) W-NW 293 32,2 km/h (5 Bft)
11.01.2012 16:15 7,6 C 64 % 0,0 l/m 13,9 km/h (3 Bft) N 354 20,9 km/h (4 Bft)
11.01.2012 16:16 7,6 C 64 % 0,0 l/m 17,7 km/h (3 Bft) W-NW 299 25,7 km/h (4 Bft)
11.01.2012 16:17 7,6 C 65 % 0,0 l/m 14,7 km/h (3 Bft) W-NW 289 20,9 km/h (4 Bft)
11.01.2012 16:18 7,5 C 64 % 0,0 l/m 18,3 km/h (3 Bft) NW 313 24,1 km/h (4 Bft)
11.01.2012 16:19 7,5 C 65 % 0,0 l/m 12,3 km/h (3 Bft) N-NW 337 17,7 km/h (3 Bft)
11.01.2012 16:20 7,4 C 65 % 0,0 l/m 10,4 km/h (2 Bft) N 359 19,3 km/h (3 Bft)
11.01.2012 16:21 7,4 C 65 % 0,0 l/m 12,4 km/h (3 Bft) S-SW 211 20,9 km/h (4 Bft)
11.01.2012 16:22 7,3 C 65 % 0,0 l/m 13,4 km/h (3 Bft) W-NW 284 27,4 km/h (4 Bft)
11.01.2012 16:23 7,3 C 65 % 0,0 l/m 13,4 km/h (3 Bft) W-SW 252 20,9 km/h (4 Bft)
11.01.2012 16:24 7,3 C 65 % 0,0 l/m 19,0 km/h (3 Bft) N-NW 330 27,4 km/h (4 Bft)
11.01.2012 16:25 7,3 C 65 % 0,0 l/m 12,1 km/h (2 Bft) W-NW 300 25,7 km/h (4 Bft)
11.01.2012 16:26 7,3 C 65 % 0,0 l/m 23,7 km/h (4 Bft) NW 325 40,2 km/h (6 Bft)
11.01.2012 16:27 7,3 C 65 % 0,0 l/m 18,2 km/h (3 Bft) W-NW 287 30,6 km/h (5 Bft)
11.01.2012 16:28 7,3 C 65 % 0,0 l/m 14,6 km/h (3 Bft) N-NW 329 27,4 km/h (4 Bft)
11.01.2012 16:29 7,4 C 65 % 0,0 l/m 21,1 km/h (4 Bft) NW 321 32,2 km/h (5 Bft)
11.01.2012 16:30 7,4 C 65 % 0,0 l/m 27,0 km/h (4 Bft) W 279 38,6 km/h (5 Bft)
11.01.2012 16:31 7,4 C 64 % 0,0 l/m 22,9 km/h (4 Bft) N-NO 30 37,0 km/h (5 Bft)
11.01.2012 16:32 7,4 C 65 % 0,0 l/m 21,5 km/h (4 Bft) W-SW 253 32,2 km/h (5 Bft)
11.01.2012 16:33 7,4 C 65 % 0,0 l/m 24,9 km/h (4 Bft) N-NW 334 40,2 km/h (6 Bft)
11.01.2012 16:34 7,4 C 65 % 0,0 l/m 21,4 km/h (4 Bft) W-NW 291 33,8 km/h (5 Bft)
11.01.2012 16:35 7,4 C 65 % 0,0 l/m 20,4 km/h (4 Bft) N-NW 332 30,6 km/h (5 Bft)
11.01.2012 16:36 7,4 C 65 % 0,0 l/m 21,7 km/h (4 Bft) W-NW 302 30,6 km/h (5 Bft)
11.01.2012 16:37 7,3 C 65 % 0,0 l/m 19,4 km/h (3 Bft) W-NW 291 27,4 km/h (4 Bft)
11.01.2012 16:38 7,3 C 65 % 0,0 l/m 19,6 km/h (3 Bft) W-NW 293 37,0 km/h (5 Bft)
11.01.2012 16:39 7,3 C 65 % 0,0 l/m 18,3 km/h (3 Bft) NO 36 33,8 km/h (5 Bft)
11.01.2012 16:40 7,3 C 65 % 0,0 l/m 23,3 km/h (4 Bft) W-NW 293 33,8 km/h (5 Bft)
11.01.2012 16:41 7,3 C 65 % 0,0 l/m 26,6 km/h (4 Bft) W 276 35,4 km/h (5 Bft)
11.01.2012 16:42 7,3 C 65 % 0,0 l/m 20,3 km/h (4 Bft) W-NW 284 32,2 km/h (5 Bft)
11.01.2012 16:43 7,3 C 65 % 0,0 l/m 21,1 km/h (4 Bft) W-NW 299 32,2 km/h (5 Bft)
11.01.2012 16:44 7,3 C 66 % 0,0 l/m 16,5 km/h (3 Bft) W-NW 288 27,4 km/h (4 Bft)
11.01.2012 16:45 7,3 C 65 % 0,0 l/m 23,0 km/h (4 Bft) W-SW 252 35,4 km/h (5 Bft)
11.01.2012 16:46 7,2 C 66 % 0,0 l/m 27,0 km/h (4 Bft) S-SW 194 32,2 km/h (5 Bft)
11.01.2012 16:47 7,3 C 65 % 0,0 l/m 28,7 km/h (4 Bft) W-NW 295 40,2 km/h (6 Bft)
11.01.2012 16:48 7,3 C 65 % 0,0 l/m 29,1 km/h (5 Bft) W-NW 287 37,0 km/h (5 Bft)
11.01.2012 16:49 7,3 C 65 % 0,0 l/m 22,2 km/h (4 Bft) W 266 30,6 km/h (5 Bft)
11.01.2012 16:50 7,3 C 65 % 0,0 l/m 17,9 km/h (3 Bft) NW 309 27,4 km/h (4 Bft)
11.01.2012 16:51 7,3 C 65 % 0,0 l/m 13,0 km/h (3 Bft) W-NW 284 22,5 km/h (4 Bft)
11.01.2012 16:52 7,3 C 65 % 0,0 l/m 18,4 km/h (3 Bft) NW 305 25,7 km/h (4 Bft)
11.01.2012 16:53 7,3 C 65 % 0,0 l/m 28,2 km/h (4 Bft) W-NW 297 35,4 km/h (5 Bft)
11.01.2012 16:54 7,3 C 65 % 0,0 l/m 23,1 km/h (4 Bft) W-NW 301 40,2 km/h (6 Bft)
11.01.2012 16:55 7,4 C 64 % 0,0 l/m 19,6 km/h (3 Bft) W-NW 297 35,4 km/h (5 Bft)
11.01.2012 16:56 7,4 C 64 % 0,0 l/m 17,4 km/h (3 Bft) NW 304 29,0 km/h (5 Bft)
11.01.2012 16:57 7,4 C 64 % 0,0 l/m 17,3 km/h (3 Bft) W-NW 287 27,4 km/h (4 Bft)
11.01.2012 16:58 7,3 C 64 % 0,0 l/m 16,3 km/h (3 Bft) S-SW 201 40,2 km/h (6 Bft)
11.01.2012 16:59 7,3 C 64 % 0,0 l/m 22,1 km/h (4 Bft) W 274 35,4 km/h (5 Bft)
11.01.2012 17:00 7,3 C 64 % 0,0 l/m 16,1 km/h (3 Bft) W-NW 285 25,7 km/h (4 Bft)
11.01.2012 17:01 7,3 C 64 % 0,0 l/m 22,2 km/h (4 Bft) W-NW 301 41,8 km/h (6 Bft)
11.01.2012 17:02 7,3 C 64 % 0,0 l/m 27,3 km/h (4 Bft) NW 306 38,6 km/h (5 Bft)
11.01.2012 17:03 7,3 C 64 % 0,0 l/m 30,2 km/h (5 Bft) W 281 37,0 km/h (5 Bft)
11.01.2012 17:04 7,4 C 64 % 0,0 l/m 24,5 km/h (4 Bft) W-NW 300 40,2 km/h (6 Bft)
11.01.2012 17:05 7,4 C 64 % 0,0 l/m 35,3 km/h (5 Bft) N-NW 335 49,9 km/h (6 Bft)
11.01.2012 17:06 7,4 C 63 % 0,0 l/m 23,4 km/h (4 Bft) W-NW 291 41,8 km/h (6 Bft)
11.01.2012 17:07 7,4 C 64 % 0,0 l/m 24,1 km/h (4 Bft) W 267 35,4 km/h (5 Bft)
11.01.2012 17:08 7,4 C 64 % 0,0 l/m 17,2 km/h (3 Bft) NW 304 30,6 km/h (5 Bft)
11.01.2012 17:09 7,4 C 64 % 0,0 l/m 30,1 km/h (5 Bft) SW 231 43,5 km/h (6 Bft)
11.01.2012 17:10 7,4 C 64 % 0,0 l/m 27,6 km/h (4 Bft) W-NW 286 41,8 km/h (6 Bft)
11.01.2012 17:11 7,4 C 63 % 0,0 l/m 25,8 km/h (4 Bft) W-NW 288 32,2 km/h (5 Bft)
11.01.2012 17:12 7,4 C 64 % 0,0 l/m 22,7 km/h (4 Bft) W-NW 291 32,2 km/h (5 Bft)
11.01.2012 17:13 7,4 C 64 % 0,0 l/m 24,2 km/h (4 Bft) W-NW 284 38,6 km/h (5 Bft)
11.01.2012 17:14 7,3 C 64 % 0,0 l/m 25,8 km/h (4 Bft) W 280 35,4 km/h (5 Bft)
11.01.2012 17:15 7,3 C 64 % 0,0 l/m 22,1 km/h (4 Bft) NW 308 30,6 km/h (5 Bft)
11.01.2012 17:16 7,3 C 64 % 0,0 l/m 24,3 km/h (4 Bft) W 281 32,2 km/h (5 Bft)
11.01.2012 17:17 7,3 C 64 % 0,0 l/m 26,2 km/h (4 Bft) W-NW 302 35,4 km/h (5 Bft)
11.01.2012 17:18 7,3 C 64 % 0,0 l/m 28,6 km/h (4 Bft) W-NW 285 45,1 km/h (6 Bft)
11.01.2012 17:19 7,3 C 64 % 0,0 l/m 15,0 km/h (3 Bft) NW 306 22,5 km/h (4 Bft)
11.01.2012 17:20 7,3 C 64 % 0,0 l/m 20,6 km/h (4 Bft) SW 233 33,8 km/h (5 Bft)
11.01.2012 17:21 7,3 C 65 % 0,0 l/m 15,3 km/h (3 Bft) W 265 29,0 km/h (5 Bft)
11.01.2012 17:22 7,2 C 65 % 0,0 l/m 16,3 km/h (3 Bft) W-NW 285 25,7 km/h (4 Bft)
11.01.2012 17:23 7,2 C 65 % 0,0 l/m 16,2 km/h (3 Bft) W-SW 250 29,0 km/h (5 Bft)
11.01.2012 17:24 7,2 C 65 % 0,0 l/m 19,2 km/h (3 Bft) NW 308 30,6 km/h (5 Bft)
11.01.2012 17:25 7,2 C 65 % 0,0 l/m 15,8 km/h (3 Bft) NW 314 24,1 km/h (4 Bft)
11.01.2012 17:26 7,2 C 65 % 0,0 l/m 21,3 km/h (4 Bft) W-NW 290 33,8 km/h (5 Bft)
11.01.2012 17:27 7,2 C 65 % 0,0 l/m 21,9 km/h (4 Bft) O 98 35,4 km/h (5 Bft)
11.01.2012 17:28 7,2 C 65 % 0,0 l/m 23,2 km/h (4 Bft) W-NW 283 35,4 km/h (5 Bft)
11.01.2012 17:29 7,2 C 65 % 0,0 l/m 32,5 km/h (5 Bft) W-NW 287 43,5 km/h (6 Bft)
11.01.2012 17:30 7,2 C 65 % 0,0 l/m 16,7 km/h (3 Bft) NW 319 30,6 km/h (5 Bft)
11.01.2012 17:31 7,2 C 65 % 0,0 l/m 15,8 km/h (3 Bft) O-SO 102 25,7 km/h (4 Bft)
11.01.2012 17:32 7,2 C 65 % 0,0 l/m 19,6 km/h (3 Bft) W 267 35,4 km/h (5 Bft)
11.01.2012 17:33 7,2 C 65 % 0,0 l/m 16,1 km/h (3 Bft) W-SW 238 24,1 km/h (4 Bft)
11.01.2012 17:34 7,2 C 65 % 0,0 l/m 23,8 km/h (4 Bft) W-NW 288 33,8 km/h (5 Bft)
11.01.2012 17:35 7,2 C 65 % 0,0 l/m 24,2 km/h (4 Bft) W-NW 301 37,0 km/h (5 Bft)
11.01.2012 17:36 7,2 C 64 % 0,0 l/m 17,1 km/h (3 Bft) W 278 30,6 km/h (5 Bft)
11.01.2012 17:37 7,2 C 64 % 0,0 l/m 19,1 km/h (3 Bft) N-NW 345 27,4 km/h (4 Bft)
11.01.2012 17:38 7,2 C 64 % 0,0 l/m 31,3 km/h (5 Bft) N-NW 330 43,5 km/h (6 Bft)
11.01.2012 17:39 7,3 C 64 % 0,0 l/m 12,7 km/h (3 Bft) W 276 29,0 km/h (5 Bft)
11.01.2012 17:40 7,3 C 63 % 0,0 l/m 27,4 km/h (4 Bft) N 350 46,7 km/h (6 Bft)
11.01.2012 17:41 7,4 C 63 % 0,0 l/m 19,9 km/h (4 Bft) W-NW 298 33,8 km/h (5 Bft)
11.01.2012 17:42 7,4 C 63 % 0,0 l/m 17,6 km/h (3 Bft) NW 313 33,8 km/h (5 Bft)
11.01.2012 17:43 7,4 C 63 % 0,0 l/m 17,2 km/h (3 Bft) W 273 25,7 km/h (4 Bft)
11.01.2012 17:44 7,4 C 63 % 0,0 l/m 18,6 km/h (3 Bft) S 186 38,6 km/h (5 Bft)
11.01.2012 17:45 7,4 C 63 % 0,0 l/m 18,3 km/h (3 Bft) W-NW 301 30,6 km/h (5 Bft)
11.01.2012 17:46 7,4 C 62 % 0,0 l/m 10,5 km/h (2 Bft) W 263 22,5 km/h (4 Bft)
11.01.2012 17:47 7,4 C 63 % 0,0 l/m 15,3 km/h (3 Bft) O-SO 111 29,0 km/h (5 Bft)
11.01.2012 17:48 7,5 C 62 % 0,0 l/m 21,7 km/h (4 Bft) W 274 40,2 km/h (6 Bft)
11.01.2012 17:49 7,6 C 62 % 0,0 l/m 22,5 km/h (4 Bft) W 271 35,4 km/h (5 Bft)
11.01.2012 17:50 7,5 C 62 % 0,0 l/m 21,6 km/h (4 Bft) W-NW 283 33,8 km/h (5 Bft)
11.01.2012 17:51 7,6 C 62 % 0,0 l/m 17,5 km/h (3 Bft) W-NW 289 32,2 km/h (5 Bft)
11.01.2012 17:52 7,6 C 62 % 0,0 l/m 13,3 km/h (3 Bft) S-SW 201 29,0 km/h (5 Bft)
11.01.2012 17:53 7,5 C 62 % 0,0 l/m 14,0 km/h (3 Bft) SW 229 24,1 km/h (4 Bft)
11.01.2012 17:54 7,6 C 62 % 0,0 l/m 24,1 km/h (4 Bft) W-SW 243 37,0 km/h (5 Bft)
11.01.2012 17:55 7,6 C 62 % 0,0 l/m 18,7 km/h (3 Bft) W-SW 245 33,8 km/h (5 Bft)
11.01.2012 17:56 7,6 C 62 % 0,0 l/m 23,5 km/h (4 Bft) W 281 43,5 km/h (6 Bft)
11.01.2012 17:57 7,6 C 62 % 0,0 l/m 17,8 km/h (3 Bft) W-NW 295 35,4 km/h (5 Bft)
11.01.2012 17:58 7,6 C 62 % 0,0 l/m 24,7 km/h (4 Bft) S-SW 212 38,6 km/h (5 Bft)
11.01.2012 17:59 7,6 C 62 % 0,0 l/m 21,5 km/h (4 Bft) W-SW 254 40,2 km/h (6 Bft)
11.01.2012 18:00 7,6 C 62 % 0,0 l/m 21,2 km/h (4 Bft) W-SW 254 33,8 km/h (5 Bft)
11.01.2012 18:01 7,6 C 62 % 0,0 l/m 15,4 km/h (3 Bft) W-SW 256 25,7 km/h (4 Bft)
11.01.2012 18:02 7,6 C 62 % 0,0 l/m 17,8 km/h (3 Bft) S-SW 194 33,8 km/h (5 Bft)
11.01.2012 18:03 7,6 C 62 % 0,0 l/m 19,2 km/h (3 Bft) S-SW 208 40,2 km/h (6 Bft)
11.01.2012 18:04 7,6 C 62 % 0,0 l/m 21,4 km/h (4 Bft) W 270 41,8 km/h (6 Bft)
11.01.2012 18:05 7,6 C 62 % 0,0 l/m 19,2 km/h (3 Bft) N-NW 330 30,6 km/h (5 Bft)
11.01.2012 18:06 7,6 C 61 % 0,0 l/m 20,8 km/h (4 Bft) O-NO 64 41,8 km/h (6 Bft)
11.01.2012 18:07 7,7 C 61 % 0,0 l/m 27,3 km/h (4 Bft) W-NW 285 56,3 km/h (7 Bft)
11.01.2012 18:08 7,7 C 61 % 0,0 l/m 21,6 km/h (4 Bft) S-SW 192 40,2 km/h (6 Bft)
11.01.2012 18:09 7,7 C 61 % 0,0 l/m 27,5 km/h (4 Bft) N-NW 344 43,5 km/h (6 Bft)
11.01.2012 18:10 7,7 C 61 % 0,0 l/m 16,3 km/h (3 Bft) W 273 27,4 km/h (4 Bft)
11.01.2012 18:11 7,7 C 61 % 0,0 l/m 18,1 km/h (3 Bft) N-NW 329 25,7 km/h (4 Bft)
11.01.2012 18:12 7,7 C 62 % 0,0 l/m 18,2 km/h (3 Bft) W-NW 297 32,2 km/h (5 Bft)
11.01.2012 18:13 7,7 C 62 % 0,0 l/m 18,5 km/h (3 Bft) W 267 35,4 km/h (5 Bft)
11.01.2012 18:14 7,7 C 62 % 0,0 l/m 12,2 km/h (2 Bft) NW 312 33,8 km/h (5 Bft)
11.01.2012 18:15 7,7 C 61 % 0,0 l/m 29,0 km/h (5 Bft) N-NW 328 49,9 km/h (6 Bft)
11.01.2012 18:16 7,7 C 62 % 0,0 l/m 14,7 km/h (3 Bft) W-SW 256 35,4 km/h (5 Bft)
11.01.2012 18:17 7,7 C 62 % 0,0 l/m 25,3 km/h (4 Bft) W 260 33,8 km/h (5 Bft)
11.01.2012 18:18 7,7 C 62 % 0,0 l/m 21,2 km/h (4 Bft) NW 325 30,6 km/h (5 Bft)
11.01.2012 18:19 7,7 C 62 % 0,0 l/m 16,1 km/h (3 Bft) W-NW 294 35,4 km/h (5 Bft)
11.01.2012 18:20 7,7 C 62 % 0,0 l/m 22,3 km/h (4 Bft) W-SW 255 32,2 km/h (5 Bft)
11.01.2012 18:21 7,7 C 62 % 0,0 l/m 20,9 km/h (4 Bft) W 280 29,0 km/h (5 Bft)
11.01.2012 18:22 7,7 C 62 % 0,0 l/m 22,0 km/h (4 Bft) W-NW 289 43,5 km/h (6 Bft)
11.01.2012 18:23 7,7 C 62 % 0,0 l/m 23,3 km/h (4 Bft) W 278 51,5 km/h (7 Bft)
11.01.2012 18:24 7,7 C 62 % 0,0 l/m 24,9 km/h (4 Bft) S-SW 209 41,8 km/h (6 Bft)
11.01.2012 18:25 7,7 C 62 % 0,0 l/m 17,8 km/h (3 Bft) W-SW 241 29,0 km/h (5 Bft)
11.01.2012 18:26 7,7 C 62 % 0,0 l/m 18,0 km/h (3 Bft) O 86 30,6 km/h (5 Bft)
11.01.2012 18:27 7,7 C 61 % 0,0 l/m 27,0 km/h (4 Bft) W-NW 294 45,1 km/h (6 Bft)
11.01.2012 18:28 7,7 C 61 % 0,0 l/m 16,3 km/h (3 Bft) W-NW 300 30,6 km/h (5 Bft)
11.01.2012 18:29 7,7 C 61 % 0,0 l/m 22,0 km/h (4 Bft) N 9 41,8 km/h (6 Bft)
11.01.2012 18:30 7,7 C 61 % 0,0 l/m 18,0 km/h (3 Bft) N-NO 29 40,2 km/h (6 Bft)
11.01.2012 18:31 7,7 C 62 % 0,0 l/m 15,7 km/h (3 Bft) S-SW 203 24,1 km/h (4 Bft)
11.01.2012 18:32 7,7 C 62 % 0,0 l/m 18,2 km/h (3 Bft) W-NW 302 37,0 km/h (5 Bft)
11.01.2012 18:33 7,7 C 62 % 0,0 l/m 27,6 km/h (4 Bft) W 269 37,0 km/h (5 Bft)
11.01.2012 18:34 7,7 C 62 % 0,0 l/m 24,2 km/h (4 Bft) W-SW 253 37,0 km/h (5 Bft)
11.01.2012 18:35 7,7 C 62 % 0,0 l/m 23,1 km/h (4 Bft) N-NO 12 32,2 km/h (5 Bft)
11.01.2012 18:36 7,7 C 62 % 0,0 l/m 21,1 km/h (4 Bft) SW 232 29,0 km/h (5 Bft)
11.01.2012 18:37 7,7 C 62 % 0,0 l/m 21,8 km/h (4 Bft) NW 315 40,2 km/h (6 Bft)
11.01.2012 18:38 7,7 C 62 % 0,0 l/m 21,1 km/h (4 Bft) W-SW 243 41,8 km/h (6 Bft)
11.01.2012 18:39 7,7 C 62 % 0,0 l/m 14,7 km/h (3 Bft) W-SW 248 29,0 km/h (5 Bft)
11.01.2012 18:40 7,7 C 62 % 0,0 l/m 25,0 km/h (4 Bft) NO 39 45,1 km/h (6 Bft)
11.01.2012 18:41 7,7 C 62 % 0,0 l/m 23,7 km/h (4 Bft) W-NW 288 32,2 km/h (5 Bft)
11.01.2012 18:42 7,7 C 62 % 0,0 l/m 21,2 km/h (4 Bft) W-NW 285 30,6 km/h (5 Bft)
11.01.2012 18:43 7,7 C 62 % 0,0 l/m 18,9 km/h (3 Bft) W 265 33,8 km/h (5 Bft)
11.01.2012 18:44 7,7 C 62 % 0,0 l/m 15,3 km/h (3 Bft) W 274 30,6 km/h (5 Bft)
11.01.2012 18:45 7,6 C 62 % 0,0 l/m 18,0 km/h (3 Bft) N-NO 32 30,6 km/h (5 Bft)
11.01.2012 18:46 7,6 C 62 % 0,0 l/m 26,2 km/h (4 Bft) N-NW 333 48,3 km/h (6 Bft)
11.01.2012 18:47 7,7 C 62 % 0,0 l/m 23,6 km/h (4 Bft) N-NW 329 40,2 km/h (6 Bft)
11.01.2012 18:48 7,7 C 62 % 0,0 l/m 20,0 km/h (4 Bft) W-SW 245 37,0 km/h (5 Bft)
11.01.2012 18:49 7,7 C 62 % 0,0 l/m 24,5 km/h (4 Bft) N-NW 342 40,2 km/h (6 Bft)
11.01.2012 18:50 7,7 C 62 % 0,0 l/m 24,4 km/h (4 Bft) NW 309 33,8 km/h (5 Bft)
11.01.2012 18:51 7,7 C 62 % 0,0 l/m 26,2 km/h (4 Bft) NW 305 35,4 km/h (5 Bft)
11.01.2012 18:52 7,6 C 63 % 0,0 l/m 17,5 km/h (3 Bft) W 271 45,1 km/h (6 Bft)
11.01.2012 18:53 7,6 C 62 % 0,0 l/m 22,3 km/h (4 Bft) N-NW 345 37,0 km/h (5 Bft)
11.01.2012 18:54 7,6 C 62 % 0,0 l/m 13,9 km/h (3 Bft) NW 323 24,1 km/h (4 Bft)
11.01.2012 18:55 7,6 C 62 % 0,0 l/m 18,9 km/h (3 Bft) W-NW 293 30,6 km/h (5 Bft)
11.01.2012 18:56 7,6 C 62 % 0,0 l/m 28,0 km/h (4 Bft) N-NO 33 41,8 km/h (6 Bft)
11.01.2012 18:57 7,6 C 63 % 0,0 l/m 21,5 km/h (4 Bft) NW 325 37,0 km/h (5 Bft)
11.01.2012 18:58 7,6 C 63 % 0,0 l/m 25,8 km/h (4 Bft) W 262 40,2 km/h (6 Bft)
11.01.2012 18:59 7,7 C 63 % 0,0 l/m 18,1 km/h (3 Bft) W-NW 300 38,6 km/h (5 Bft)
11.01.2012 19:00 7,6 C 63 % 0,0 l/m 26,5 km/h (4 Bft) NW 314 35,4 km/h (5 Bft)
11.01.2012 19:01 7,7 C 63 % 0,0 l/m 21,7 km/h (4 Bft) W-NW 301 38,6 km/h (5 Bft)
11.01.2012 19:02 7,7 C 63 % 0,0 l/m 20,5 km/h (4 Bft) W-NW 291 38,6 km/h (5 Bft)
11.01.2012 19:03 7,6 C 62 % 0,0 l/m 24,6 km/h (4 Bft) N-NO 18 49,9 km/h (6 Bft)
11.01.2012 19:04 7,7 C 62 % 0,0 l/m 18,8 km/h (3 Bft) W-NW 301 33,8 km/h (5 Bft)
11.01.2012 19:05 7,7 C 62 % 0,0 l/m 21,6 km/h (4 Bft) W 281 40,2 km/h (6 Bft)
11.01.2012 19:06 7,7 C 62 % 0,0 l/m 20,0 km/h (4 Bft) W-SW 246 40,2 km/h (6 Bft)
11.01.2012 19:07 7,7 C 62 % 0,0 l/m 21,8 km/h (4 Bft) W-SW 249 40,2 km/h (6 Bft)
11.01.2012 19:08 7,7 C 62 % 0,0 l/m 14,5 km/h (3 Bft) W-SW 252 30,6 km/h (5 Bft)
11.01.2012 19:09 7,7 C 62 % 0,0 l/m 23,5 km/h (4 Bft) W-NW 302 37,0 km/h (5 Bft)
11.01.2012 19:10 7,7 C 62 % 0,0 l/m 22,7 km/h (4 Bft) W 259 37,0 km/h (5 Bft)
11.01.2012 19:11 7,7 C 62 % 0,0 l/m 23,9 km/h (4 Bft) W-NW 283 51,5 km/h (7 Bft)
11.01.2012 19:12 7,7 C 62 % 0,0 l/m 27,9 km/h (4 Bft) W-NW 301 41,8 km/h (6 Bft)
11.01.2012 19:13 7,7 C 62 % 0,0 l/m 16,1 km/h (3 Bft) W-NW 295 33,8 km/h (5 Bft)
11.01.2012 19:14 7,7 C 62 % 0,0 l/m 21,8 km/h (4 Bft) W-SW 257 32,2 km/h (5 Bft)
11.01.2012 19:15 7,7 C 63 % 0,0 l/m 16,6 km/h (3 Bft) O 93 32,2 km/h (5 Bft)
11.01.2012 19:16 7,7 C 63 % 0,0 l/m 17,0 km/h (3 Bft) NW 325 29,0 km/h (5 Bft)
11.01.2012 19:17 7,6 C 63 % 0,0 l/m 14,9 km/h (3 Bft) NW 304 24,1 km/h (4 Bft)
11.01.2012 19:18 7,6 C 63 % 0,0 l/m 23,0 km/h (4 Bft) W-NW 294 37,0 km/h (5 Bft)
11.01.2012 19:19 7,6 C 63 % 0,0 l/m 24,9 km/h (4 Bft) NO 43 41,8 km/h (6 Bft)
11.01.2012 19:20 7,6 C 63 % 0,0 l/m 23,8 km/h (4 Bft) NW 321 37,0 km/h (5 Bft)
11.01.2012 19:21 7,6 C 63 % 0,0 l/m 21,9 km/h (4 Bft) W 278 46,7 km/h (6 Bft)
11.01.2012 19:22 7,6 C 63 % 0,0 l/m 24,3 km/h (4 Bft) N-NW 341 38,6 km/h (5 Bft)
11.01.2012 19:23 7,6 C 63 % 0,0 l/m 18,6 km/h (3 Bft) W-SW 257 29,0 km/h (5 Bft)
11.01.2012 19:24 7,6 C 63 % 0,0 l/m 15,1 km/h (3 Bft) N-NW 348 27,4 km/h (4 Bft)
11.01.2012 19:25 7,6 C 63 % 0,0 l/m 16,4 km/h (3 Bft) SW 222 33,8 km/h (5 Bft)
11.01.2012 19:26 7,6 C 63 % 0,0 l/m 20,5 km/h (4 Bft) W 260 45,1 km/h (6 Bft)
11.01.2012 19:27 7,6 C 63 % 0,0 l/m 25,0 km/h (4 Bft) W 259 37,0 km/h (5 Bft)
11.01.2012 19:28 7,6 C 63 % 0,0 l/m 19,3 km/h (3 Bft) W-SW 245 32,2 km/h (5 Bft)
11.01.2012 19:29 7,6 C 63 % 0,0 l/m 17,8 km/h (3 Bft) W 266 37,0 km/h (5 Bft)
11.01.2012 19:30 7,6 C 63 % 0,0 l/m 17,1 km/h (3 Bft) O 98 30,6 km/h (5 Bft)
11.01.2012 19:31 7,6 C 63 % 0,0 l/m 15,5 km/h (3 Bft) W-NW 288 29,0 km/h (5 Bft)
11.01.2012 19:32 7,6 C 63 % 0,0 l/m 20,2 km/h (4 Bft) W 278 37,0 km/h (5 Bft)
11.01.2012 19:33 7,6 C 63 % 0,0 l/m 18,9 km/h (3 Bft) W-NW 293 35,4 km/h (5 Bft)
11.01.2012 19:34 7,6 C 64 % 0,0 l/m 28,6 km/h (4 Bft) S 190 35,4 km/h (5 Bft)
11.01.2012 19:35 7,5 C 63 % 0,0 l/m 17,0 km/h (3 Bft) W-NW 301 33,8 km/h (5 Bft)
11.01.2012 19:36 7,5 C 64 % 0,0 l/m 17,0 km/h (3 Bft) SW 233 33,8 km/h (5 Bft)
11.01.2012 19:37 7,5 C 64 % 0,0 l/m 21,0 km/h (4 Bft) W-SW 242 38,6 km/h (5 Bft)
11.01.2012 19:38 7,5 C 64 % 0,0 l/m 17,0 km/h (3 Bft) NW 313 27,4 km/h (4 Bft)
11.01.2012 19:39 7,5 C 64 % 0,0 l/m 21,9 km/h (4 Bft) SW 236 33,8 km/h (5 Bft)
11.01.2012 19:40 7,5 C 63 % 0,0 l/m 24,2 km/h (4 Bft) W-NW 285 41,8 km/h (6 Bft)
11.01.2012 19:41 7,6 C 63 % 0,0 l/m 25,0 km/h (4 Bft) S 184 41,8 km/h (6 Bft)
11.01.2012 19:42 7,6 C 63 % 0,0 l/m 18,1 km/h (3 Bft) W 263 37,0 km/h (5 Bft)
11.01.2012 19:43 7,6 C 63 % 0,0 l/m 26,3 km/h (4 Bft) NW 309 41,8 km/h (6 Bft)
11.01.2012 19:44 7,6 C 63 % 0,0 l/m 20,5 km/h (4 Bft) W-NW 295 43,5 km/h (6 Bft)
11.01.2012 19:45 7,6 C 63 % 0,0 l/m 15,4 km/h (3 Bft) W 259 38,6 km/h (5 Bft)
11.01.2012 19:46 7,6 C 63 % 0,0 l/m 21,8 km/h (4 Bft) N 349 45,1 km/h (6 Bft)
11.01.2012 19:47 7,6 C 64 % 0,0 l/m 22,0 km/h (4 Bft) NW 310 30,6 km/h (5 Bft)
11.01.2012 19:48 7,6 C 64 % 0,0 l/m 18,7 km/h (3 Bft) W-NW 297 32,2 km/h (5 Bft)
11.01.2012 19:49 7,6 C 64 % 0,0 l/m 20,4 km/h (4 Bft) N-NW 332 30,6 km/h (5 Bft)
11.01.2012 19:50 7,6 C 64 % 0,0 l/m 23,1 km/h (4 Bft) W 275 35,4 km/h (5 Bft)
11.01.2012 19:51 7,6 C 64 % 0,0 l/m 22,8 km/h (4 Bft) S-SW 197 35,4 km/h (5 Bft)
11.01.2012 19:52 7,6 C 64 % 0,0 l/m 13,8 km/h (3 Bft) W-SW 245 20,9 km/h (4 Bft)
11.01.2012 19:53 7,6 C 64 % 0,0 l/m 20,6 km/h (4 Bft) NW 311 37,0 km/h (5 Bft)
11.01.2012 19:54 7,6 C 64 % 0,0 l/m 17,3 km/h (3 Bft) S 173 27,4 km/h (4 Bft)
11.01.2012 19:55 7,6 C 64 % 0,0 l/m 15,3 km/h (3 Bft) W-SW 257 25,7 km/h (4 Bft)
11.01.2012 19:56 7,6 C 64 % 0,0 l/m 12,9 km/h (3 Bft) W-NW 283 37,0 km/h (5 Bft)
11.01.2012 19:57 7,6 C 64 % 0,0 l/m 18,7 km/h (3 Bft) SW 228 29,0 km/h (5 Bft)
11.01.2012 19:58 7,6 C 64 % 0,0 l/m 22,9 km/h (4 Bft) W 274 37,0 km/h (5 Bft)
11.01.2012 19:59 7,6 C 64 % 0,0 l/m 24,1 km/h (4 Bft) O 81 40,2 km/h (6 Bft)
11.01.2012 20:00 7,6 C 64 % 0,0 l/m 17,2 km/h (3 Bft) S-SO 160 29,0 km/h (5 Bft)
11.01.2012 20:01 7,6 C 64 % 0,0 l/m 21,4 km/h (4 Bft) O 89 32,2 km/h (5 Bft)
11.01.2012 20:02 7,6 C 64 % 0,0 l/m 16,0 km/h (3 Bft) SO 143 24,1 km/h (4 Bft)
11.01.2012 20:03 7,6 C 64 % 0,0 l/m 23,9 km/h (4 Bft) NW 307 33,8 km/h (5 Bft)
11.01.2012 20:04 7,6 C 64 % 0,0 l/m 18,7 km/h (3 Bft) NW 312 37,0 km/h (5 Bft)
11.01.2012 20:05 7,6 C 64 % 0,0 l/m 25,9 km/h (4 Bft) O 85 51,5 km/h (7 Bft)
11.01.2012 20:06 7,6 C 64 % 0,0 l/m 17,5 km/h (3 Bft) W-NW 284 35,4 km/h (5 Bft)
11.01.2012 20:07 7,6 C 64 % 0,0 l/m 17,4 km/h (3 Bft) W 259 37,0 km/h (5 Bft)
11.01.2012 20:08 7,6 C 64 % 0,0 l/m 20,4 km/h (4 Bft) W-NW 288 30,6 km/h (5 Bft)
11.01.2012 20:09 7,6 C 64 % 0,0 l/m 16,6 km/h (3 Bft) NW 312 32,2 km/h (5 Bft)
11.01.2012 20:10 7,6 C 64 % 0,0 l/m 20,8 km/h (4 Bft) W-NW 288 30,6 km/h (5 Bft)
11.01.2012 20:11 7,6 C 64 % 0,0 l/m 22,0 km/h (4 Bft) W-SW 245 38,6 km/h (5 Bft)
11.01.2012 20:12 7,6 C 65 % 0,0 l/m 15,2 km/h (3 Bft) SW 214 22,5 km/h (4 Bft)
11.01.2012 20:13 7,6 C 65 % 0,0 l/m 24,1 km/h (4 Bft) W 273 45,1 km/h (6 Bft)
11.01.2012 20:14 7,6 C 65 % 0,0 l/m 18,3 km/h (3 Bft) W-NW 291 27,4 km/h (4 Bft)
11.01.2012 20:15 7,6 C 65 % 0,0 l/m 19,0 km/h (3 Bft) NW 305 33,8 km/h (5 Bft)
11.01.2012 20:17 7,6 C 65 % 0,0 l/m 24,0 km/h (4 Bft) W-SW 240 35,4 km/h (5 Bft)
11.01.2012 20:18 7,6 C 65 % 0,0 l/m 13,5 km/h (3 Bft) W-SW 245 30,6 km/h (5 Bft)
11.01.2012 20:19 7,6 C 65 % 0,0 l/m 13,0 km/h (3 Bft) NW 321 20,9 km/h (4 Bft)
11.01.2012 20:20 7,6 C 65 % 0,0 l/m 13,1 km/h (3 Bft) W-NW 301 20,9 km/h (4 Bft)
11.01.2012 20:21 7,6 C 65 % 0,0 l/m 16,4 km/h (3 Bft) W-NW 293 24,1 km/h (4 Bft)
11.01.2012 20:22 7,6 C 65 % 0,0 l/m 19,3 km/h (3 Bft) N-NW 332 33,8 km/h (5 Bft)
11.01.2012 20:23 7,6 C 65 % 0,0 l/m 23,3 km/h (4 Bft) W 263 33,8 km/h (5 Bft)
11.01.2012 20:24 7,6 C 65 % 0,0 l/m 16,8 km/h (3 Bft) NW 308 27,4 km/h (4 Bft)
11.01.2012 20:25 7,6 C 65 % 0,0 l/m 12,9 km/h (3 Bft) NW 311 20,9 km/h (4 Bft)
11.01.2012 20:26 7,6 C 65 % 0,0 l/m 16,9 km/h (3 Bft) W 280 29,0 km/h (5 Bft)
11.01.2012 20:27 7,6 C 65 % 0,0 l/m 18,4 km/h (3 Bft) W-NW 295 32,2 km/h (5 Bft)
11.01.2012 20:28 7,6 C 65 % 0,0 l/m 21,1 km/h (4 Bft) W 277 30,6 km/h (5 Bft)
11.01.2012 20:29 7,6 C 65 % 0,0 l/m 12,2 km/h (2 Bft) S-SW 198 20,9 km/h (4 Bft)
11.01.2012 20:30 7,6 C 65 % 0,0 l/m 17,5 km/h (3 Bft) W-NW 285 27,4 km/h (4 Bft)
11.01.2012 20:31 7,6 C 65 % 0,0 l/m 19,3 km/h (3 Bft) W 278 30,6 km/h (5 Bft)
11.01.2012 20:32 7,6 C 65 % 0,0 l/m 16,5 km/h (3 Bft) W-NW 295 25,7 km/h (4 Bft)
11.01.2012 20:33 7,6 C 65 % 0,0 l/m 15,2 km/h (3 Bft) NW 309 38,6 km/h (5 Bft)
11.01.2012 20:34 7,6 C 65 % 0,0 l/m 18,7 km/h (3 Bft) W 274 29,0 km/h (5 Bft)
11.01.2012 20:35 7,6 C 65 % 0,0 l/m 13,5 km/h (3 Bft) O 86 27,4 km/h (4 Bft)
11.01.2012 20:36 7,6 C 65 % 0,0 l/m 14,0 km/h (3 Bft) W 281 24,1 km/h (4 Bft)
11.01.2012 20:37 7,6 C 65 % 0,0 l/m 18,1 km/h (3 Bft) W-NW 298 35,4 km/h (5 Bft)
11.01.2012 20:38 7,6 C 65 % 0,0 l/m 17,5 km/h (3 Bft) W 260 30,6 km/h (5 Bft)
11.01.2012 20:39 7,6 C 65 % 0,0 l/m 13,9 km/h (3 Bft) NW 318 27,4 km/h (4 Bft)
11.01.2012 20:40 7,5 C 65 % 0,0 l/m 13,0 km/h (3 Bft) W-NW 293 25,7 km/h (4 Bft)
11.01.2012 20:41 7,6 C 64 % 0,0 l/m 20,4 km/h (4 Bft) SW 225 35,4 km/h (5 Bft)
11.01.2012 20:42 7,6 C 64 % 0,0 l/m 24,4 km/h (4 Bft) W 260 37,0 km/h (5 Bft)
11.01.2012 20:43 7,6 C 64 % 0,0 l/m 23,7 km/h (4 Bft) SW 226 35,4 km/h (5 Bft)
11.01.2012 20:44 7,6 C 64 % 0,0 l/m 18,1 km/h (3 Bft) W-NW 299 29,0 km/h (5 Bft)
11.01.2012 20:45 7,7 C 64 % 0,0 l/m 19,7 km/h (3 Bft) NW 308 27,4 km/h (4 Bft)
11.01.2012 20:46 7,7 C 64 % 0,0 l/m 20,6 km/h (4 Bft) W-NW 282 29,0 km/h (5 Bft)
11.01.2012 20:47 7,6 C 64 % 0,0 l/m 12,4 km/h (3 Bft) O-SO 109 19,3 km/h (3 Bft)
11.01.2012 20:48 7,6 C 64 % 0,0 l/m 14,2 km/h (3 Bft) NW 306 17,7 km/h (3 Bft)
11.01.2012 20:49 7,6 C 64 % 0,0 l/m 12,5 km/h (3 Bft) N-NW 333 19,3 km/h (3 Bft)
11.01.2012 20:50 7,6 C 64 % 0,0 l/m 11,1 km/h (2 Bft) W-NW 286 19,3 km/h (3 Bft)
11.01.2012 20:51 7,6 C 64 % 0,0 l/m 10,7 km/h (2 Bft) NW 319 17,7 km/h (3 Bft)
11.01.2012 20:52 7,6 C 64 % 0,0 l/m 19,6 km/h (3 Bft) W 281 32,2 km/h (5 Bft)
11.01.2012 20:53 7,6 C 64 % 0,0 l/m 14,5 km/h (3 Bft) W-NW 297 27,4 km/h (4 Bft)
11.01.2012 20:54 7,6 C 64 % 0,0 l/m 18,3 km/h (3 Bft) W-NW 288 25,7 km/h (4 Bft)
11.01.2012 20:55 7,6 C 64 % 0,0 l/m 17,1 km/h (3 Bft) SW 231 27,4 km/h (4 Bft)
11.01.2012 20:56 7,6 C 64 % 0,0 l/m 16,5 km/h (3 Bft) W-NW 298 24,1 km/h (4 Bft)
11.01.2012 20:57 7,6 C 64 % 0,0 l/m 14,3 km/h (3 Bft) W 264 27,4 km/h (4 Bft)
11.01.2012 20:58 7,6 C 64 % 0,0 l/m 21,0 km/h (4 Bft) W-NW 293 25,7 km/h (4 Bft)
11.01.2012 20:59 7,6 C 64 % 0,0 l/m 16,0 km/h (3 Bft) W-SW 252 25,7 km/h (4 Bft)
11.01.2012 21:00 7,6 C 64 % 0,0 l/m 21,0 km/h (4 Bft) W-NW 301 32,2 km/h (5 Bft)
11.01.2012 21:01 7,6 C 64 % 0,0 l/m 17,0 km/h (3 Bft) W 278 27,4 km/h (4 Bft)
11.01.2012 21:02 7,6 C 64 % 0,0 l/m 18,3 km/h (3 Bft) SO 145 27,4 km/h (4 Bft)
11.01.2012 21:03 7,6 C 64 % 0,0 l/m 22,0 km/h (4 Bft) W-NW 297 33,8 km/h (5 Bft)
11.01.2012 21:04 7,6 C 64 % 0,0 l/m 19,1 km/h (3 Bft) W-NW 297 27,4 km/h (4 Bft)
11.01.2012 21:05 7,6 C 64 % 0,0 l/m 10,2 km/h (2 Bft) NW 309 27,4 km/h (4 Bft)
11.01.2012 21:06 7,6 C 64 % 0,0 l/m 16,8 km/h (3 Bft) W 267 25,7 km/h (4 Bft)
11.01.2012 21:07 7,6 C 63 % 0,0 l/m 17,1 km/h (3 Bft) W-SW 249 24,1 km/h (4 Bft)
11.01.2012 21:08 7,6 C 64 % 0,0 l/m 16,1 km/h (3 Bft) W-NW 302 24,1 km/h (4 Bft)
11.01.2012 21:09 7,7 C 64 % 0,0 l/m 18,5 km/h (3 Bft) W-NW 295 29,0 km/h (5 Bft)
11.01.2012 21:10 7,7 C 64 % 0,0 l/m 20,0 km/h (4 Bft) W-SW 243 32,2 km/h (5 Bft)
11.01.2012 21:11 7,6 C 64 % 0,0 l/m 18,4 km/h (3 Bft) W-SW 238 24,1 km/h (4 Bft)
11.01.2012 21:12 7,6 C 64 % 0,0 l/m 15,4 km/h (3 Bft) W-NW 293 29,0 km/h (5 Bft)
11.01.2012 21:13 7,6 C 64 % 0,0 l/m 9,4 km/h (2 Bft) O-NO 75 14,5 km/h (3 Bft)
11.01.2012 21:14 7,6 C 64 % 0,0 l/m 21,6 km/h (4 Bft) W 280 33,8 km/h (5 Bft)
11.01.2012 21:15 7,6 C 64 % 0,0 l/m 16,3 km/h (3 Bft) W-NW 293 22,5 km/h (4 Bft)
11.01.2012 21:16 7,6 C 64 % 0,0 l/m 9,6 km/h (2 Bft) NW 310 17,7 km/h (3 Bft)
11.01.2012 21:17 7,6 C 64 % 0,0 l/m 11,5 km/h (2 Bft) SW 226 19,3 km/h (3 Bft)
11.01.2012 21:18 7,6 C 64 % 0,0 l/m 11,9 km/h (2 Bft) W-NW 285 19,3 km/h (3 Bft)
11.01.2012 21:19 7,6 C 64 % 0,0 l/m 16,2 km/h (3 Bft) W-NW 297 30,6 km/h (5 Bft)
11.01.2012 21:20 7,6 C 64 % 0,0 l/m 11,0 km/h (2 Bft) S 183 20,9 km/h (4 Bft)
11.01.2012 21:21 7,6 C 64 % 0,0 l/m 15,2 km/h (3 Bft) W-NW 298 25,7 km/h (4 Bft)
11.01.2012 21:22 7,6 C 64 % 0,0 l/m 21,2 km/h (4 Bft) W-NW 297 41,8 km/h (6 Bft)
11.01.2012 21:23 7,7 C 64 % 0,0 l/m 19,5 km/h (3 Bft) S 186 38,6 km/h (5 Bft)
11.01.2012 21:24 7,7 C 64 % 0,0 l/m 15,6 km/h (3 Bft) W-NW 295 22,5 km/h (4 Bft)
11.01.2012 21:25 7,7 C 64 % 0,0 l/m 13,3 km/h (3 Bft) W-SW 239 24,1 km/h (4 Bft)
11.01.2012 21:26 7,7 C 64 % 0,0 l/m 8,6 km/h (2 Bft) S-SW 194 19,3 km/h (3 Bft)
11.01.2012 21:27 7,7 C 64 % 0,0 l/m 16,3 km/h (3 Bft) W-NW 293 27,4 km/h (4 Bft)
11.01.2012 21:28 7,7 C 64 % 0,0 l/m 15,4 km/h (3 Bft) W-NW 293 25,7 km/h (4 Bft)
11.01.2012 21:29 7,7 C 64 % 0,0 l/m 11,4 km/h (2 Bft) W 280 19,3 km/h (3 Bft)
11.01.2012 21:30 7,7 C 64 % 0,0 l/m 18,8 km/h (3 Bft) W-NW 283 27,4 km/h (4 Bft)
11.01.2012 21:31 7,7 C 64 % 0,0 l/m 18,2 km/h (3 Bft) W-NW 297 27,4 km/h (4 Bft)
11.01.2012 21:32 7,7 C 64 % 0,0 l/m 16,6 km/h (3 Bft) W-NW 295 27,4 km/h (4 Bft)
11.01.2012 21:33 7,7 C 64 % 0,0 l/m 16,2 km/h (3 Bft) N-NW 345 24,1 km/h (4 Bft)
11.01.2012 21:34 7,6 C 64 % 0,0 l/m 15,3 km/h (3 Bft) NW 313 25,7 km/h (4 Bft)
11.01.2012 21:35 7,6 C 64 % 0,0 l/m 19,0 km/h (3 Bft) NW 313 29,0 km/h (5 Bft)
11.01.2012 21:36 7,6 C 64 % 0,0 l/m 16,9 km/h (3 Bft) W-NW 284 33,8 km/h (5 Bft)
11.01.2012 21:37 7,6 C 64 % 0,0 l/m 9,5 km/h (2 Bft) NW 323 17,7 km/h (3 Bft)
11.01.2012 21:38 7,6 C 64 % 0,0 l/m 15,9 km/h (3 Bft) W-NW 293 22,5 km/h (4 Bft)
11.01.2012 21:39 7,6 C 65 % 0,0 l/m 20,2 km/h (4 Bft) W-NW 300 27,4 km/h (4 Bft)
11.01.2012 21:40 7,6 C 65 % 0,0 l/m 13,7 km/h (3 Bft) N-NO 33 22,5 km/h (4 Bft)
11.01.2012 21:41 7,6 C 65 % 0,0 l/m 10,5 km/h (2 Bft) W 269 20,9 km/h (4 Bft)
11.01.2012 21:42 7,6 C 65 % 0,0 l/m 19,0 km/h (3 Bft) W 264 35,4 km/h (5 Bft)
11.01.2012 21:43 7,6 C 64 % 0,0 l/m 19,4 km/h (3 Bft) NW 322 27,4 km/h (4 Bft)
11.01.2012 21:44 7,6 C 65 % 0,0 l/m 17,1 km/h (3 Bft) W 278 29,0 km/h (5 Bft)
11.01.2012 21:45 7,6 C 65 % 0,0 l/m 16,3 km/h (3 Bft) NW 304 29,0 km/h (5 Bft)
11.01.2012 21:46 7,6 C 65 % 0,0 l/m 16,2 km/h (3 Bft) W 278 33,8 km/h (5 Bft)
11.01.2012 21:47 7,6 C 65 % 0,0 l/m 19,0 km/h (3 Bft) SW 225 33,8 km/h (5 Bft)
11.01.2012 21:48 7,6 C 65 % 0,0 l/m 23,2 km/h (4 Bft) W-SW 255 37,0 km/h (5 Bft)
11.01.2012 21:49 7,6 C 64 % 0,0 l/m 16,7 km/h (3 Bft) NW 311 24,1 km/h (4 Bft)
11.01.2012 21:50 7,6 C 64 % 0,0 l/m 17,2 km/h (3 Bft) W-NW 287 32,2 km/h (5 Bft)
11.01.2012 21:51 7,6 C 65 % 0,0 l/m 11,3 km/h (2 Bft) W-SW 243 30,6 km/h (5 Bft)
11.01.2012 21:52 7,6 C 65 % 0,0 l/m 12,0 km/h (2 Bft) W 273 17,7 km/h (3 Bft)
11.01.2012 21:53 7,6 C 65 % 0,0 l/m 12,9 km/h (3 Bft) W-NW 297 24,1 km/h (4 Bft)
11.01.2012 21:54 7,6 C 65 % 0,0 l/m 11,4 km/h (2 Bft) W 260 22,5 km/h (4 Bft)
11.01.2012 21:55 7,6 C 65 % 0,0 l/m 7,2 km/h (2 Bft) N 349 16,1 km/h (3 Bft)
11.01.2012 21:56 7,6 C 65 % 0,0 l/m 19,1 km/h (3 Bft) W 280 35,4 km/h (5 Bft)
11.01.2012 21:57 7,6 C 65 % 0,0 l/m 12,1 km/h (2 Bft) W-NW 288 22,5 km/h (4 Bft)
11.01.2012 21:58 7,6 C 65 % 0,0 l/m 16,0 km/h (3 Bft) NW 306 22,5 km/h (4 Bft)
11.01.2012 21:59 7,6 C 65 % 0,0 l/m 16,2 km/h (3 Bft) W-NW 285 25,7 km/h (4 Bft)
11.01.2012 22:00 7,6 C 65 % 0,0 l/m 14,9 km/h (3 Bft) S 191 20,9 km/h (4 Bft)
11.01.2012 22:01 7,6 C 65 % 0,0 l/m 14,5 km/h (3 Bft) S-SW 204 25,7 km/h (4 Bft)
11.01.2012 22:02 7,6 C 65 % 0,0 l/m 13,0 km/h (3 Bft) N-NW 335 19,3 km/h (3 Bft)
11.01.2012 22:03 7,6 C 65 % 0,0 l/m 10,1 km/h (2 Bft) W 277 19,3 km/h (3 Bft)
11.01.2012 22:04 7,6 C 65 % 0,0 l/m 18,0 km/h (3 Bft) W-SW 256 25,7 km/h (4 Bft)
11.01.2012 22:05 7,6 C 65 % 0,0 l/m 11,7 km/h (2 Bft) W-SW 249 19,3 km/h (3 Bft)
11.01.2012 22:06 7,6 C 65 % 0,0 l/m 13,9 km/h (3 Bft) N 352 29,0 km/h (5 Bft)
11.01.2012 22:07 7,6 C 65 % 0,0 l/m 6,0 km/h (2 Bft) W-NW 284 14,5 km/h (3 Bft)
11.01.2012 22:08 7,6 C 65 % 0,0 l/m 10,9 km/h (2 Bft) W 273 20,9 km/h (4 Bft)
11.01.2012 22:09 7,6 C 65 % 0,0 l/m 11,4 km/h (2 Bft) W-SW 248 20,9 km/h (4 Bft)
11.01.2012 22:10 7,6 C 65 % 0,0 l/m 5,8 km/h (2 Bft) W-NW 291 9,7 km/h (2 Bft)
11.01.2012 22:11 7,6 C 65 % 0,0 l/m 14,1 km/h (3 Bft) W 269 20,9 km/h (4 Bft)
11.01.2012 22:12 7,6 C 65 % 0,0 l/m 13,1 km/h (3 Bft) NW 308 17,7 km/h (3 Bft)
11.01.2012 22:13 7,6 C 65 % 0,0 l/m 10,1 km/h (2 Bft) W-SW 245 16,1 km/h (3 Bft)
11.01.2012 22:14 7,6 C 65 % 0,0 l/m 11,3 km/h (2 Bft) W 278 14,5 km/h (3 Bft)
11.01.2012 22:15 7,5 C 65 % 0,0 l/m 5,4 km/h (1 Bft) W-SW 242 11,3 km/h (2 Bft)
11.01.2012 22:16 7,5 C 66 % 0,0 l/m 6,3 km/h (2 Bft) W-SW 256 9,7 km/h (2 Bft)
11.01.2012 22:17 7,5 C 65 % 0,0 l/m 7,5 km/h (2 Bft) W-SW 249 11,3 km/h (2 Bft)
11.01.2012 22:18 7,5 C 66 % 0,0 l/m 9,5 km/h (2 Bft) W 272 16,1 km/h (3 Bft)
11.01.2012 22:19 7,4 C 66 % 0,0 l/m 7,7 km/h (2 Bft) W-SW 245 11,3 km/h (2 Bft)
11.01.2012 22:20 7,4 C 66 % 0,0 l/m 5,0 km/h (1 Bft) W-SW 252 9,7 km/h (2 Bft)
11.01.2012 22:21 7,4 C 66 % 0,0 l/m 6,3 km/h (2 Bft) W-NW 284 14,5 km/h (3 Bft)
11.01.2012 22:22 7,4 C 66 % 0,0 l/m 8,5 km/h (2 Bft) W-NW 293 20,9 km/h (4 Bft)
11.01.2012 22:23 7,4 C 66 % 0,0 l/m 14,6 km/h (3 Bft) W-NW 299 29,0 km/h (5 Bft)
11.01.2012 22:24 7,4 C 65 % 0,0 l/m 9,7 km/h (2 Bft) NO 44 14,5 km/h (3 Bft)
11.01.2012 22:25 7,4 C 65 % 0,0 l/m 11,4 km/h (2 Bft) W 260 25,7 km/h (4 Bft)
11.01.2012 22:26 7,4 C 66 % 0,0 l/m 10,9 km/h (2 Bft) W 264 20,9 km/h (4 Bft)
11.01.2012 22:27 7,4 C 65 % 0,0 l/m 17,5 km/h (3 Bft) S 184 32,2 km/h (5 Bft)
11.01.2012 22:28 7,5 C 65 % 0,0 l/m 14,0 km/h (3 Bft) N-NW 330 27,4 km/h (4 Bft)
11.01.2012 22:29 7,5 C 65 % 0,0 l/m 14,0 km/h (3 Bft) NW 308 20,9 km/h (4 Bft)
11.01.2012 22:30 7,5 C 65 % 0,0 l/m 14,1 km/h (3 Bft) W-NW 295 27,4 km/h (4 Bft)
11.01.2012 22:31 7,5 C 65 % 0,0 l/m 11,5 km/h (2 Bft) W 262 20,9 km/h (4 Bft)
11.01.2012 22:32 7,5 C 65 % 0,0 l/m 12,4 km/h (3 Bft) W-NW 297 24,1 km/h (4 Bft)
11.01.2012 22:33 7,5 C 66 % 0,0 l/m 8,1 km/h (2 Bft) W-SW 240 19,3 km/h (3 Bft)
11.01.2012 22:34 7,5 C 65 % 0,0 l/m 6,9 km/h (2 Bft) SO 134 17,7 km/h (3 Bft)
11.01.2012 22:35 7,5 C 66 % 0,0 l/m 14,4 km/h (3 Bft) NW 310 20,9 km/h (4 Bft)
11.01.2012 22:36 7,5 C 66 % 0,0 l/m 11,8 km/h (2 Bft) W-SW 255 19,3 km/h (3 Bft)
11.01.2012 22:37 7,5 C 66 % 0,0 l/m 12,7 km/h (3 Bft) W-NW 293 20,9 km/h (4 Bft)
11.01.2012 22:38 7,5 C 66 % 0,0 l/m 9,4 km/h (2 Bft) NO 40 20,9 km/h (4 Bft)
11.01.2012 22:39 7,5 C 66 % 0,0 l/m 9,4 km/h (2 Bft) N 5 24,1 km/h (4 Bft)
11.01.2012 22:40 7,4 C 66 % 0,0 l/m 13,1 km/h (3 Bft) W-NW 297 19,3 km/h (3 Bft)
11.01.2012 22:41 7,5 C 66 % 0,0 l/m 11,8 km/h (2 Bft) W-NW 301 20,9 km/h (4 Bft)
11.01.2012 22:42 7,4 C 66 % 0,0 l/m 10,7 km/h (2 Bft) W-NW 297 19,3 km/h (3 Bft)
11.01.2012 22:43 7,4 C 66 % 0,0 l/m 9,1 km/h (2 Bft) NW 305 24,1 km/h (4 Bft)
11.01.2012 22:44 7,4 C 66 % 0,0 l/m 11,6 km/h (2 Bft) NW 305 17,7 km/h (3 Bft)
11.01.2012 22:45 7,4 C 66 % 0,0 l/m 9,8 km/h (2 Bft) W 274 16,1 km/h (3 Bft)
11.01.2012 22:46 7,4 C 66 % 0,0 l/m 13,2 km/h (3 Bft) SW 236 20,9 km/h (4 Bft)
11.01.2012 22:47 7,4 C 66 % 0,0 l/m 12,3 km/h (3 Bft) W-NW 287 17,7 km/h (3 Bft)
11.01.2012 22:48 7,4 C 66 % 0,0 l/m 12,1 km/h (2 Bft) NW 309 25,7 km/h (4 Bft)
11.01.2012 22:49 7,4 C 67 % 0,0 l/m 15,8 km/h (3 Bft) W-NW 297 27,4 km/h (4 Bft)
11.01.2012 22:50 7,4 C 67 % 0,0 l/m 13,2 km/h (3 Bft) W-NW 302 30,6 km/h (5 Bft)
11.01.2012 22:51 7,4 C 67 % 0,0 l/m 13,8 km/h (3 Bft) W-NW 299 22,5 km/h (4 Bft)
11.01.2012 22:52 7,4 C 67 % 0,0 l/m 15,0 km/h (3 Bft) W-NW 298 20,9 km/h (4 Bft)
11.01.2012 22:53 7,4 C 67 % 0,0 l/m 11,6 km/h (2 Bft) W-NW 294 19,3 km/h (3 Bft)
11.01.2012 22:54 7,4 C 67 % 0,0 l/m 6,4 km/h (2 Bft) W 262 14,5 km/h (3 Bft)
11.01.2012 22:55 7,4 C 67 % 0,0 l/m 8,4 km/h (2 Bft) N-NW 328 16,1 km/h (3 Bft)
11.01.2012 22:56 7,4 C 67 % 0,0 l/m 14,0 km/h (3 Bft) NW 305 24,1 km/h (4 Bft)
11.01.2012 22:57 7,4 C 67 % 0,0 l/m 15,5 km/h (3 Bft) N 352 25,7 km/h (4 Bft)
11.01.2012 22:58 7,3 C 67 % 0,0 l/m 11,1 km/h (2 Bft) NW 307 20,9 km/h (4 Bft)
11.01.2012 22:59 7,3 C 67 % 0,0 l/m 9,3 km/h (2 Bft) W-NW 287 22,5 km/h (4 Bft)
11.01.2012 23:00 7,3 C 67 % 0,0 l/m 11,1 km/h (2 Bft) O 99 17,7 km/h (3 Bft)
11.01.2012 23:01 7,3 C 67 % 0,0 l/m 15,6 km/h (3 Bft) W-NW 302 22,5 km/h (4 Bft)
11.01.2012 23:02 7,3 C 67 % 0,0 l/m 13,3 km/h (3 Bft) W-NW 295 25,7 km/h (4 Bft)
11.01.2012 23:03 7,3 C 67 % 0,0 l/m 14,3 km/h (3 Bft) W-SW 239 19,3 km/h (3 Bft)
11.01.2012 23:04 7,3 C 67 % 0,0 l/m 10,5 km/h (2 Bft) W-NW 300 27,4 km/h (4 Bft)
11.01.2012 23:05 7,3 C 67 % 0,0 l/m 17,4 km/h (3 Bft) W-NW 297 24,1 km/h (4 Bft)
11.01.2012 23:06 7,3 C 67 % 0,0 l/m 14,4 km/h (3 Bft) W-NW 291 19,3 km/h (3 Bft)
11.01.2012 23:07 7,3 C 67 % 0,0 l/m 6,5 km/h (2 Bft) W-NW 293 9,7 km/h (2 Bft)
11.01.2012 23:08 7,3 C 67 % 0,0 l/m 8,4 km/h (2 Bft) W-SW 239 16,1 km/h (3 Bft)
11.01.2012 23:09 7,3 C 67 % 0,0 l/m 10,6 km/h (2 Bft) SO 129 17,7 km/h (3 Bft)
11.01.2012 23:10 7,3 C 68 % 0,0 l/m 11,7 km/h (2 Bft) N-NW 341 19,3 km/h (3 Bft)
11.01.2012 23:11 7,3 C 67 % 0,0 l/m 12,2 km/h (2 Bft) N-NW 332 19,3 km/h (3 Bft)
11.01.2012 23:12 7,3 C 67 % 0,0 l/m 11,9 km/h (2 Bft) N-NW 332 19,3 km/h (3 Bft)
11.01.2012 23:13 7,3 C 67 % 0,0 l/m 11,9 km/h (2 Bft) SW 217 16,1 km/h (3 Bft)
11.01.2012 23:14 7,3 C 67 % 0,0 l/m 11,5 km/h (2 Bft) W-NW 286 20,9 km/h (4 Bft)
11.01.2012 23:15 7,3 C 67 % 0,0 l/m 15,4 km/h (3 Bft) W-NW 293 29,0 km/h (5 Bft)
11.01.2012 23:16 7,3 C 67 % 0,0 l/m 12,3 km/h (3 Bft) SW 232 19,3 km/h (3 Bft)
11.01.2012 23:17 7,3 C 67 % 0,0 l/m 9,9 km/h (2 Bft) N-NW 336 24,1 km/h (4 Bft)
11.01.2012 23:18 7,3 C 67 % 0,0 l/m 16,6 km/h (3 Bft) SW 231 25,7 km/h (4 Bft)
11.01.2012 23:19 7,3 C 67 % 0,0 l/m 16,7 km/h (3 Bft) W-SW 249 25,7 km/h (4 Bft)
11.01.2012 23:20 7,3 C 67 % 0,0 l/m 11,2 km/h (2 Bft) NW 306 16,1 km/h (3 Bft)
11.01.2012 23:21 7,3 C 67 % 0,0 l/m 19,6 km/h (3 Bft) W 274 32,2 km/h (5 Bft)
11.01.2012 23:22 7,3 C 67 % 0,0 l/m 17,1 km/h (3 Bft) NW 306 25,7 km/h (4 Bft)
11.01.2012 23:23 7,3 C 67 % 0,0 l/m 18,4 km/h (3 Bft) W-SW 245 25,7 km/h (4 Bft)
11.01.2012 23:24 7,3 C 67 % 0,0 l/m 10,1 km/h (2 Bft) N-NO 27 17,7 km/h (3 Bft)
11.01.2012 23:25 7,3 C 67 % 0,0 l/m 18,8 km/h (3 Bft) W 278 25,7 km/h (4 Bft)
11.01.2012 23:26 7,3 C 67 % 0,0 l/m 18,9 km/h (3 Bft) W-NW 283 25,7 km/h (4 Bft)
11.01.2012 23:27 7,3 C 67 % 0,0 l/m 16,1 km/h (3 Bft) O-NO 74 27,4 km/h (4 Bft)
11.01.2012 23:28 7,3 C 67 % 0,0 l/m 13,5 km/h (3 Bft) W 273 25,7 km/h (4 Bft)
11.01.2012 23:29 7,3 C 67 % 0,0 l/m 15,3 km/h (3 Bft) W-NW 293 25,7 km/h (4 Bft)
11.01.2012 23:30 7,3 C 68 % 0,0 l/m 16,8 km/h (3 Bft) N-NW 330 24,1 km/h (4 Bft)
11.01.2012 23:31 7,3 C 68 % 0,0 l/m 14,8 km/h (3 Bft) W-NW 299 24,1 km/h (4 Bft)
11.01.2012 23:32 7,3 C 68 % 0,0 l/m 14,1 km/h (3 Bft) S-SO 149 19,3 km/h (3 Bft)
11.01.2012 23:33 7,3 C 68 % 0,0 l/m 16,0 km/h (3 Bft) S 177 30,6 km/h (5 Bft)
11.01.2012 23:34 7,3 C 68 % 0,0 l/m 19,3 km/h (3 Bft) W 276 27,4 km/h (4 Bft)
11.01.2012 23:35 7,3 C 68 % 0,0 l/m 17,5 km/h (3 Bft) W-NW 300 29,0 km/h (5 Bft)
11.01.2012 23:36 7,3 C 68 % 0,0 l/m 11,9 km/h (2 Bft) S-SW 198 24,1 km/h (4 Bft)
11.01.2012 23:37 7,3 C 68 % 0,0 l/m 14,3 km/h (3 Bft) SW 221 24,1 km/h (4 Bft)
11.01.2012 23:38 7,3 C 68 % 0,0 l/m 16,3 km/h (3 Bft) W-NW 286 29,0 km/h (5 Bft)
11.01.2012 23:39 7,3 C 68 % 0,0 l/m 16,4 km/h (3 Bft) W-NW 285 30,6 km/h (5 Bft)
11.01.2012 23:40 7,3 C 68 % 0,0 l/m 16,4 km/h (3 Bft) O-NO 58 33,8 km/h (5 Bft)
11.01.2012 23:41 7,3 C 68 % 0,0 l/m 15,1 km/h (3 Bft) W-NW 295 25,7 km/h (4 Bft)
11.01.2012 23:42 7,3 C 68 % 0,0 l/m 18,6 km/h (3 Bft) W-NW 288 27,4 km/h (4 Bft)
11.01.2012 23:43 7,3 C 67 % 0,0 l/m 19,2 km/h (3 Bft) W-NW 286 35,4 km/h (5 Bft)
11.01.2012 23:44 7,3 C 68 % 0,0 l/m 17,5 km/h (3 Bft) NW 321 29,0 km/h (5 Bft)
11.01.2012 23:45 7,3 C 68 % 0,0 l/m 18,9 km/h (3 Bft) W 264 38,6 km/h (5 Bft)
11.01.2012 23:46 7,4 C 67 % 0,0 l/m 18,0 km/h (3 Bft) W 271 27,4 km/h (4 Bft)
11.01.2012 23:47 7,4 C 67 % 0,0 l/m 16,9 km/h (3 Bft) W 275 30,6 km/h (5 Bft)
11.01.2012 23:48 7,3 C 67 % 0,0 l/m 19,6 km/h (3 Bft) W-SW 246 30,6 km/h (5 Bft)
11.01.2012 23:49 7,4 C 67 % 0,0 l/m 14,0 km/h (3 Bft) O-NO 72 27,4 km/h (4 Bft)
11.01.2012 23:50 7,4 C 67 % 0,0 l/m 20,3 km/h (4 Bft) SW 236 37,0 km/h (5 Bft)
11.01.2012 23:51 7,4 C 67 % 0,0 l/m 24,0 km/h (4 Bft) W-SW 243 35,4 km/h (5 Bft)
11.01.2012 23:52 7,4 C 66 % 0,0 l/m 31,5 km/h (5 Bft) W-NW 303 45,1 km/h (6 Bft)
11.01.2012 23:53 7,4 C 66 % 0,0 l/m 21,8 km/h (4 Bft) W 274 32,2 km/h (5 Bft)
11.01.2012 23:54 7,5 C 66 % 0,0 l/m 12,5 km/h (3 Bft) S 187 29,0 km/h (5 Bft)
11.01.2012 23:55 7,5 C 66 % 0,0 l/m 21,6 km/h (4 Bft) W 277 29,0 km/h (5 Bft)
11.01.2012 23:56 7,4 C 67 % 0,0 l/m 20,4 km/h (4 Bft) NW 323 29,0 km/h (5 Bft)
11.01.2012 23:57 7,4 C 67 % 0,0 l/m 16,2 km/h (3 Bft) W-NW 300 27,4 km/h (4 Bft)
11.01.2012 23:58 7,4 C 67 % 0,0 l/m 19,5 km/h (3 Bft) W-NW 301 30,6 km/h (5 Bft)
11.01.2012 23:59 7,4 C 67 % 0,0 l/m 14,3 km/h (3 Bft) W-NW 283 22,5 km/h (4 Bft)
_ Min-Zeit 00:00 12:41 - 13:06 - - 00:49
Minimum _ 3,2 C 61 % - 1,4 km/h (1 Bft) - - 3,2 km/h (1 Bft)
_ Max-Zeit 11:28 02:58 00:00 17:05 - - 18:07
Maximum _ 9,0 C 81 % 0,0 l/m 35,3 km/h
N-NW (5 Bft)
- - 56,3 km/h
W-NW (7 Bft)
Durchschnitt _ 6,5 C 70 % #0,0 l/m 12,1 km/h (2 Bft) NW - 19,5 km/h (3 Bft)